Provisional Data: Marsh Creek near Blanchard, PA


Please select a monitoring station.
Please select start date.
Please select start date.

Toggle Unit: C/F Toggle Unit: C/F
Sample Time Temperature (C) Temperature (F) Specific Conductivity (mS/cm) pH   Turbidity (NTU+) DO (mg/L)
10/20/2020 12:00:00 AM 10.6 51.08 0.172 7.27 2.68 9.02
10/20/2020 12:15:00 AM 10.61 51.098 0.172 7.3 2.64 9.07
10/20/2020 12:30:00 AM 10.62 51.116 0.172 7.32 2.53 9.04
10/20/2020 12:45:00 AM 10.63 51.134 0.172 7.29 2.64 9.06
10/20/2020 1:00:00 AM 10.63 51.134 0.172 7.33 2.06 9.08
10/20/2020 1:15:00 AM 10.64 51.152 0.172 7.29 2.62 9.07
10/20/2020 1:30:00 AM 10.64 51.152 0.172 7.33 2.09 9.08
10/20/2020 1:45:00 AM 10.65 51.17 0.172 7.27 2.16 9.06
10/20/2020 2:00:00 AM 10.65 51.17 0.172 7.33 2.21 9.04
10/20/2020 2:15:00 AM 10.66 51.188 0.17 7.29 2.6 9.07
10/20/2020 2:30:00 AM 10.66 51.188 0.173 7.33 2.16 9.06
10/20/2020 2:45:00 AM 10.67 51.206 0.172 7.28 3.14 9.04
10/20/2020 3:00:00 AM 10.67 51.206 0.173 7.3 2.12 9.03
10/20/2020 3:15:00 AM 10.67 51.206 0.173 7.29 2.82 9.01
10/20/2020 3:30:00 AM 10.67 51.206 0.173 7.32 2.13 9.01
10/20/2020 3:45:00 AM 10.68 51.224 0.173 7.32 2.88 9.01
10/20/2020 4:00:00 AM 10.68 51.224 0.173 7.31 2.55 8.92
10/20/2020 4:15:00 AM 10.68 51.224 0.173 7.32 2.17 8.93
10/20/2020 4:30:00 AM 10.69 51.242 0.172 7.28 2.93 8.92
10/20/2020 4:45:00 AM 10.69 51.242 0.173 7.32 2.46 8.93
10/20/2020 5:00:00 AM 10.69 51.242 0.173 7.31 2.28 8.92
10/20/2020 5:15:00 AM 10.7 51.26 0.173 7.27 2.84 8.89
10/20/2020 5:30:00 AM 10.7 51.26 0.172 7.27 2.73 8.93
10/20/2020 5:45:00 AM 10.7 51.26 0.172 7.28 2.67 9.02
10/20/2020 6:00:00 AM 10.7 51.26 0.172 7.32 2.1 8.97
10/20/2020 6:15:00 AM 10.7 51.26 0.172 7.28 2.77 8.99
10/20/2020 6:30:00 AM 10.7 51.26 0.172 7.28 2.77 8.98
10/20/2020 6:45:00 AM 10.7 51.26 0.172 7.28 2.24 8.98
10/20/2020 7:00:00 AM 10.7 51.26 0.172 7.31 2.15 8.98
10/20/2020 7:15:00 AM 10.7 51.26 0.173 7.27 2.84 8.96
10/20/2020 7:30:00 AM 10.7 51.26 0.172 7.27 2.67 8.98
10/20/2020 7:45:00 AM 10.71 51.278 0.172 7.29 2.69 8.93
10/20/2020 8:00:00 AM 10.71 51.278 0.172 7.27 2.72 8.9
10/20/2020 8:15:00 AM 10.72 51.296 0.172 7.31 2.58 8.9
10/20/2020 8:30:00 AM 10.74 51.332 0.172 7.26 2.6 8.9
10/20/2020 8:45:00 AM 10.76 51.368 0.172 7.3 2.06 8.89
10/20/2020 9:00:00 AM 10.78 51.404 0.172 7.27 2.74 8.92
10/20/2020 9:15:00 AM 10.8 51.44 0.172 7.27 2.55 8.96
10/20/2020 9:30:00 AM 10.83 51.494 0.172 7.28 2.54 9.05
10/20/2020 9:45:00 AM 10.85 51.53 0.172 7.32 1.94 9.08
10/20/2020 10:00:00 AM 10.9 51.62 0.172 7.3 2.21 9.11
10/20/2020 10:15:00 AM 10.99 51.782 0.172 7.3 2.52 9.23
10/20/2020 10:30:00 AM 11.05 51.89 0.172 7.32 2.55 9.31
10/20/2020 10:45:00 AM 11.13 52.034 0.171 7.33 2.15 9.32
10/20/2020 11:00:00 AM 11.23 52.214 0.172 7.36 1.92 9.33
10/20/2020 11:15:00 AM 11.29 52.322 0.172 7.35 1.92 9.31
10/20/2020 11:30:00 AM 11.36 52.448 0.172 7.38 4.49 9.33
10/20/2020 11:45:00 AM 11.43 52.574 0.172 7.34 2.81 9.37
10/20/2020 12:00:00 PM 11.48 52.664 0.172 7.35 2.59 9.4
10/20/2020 12:15:00 PM 11.57 52.826 0.172 7.35 2.44 9.38
10/20/2020 12:30:00 PM 11.73 53.114 0.172 7.4 2 9.34
10/20/2020 12:45:00 PM 11.86 53.348 0.172 7.41 1.89 9.49
10/20/2020 1:00:00 PM 11.99 53.582 0.172 7.41 2.05 9.54
10/20/2020 1:15:00 PM 12.09 53.762 0.171 7.41 1.9 9.55
10/20/2020 1:30:00 PM 12.16 53.888 0.171 7.35 1.93 9.53
10/20/2020 1:45:00 PM 12.24 54.032 0.171 7.41 1.89 9.59
10/20/2020 2:00:00 PM 12.33 54.194 0.171 7.43 1.91 9.62
10/20/2020 2:15:00 PM 12.44 54.392 0.171 7.39 2.54 9.67
10/20/2020 2:30:00 PM 12.47 54.446 0.171 7.43 1.93 9.67
10/20/2020 2:45:00 PM 12.46 54.428 0.171 7.43 1.95 9.58
10/20/2020 3:00:00 PM 12.4 54.32 0.171 7.44 1.95 9.61
10/20/2020 3:15:00 PM 12.41 54.338 0.171 7.41 2.54 9.61
10/20/2020 3:30:00 PM 12.41 54.338 0.171 7.44 2 9.59
10/20/2020 3:45:00 PM 12.43 54.374 0.171 7.41 3.09 9.58
10/20/2020 4:00:00 PM 12.49 54.482 0.171 7.41 2.46 9.55
10/20/2020 4:15:00 PM 12.52 54.536 0.171 7.44 1.92 9.54
10/20/2020 4:30:00 PM 12.51 54.518 0.171 7.44 2.15 9.47
10/20/2020 4:45:00 PM 12.5 54.5 0.171 7.43 1.95 9.48
10/20/2020 5:00:00 PM 12.47 54.446 0.171 7.44 1.96 9.46
10/20/2020 5:15:00 PM 12.45 54.41 0.171 7.4 2.03 9.44
10/20/2020 5:30:00 PM 12.42 54.356 0.171 7.43 1.94 9.41
10/20/2020 5:45:00 PM 12.4 54.32 0.171 7.43 1.96 9.37
10/20/2020 6:00:00 PM 12.38 54.284 0.171 7.43 2 9.38
10/20/2020 6:15:00 PM 12.36 54.248 0.171 7.38 2.55 9.37
10/20/2020 6:30:00 PM 12.34 54.212 0.172 7.41 1.97 9.32
10/20/2020 6:45:00 PM 12.33 54.194 0.172 7.37 2.48 9.31
10/20/2020 7:00:00 PM 12.32 54.176 0.172 7.36 2.59 9.29
10/20/2020 7:15:00 PM 12.32 54.176 0.172 7.36 2.65 9.27
10/20/2020 7:30:00 PM 12.32 54.176 0.159 7.36 2.54 9.26
10/20/2020 7:45:00 PM 12.32 54.176 0.172 7.36 2.58 9.23
10/20/2020 8:00:00 PM 12.32 54.176 0.172 7.39 2.08 9.24
10/20/2020 8:15:00 PM 12.33 54.194 0.172 7.39 2.09 9.23
10/20/2020 8:30:00 PM 12.34 54.212 0.172 7.35 2.77 9.21
10/20/2020 8:45:00 PM 12.35 54.23 0.171 7.35 2.59 9.19
10/20/2020 9:00:00 PM 12.36 54.248 0.172 7.38 2.38 9.18
10/20/2020 9:15:00 PM 12.37 54.266 0.172 7.34 2.41 9.19
10/20/2020 9:30:00 PM 12.38 54.284 0.172 7.38 3.55 9.14
10/20/2020 9:45:00 PM 12.4 54.32 0.171 7.37 3.67 9.15
10/20/2020 10:00:00 PM 12.41 54.338 0.171 7.35 2.69 9.14
10/20/2020 10:15:00 PM 12.43 54.374 0.171 7.36 2.08 9.15
10/20/2020 10:30:00 PM 12.44 54.392 0.171 7.37 2.08 9.1
10/20/2020 10:45:00 PM 12.46 54.428 0.171 7.38 2.05 9.11
10/20/2020 11:00:00 PM 12.47 54.446 0.171 7.33 2.21 9.1
10/20/2020 11:15:00 PM 12.48 54.464 0.171 7.34 2.16 9.09
10/20/2020 11:30:00 PM 12.49 54.482 0.171 7.37 2.45 9.09
10/20/2020 11:45:00 PM 12.51 54.518 0.171 7.37 2.4 9.08
10/21/2020 12:00:00 AM 12.52 54.536 0.171 7.35 2.22 9.08
10/21/2020 12:15:00 AM 12.53 54.554 0.171 7.36 2.49 9.07
10/21/2020 12:30:00 AM 12.54 54.572 0.171 7.37 2.18 9.06
10/21/2020 12:45:00 AM 12.54 54.572 0.171 7.38 2.12 9.06
10/21/2020 1:00:00 AM 12.56 54.608 0.171 7.33 2.1 9.05
10/21/2020 1:15:00 AM 12.6 54.68 0.171 7.36 2.24 8.99
10/21/2020 1:30:00 AM 12.63 54.734 0.171 7.36 2.14 8.93
10/21/2020 1:45:00 AM 12.65 54.77 0.171 7.37 2.08 8.93
10/21/2020 2:00:00 AM 12.68 54.824 0.171 7.36 2.03 8.89
10/21/2020 2:15:00 AM 12.7 54.86 0.171 7.34 2.04 8.92
10/21/2020 2:30:00 AM 12.72 54.896 0.171 7.34 2.75 8.91
10/21/2020 2:45:00 AM 12.73 54.914 0.171 7.37 2.22 8.9
10/21/2020 3:00:00 AM 12.74 54.932 0.171 7.37 2.16 8.85
10/21/2020 3:15:00 AM 12.74 54.932 0.171 7.33 2.77 8.86
10/21/2020 3:30:00 AM 12.74 54.932 0.17 7.34 2.72 8.87
10/21/2020 3:45:00 AM 12.75 54.95 0.17 7.38 2.29 8.85
10/21/2020 4:00:00 AM 12.77 54.986 0.17 7.35 2.61 8.82
10/21/2020 4:15:00 AM 12.77 54.986 0.17 7.37 2.33 8.83
10/21/2020 4:30:00 AM 12.78 55.004 0.17 7.36 2.17 8.8
10/21/2020 4:45:00 AM 12.79 55.022 0.17 7.37 2.1 8.79
10/21/2020 5:00:00 AM 12.8 55.04 0.085 7.34 2.38 8.79
10/21/2020 5:15:00 AM 12.8 55.04 0.17 7.37 2.07 8.8
10/21/2020 5:30:00 AM 12.8 55.04 0.17 7.37 2.14 8.77
10/21/2020 5:45:00 AM 12.81 55.058 0.17 7.35 2.28 8.79
10/21/2020 6:00:00 AM 12.81 55.058 0.17 7.34 2.78 8.81
10/21/2020 6:15:00 AM 12.82 55.076 0.17 7.34 2.73 8.82
10/21/2020 6:30:00 AM 12.81 55.058 0.156 7.33 4.57 8.72
10/21/2020 6:45:00 AM 12.82 55.076 0.17 7.37 3.51 8.78
10/21/2020 7:00:00 AM 12.82 55.076 0.17 7.32 2.39 8.77
10/21/2020 7:15:00 AM 12.82 55.076 0.17 7.36 2.28 8.74
10/21/2020 7:30:00 AM 12.82 55.076 0.17 7.32 2.31 8.7
10/21/2020 7:45:00 AM 12.82 55.076 0.17 7.35 2.23 8.68
10/21/2020 8:00:00 AM 12.82 55.076 0.17 7.32 2.86 8.72
10/21/2020 8:15:00 AM 12.83 55.094 0.17 7.33 2.82 8.72
10/21/2020 8:30:00 AM 12.85 55.13 0.171 7.32 2.79 8.71
10/21/2020 8:45:00 AM 12.87 55.166 0.17 7.33 2.82 8.73
10/21/2020 9:00:00 AM 12.9 55.22 0.171 7.33 2.14 8.74
10/21/2020 9:15:00 AM 12.93 55.274 0.171 7.34 2.15 8.74
10/21/2020 9:30:00 AM 12.96 55.328 0.171 7.38 2.28 8.74
10/21/2020 9:45:00 AM 13.02 55.436 0.169 7.34 2.77 8.76
10/21/2020 10:00:00 AM 13.08 55.544 0.171 7.38 2.15 8.82
10/21/2020 10:15:00 AM 13.16 55.688 0.171 7.31 2.72 8.88
10/21/2020 10:30:00 AM 13.22 55.796 0.171 7.36 2.69 8.93
10/21/2020 10:45:00 AM 13.32 55.976 0.171 7.37 2.66 8.97
10/21/2020 11:00:00 AM 13.44 56.192 0.171 7.37 2.71 9.04
10/21/2020 11:15:00 AM 13.65 56.57 0.171 7.42 2.25 9.06
10/21/2020 11:30:00 AM 13.94 57.092 0.171 7.43 2.11 9.09
10/21/2020 11:45:00 AM 14.23 57.614 0.172 7.4 2.72 9.11
10/21/2020 12:00:00 PM 14.45 58.01 0.172 7.44 2.08 9.11
10/21/2020 12:15:00 PM 14.71 58.478 0.172 7.41 2.16 9.12
10/21/2020 12:30:00 PM 14.95 58.91 0.172 7.41 2.12 9.09
10/21/2020 12:45:00 PM 15.23 59.414 0.172 7.43 2.85 9.06
10/21/2020 1:00:00 PM 15.5 59.9 0.172 7.44 2.16 9.1
10/21/2020 1:15:00 PM 15.68 60.224 0.172 7.45 2.03 9.15
10/21/2020 1:30:00 PM 15.95 60.71 0.172 7.46 2.19 9.14
10/21/2020 1:45:00 PM 16.19 61.142 0.172 7.44 2.04 9.07
10/21/2020 2:00:00 PM 16.36 61.448 0.172 7.45 2.12 9.03
10/21/2020 2:15:00 PM 16.59 61.862 0.172 7.4 2.58 8.93
10/21/2020 2:30:00 PM 16.77 62.186 0.172 7.43 2.38 8.98
10/21/2020 2:45:00 PM 16.87 62.366 0.172 7.43 2.2 9.01
10/21/2020 3:00:00 PM 16.95 62.51 0.172 7.44 2.05 8.99
10/21/2020 3:15:00 PM 17.06 62.708 0.172 7.45 2.07 8.95
10/21/2020 3:30:00 PM 17.11 62.798 0.172 7.4 2.07 8.92
10/21/2020 3:45:00 PM 17.12 62.816 0.172 7.44 2.49 8.9
10/21/2020 4:00:00 PM 17.12 62.816 0.172 7.38 2.16 8.85
10/21/2020 4:15:00 PM 17.08 62.744 0.172 7.44 2.08 8.84
10/21/2020 4:30:00 PM 17.06 62.708 0.172 7.43 2.06 8.79
10/21/2020 4:45:00 PM 17.01 62.618 0.172 7.44 2.14 8.77
10/21/2020 5:00:00 PM 16.89 62.402 0.172 7.43 2.3 8.63
10/21/2020 5:15:00 PM 16.78 62.204 0.172 7.42 2.08 8.55
10/21/2020 5:30:00 PM 16.65 61.97 0.172 7.41 2.09 8.5
10/21/2020 5:45:00 PM 16.53 61.754 0.172 7.4 2.06 8.4
10/21/2020 6:00:00 PM 16.42 61.556 0.172 7.4 2.07 8.34
10/21/2020 6:15:00 PM 16.3 61.34 0.172 7.39 2.1 8.38
10/21/2020 6:30:00 PM 16.19 61.142 0.173 7.38 2.08 8.25
10/21/2020 6:45:00 PM 16.09 60.962 0.172 7.35 2.05 8.19
10/21/2020 7:00:00 PM 15.97 60.746 0.172 7.36 2.04 8.16
10/21/2020 7:15:00 PM 15.87 60.566 0.172 7.36 2.38 8.18
10/21/2020 7:30:00 PM 15.81 60.458 0.172 7.31 2.06 8.18
10/21/2020 7:45:00 PM 15.76 60.368 0.172 7.31 2.11 8.12
10/21/2020 8:00:00 PM 15.69 60.242 0.173 7.32 2.59 8.04
10/21/2020 8:15:00 PM 15.63 60.134 0.172 7.33 2.23 8.04
10/21/2020 8:30:00 PM 15.6 60.08 0.172 7.28 2.13 7.96
10/21/2020 8:45:00 PM 15.56 60.008 0.172 7.29 2.14 7.96
10/21/2020 9:00:00 PM 15.54 59.972 0.173 7.31 2.11 7.89
10/21/2020 9:15:00 PM 15.52 59.936 0.172 7.31 2.8 7.93
10/21/2020 9:30:00 PM 15.51 59.918 0.173 7.31 2.28 7.85
10/21/2020 9:45:00 PM 15.5 59.9 0.173 7.26 2.93 7.76
10/21/2020 10:00:00 PM 15.5 59.9 0.173 7.29 2.21 7.79
10/21/2020 10:15:00 PM 15.5 59.9 0.172 7.3 2.36 7.81
10/21/2020 10:30:00 PM 15.5 59.9 0.173 7.25 2.31 7.76
10/21/2020 10:45:00 PM 15.5 59.9 0.172 7.29 2.34 7.74
10/21/2020 11:00:00 PM 15.5 59.9 0.172 7.26 2.35 7.79
10/21/2020 11:15:00 PM 15.5 59.9 0.172 7.29 2.22 7.79
10/21/2020 11:30:00 PM 15.48 59.864 0.173 7.29 2.29 7.74
10/21/2020 11:45:00 PM 15.46 59.828 0.173 7.28 2.25 7.67
10/22/2020 12:00:00 AM 15.45 59.81 0.173 7.28 2.27 7.63
10/22/2020 12:15:00 AM 15.43 59.774 0.173 7.27 2.22 7.58
10/22/2020 12:30:00 AM 15.41 59.738 0.173 7.24 2.23 7.6
10/22/2020 12:45:00 AM 15.38 59.684 0.173 7.27 2.19 7.55
10/22/2020 1:00:00 AM 15.34 59.612 0.173 7.26 2.45 7.51
10/22/2020 1:15:00 AM 15.29 59.522 0.173 7.21 2.52 7.47
10/22/2020 1:30:00 AM 15.25 59.45 0.173 7.25 2.36 7.52
10/22/2020 1:45:00 AM 15.22 59.396 0.173 7.25 2.69 7.5
10/22/2020 2:00:00 AM 15.19 59.342 0.173 7.22 2.3 7.5
10/22/2020 2:15:00 AM 15.17 59.306 0.173 7.25 7.79 7.45
10/22/2020 2:30:00 AM 15.14 59.252 0.173 7.25 2.35 7.49
10/22/2020 2:45:00 AM 15.13 59.234 0.173 7.21 3.42 7.39
10/22/2020 3:00:00 AM 15.12 59.216 0.173 7.2 2.47 7.36
10/22/2020 3:15:00 AM 15.1 59.18 0.173 7.23 2.41 7.36
10/22/2020 3:30:00 AM 15.08 59.144 0.173 7.23 2.49 7.32
10/22/2020 3:45:00 AM 15.07 59.126 0.173 7.19 2.35 7.31
10/22/2020 4:00:00 AM 15.05 59.09 0.173 7.18 2.21 7.26
10/22/2020 4:15:00 AM 15.04 59.072 0.173 7.21 4.84 7.18
10/22/2020 4:30:00 AM 15.04 59.072 0.173 7.22 2.37 7.32
10/22/2020 4:45:00 AM 15.04 59.072 0.173 7.22 3.04 7.43
10/22/2020 5:00:00 AM 15.04 59.072 0.173 7.25 2.34 7.51
10/22/2020 5:15:00 AM 15.05 59.09 0.173 7.25 2.4 7.45
10/22/2020 5:30:00 AM 15.06 59.108 0.173 7.22 2.35 7.52
10/22/2020 5:45:00 AM 15.06 59.108 0.173 7.25 2.24 7.52
10/22/2020 6:00:00 AM 15.06 59.108 0.173 7.25 2.21 7.42
10/22/2020 6:15:00 AM 15.07 59.126 0.173 7.25 2.31 7.43
10/22/2020 6:30:00 AM 15.07 59.126 0.173 7.25 2.18 7.46
10/22/2020 6:45:00 AM 15.08 59.144 0.173 7.26 2.45 7.41
10/22/2020 7:00:00 AM 15.09 59.162 0.173 7.25 2.16 7.45
10/22/2020 7:15:00 AM 15.09 59.162 0.173 7.25 2.36 7.48
10/22/2020 7:30:00 AM 15.1 59.18 0.173 7.21 2.19 7.42
10/22/2020 7:45:00 AM 15.1 59.18 0.173 7.22 2.33 7.42
10/22/2020 8:00:00 AM 15.1 59.18 0.173 7.22 2.17 7.42
10/22/2020 8:15:00 AM 15.11 59.198 0.173 7.25 2.15 7.46
10/22/2020 8:30:00 AM 15.12 59.216 0.173 7.22 2.1 7.43
10/22/2020 8:45:00 AM 15.14 59.252 0.174 7.24 2.09 7.51
10/22/2020 9:00:00 AM 15.16 59.288 0.174 7.22 2.56 7.5
10/22/2020 9:15:00 AM 15.19 59.342 0.174 7.26 2.4 7.54
10/22/2020 9:30:00 AM 15.22 59.396 0.174 7.23 2.25 7.56
10/22/2020 9:45:00 AM 15.26 59.468 0.174 7.24 2.16 7.6
10/22/2020 10:00:00 AM 15.35 59.63 0.174 7.28 2.12 7.62
10/22/2020 10:15:00 AM 15.52 59.936 0.174 7.28 2.17 7.57
10/22/2020 10:30:00 AM 15.75 60.35 0.175 7.27 2.11 7.72
10/22/2020 10:45:00 AM 15.97 60.746 0.175 7.31 2.08 7.82
10/22/2020 11:00:00 AM 16.24 61.232 0.175 7.31 2.07 7.91
10/22/2020 11:15:00 AM 16.5 61.7 0.175 7.32 2.05 7.91
10/22/2020 11:30:00 AM 16.76 62.168 0.175 7.33 2.08 7.98
10/22/2020 11:45:00 AM 17.01 62.618 0.175 7.33 2.04 7.99
10/22/2020 12:00:00 PM 17.22 62.996 0.175 7.33 2.24 7.94
10/22/2020 12:15:00 PM 17.46 63.428 0.175 7.33 2 7.97
10/22/2020 12:30:00 PM 17.71 63.878 0.176 7.33 2.03 7.99
10/22/2020 12:45:00 PM 17.95 64.31 0.176 7.33 2.13 8.01
10/22/2020 1:00:00 PM 18.15 64.67 0.176 7.31 2.18 7.99
10/22/2020 1:15:00 PM 18.38 65.084 0.176 7.29 2.49 7.93
10/22/2020 1:30:00 PM 18.55 65.39 0.176 7.32 2.02 7.85
10/22/2020 1:45:00 PM 18.74 65.732 0.176 7.27 2.21 7.87
10/22/2020 2:00:00 PM 18.88 65.984 0.176 7.33 2.04 7.91
10/22/2020 2:15:00 PM 19.08 66.344 0.176 7.27 2.41 7.82
10/22/2020 2:30:00 PM 19.23 66.614 0.176 7.33 2.83 7.89
10/22/2020 2:45:00 PM 19.28 66.704 0.176 7.31 2.33 7.86
10/22/2020 3:00:00 PM 19.36 66.848 0.176 7.26 2.24 7.86
10/22/2020 3:15:00 PM 19.45 67.01 0.176 7.31 3.44 7.7
10/22/2020 3:30:00 PM 19.53 67.154 0.176 7.26 6.64 7.6
10/22/2020 3:45:00 PM 19.54 67.172 0.176 7.25 2.26 7.66
10/22/2020 4:00:00 PM 19.54 67.172 0.176 7.3 2.28 7.76
10/22/2020 4:15:00 PM 19.52 67.136 0.176 7.32 2.36 7.73
10/22/2020 4:30:00 PM 19.45 67.01 0.176 7.32 2.34 7.65
10/22/2020 4:45:00 PM 19.38 66.884 0.177 7.33 2.43 7.64
10/22/2020 5:00:00 PM 19.32 66.776 0.177 7.33 2.41 7.6
10/22/2020 5:15:00 PM 19.19 66.542 0.177 7.32 2.58 7.57
10/22/2020 5:30:00 PM 19.07 66.326 0.178 7.33 2.31 7.44
10/22/2020 5:45:00 PM 18.95 66.11 0.178 7.31 2.58 7.4
10/22/2020 6:00:00 PM 18.83 65.894 0.178 7.3 2.2 7.33
10/22/2020 6:15:00 PM 18.75 65.75 0.178 7.28 2.2 7.31
10/22/2020 6:30:00 PM 18.62 65.516 0.178 7.3 2.61 7.23
10/22/2020 6:45:00 PM 18.49 65.282 0.178 7.29 2.45 7.13
10/22/2020 7:00:00 PM 18.34 65.012 0.178 7.29 2.34 7.15
10/22/2020 7:15:00 PM 18.21 64.778 0.178 7.29 2.3 7.06
10/22/2020 7:30:00 PM 18.08 64.544 0.178 7.28 2.36 7.08
10/22/2020 7:45:00 PM 17.97 64.346 0.178 7.24 2.37 7.04
10/22/2020 8:00:00 PM 17.84 64.112 0.178 7.27 2.29 6.95
10/22/2020 8:15:00 PM 17.73 63.914 0.178 7.21 2.26 6.94
10/22/2020 8:30:00 PM 17.59 63.662 0.178 7.27 2.34 7.01
10/22/2020 8:45:00 PM 17.5 63.5 0.178 7.22 2.26 6.95
10/22/2020 9:00:00 PM 17.4 63.32 0.178 7.26 2.5 6.96
10/22/2020 9:15:00 PM 17.34 63.212 0.178 7.21 2.82 6.93
10/22/2020 9:30:00 PM 17.27 63.086 0.178 7.25 2.33 6.9
10/22/2020 9:45:00 PM 17.2 62.96 0.178 7.24 2.33 6.95
10/22/2020 10:00:00 PM 17.12 62.816 0.178 7.24 2.49 6.89
10/22/2020 10:15:00 PM 17.09 62.762 0.178 7.2 3.12 6.87
10/22/2020 10:30:00 PM 17.05 62.69 0.178 7.22 3.53 6.72
10/22/2020 10:45:00 PM 16.98 62.564 0.178 7.23 2.71 6.84
10/22/2020 11:00:00 PM 16.91 62.438 0.178 7.2 2.77 6.83
10/22/2020 11:15:00 PM 16.87 62.366 0.178 7.23 2.67 6.72
10/22/2020 11:30:00 PM 16.81 62.258 0.178 7.23 2.42 6.72
10/22/2020 11:45:00 PM 16.73 62.114 0.178 7.2 2.48 6.79
10/23/2020 12:00:00 AM 16.68 62.024 0.178 7.22 2.49 6.73
10/23/2020 12:15:00 AM 16.63 61.934 0.178 7.21 3.3 6.72
10/23/2020 12:30:00 AM 16.56 61.808 0.178 7.18 2.69 6.74
10/23/2020 12:45:00 AM 16.51 61.718 0.178 7.21 2.58 6.62
10/23/2020 1:00:00 AM 16.44 61.592 0.178 7.22 2.37 6.71
10/23/2020 1:15:00 AM 16.33 61.394 0.178 7.15 5.7 6.78
10/23/2020 1:30:00 AM 16.28 61.304 0.177 7.23 3.23 6.96
10/23/2020 1:45:00 AM 16.25 61.25 0.177 7.19 2.66 6.87
10/23/2020 2:00:00 AM 16.2 61.16 0.177 7.23 2.23 6.81
10/23/2020 2:15:00 AM 16.14 61.052 0.178 7.18 2.23 6.76
10/23/2020 2:30:00 AM 16.08 60.944 0.178 7.2 2.59 6.65
10/23/2020 2:45:00 AM 16.03 60.854 0.178 7.2 2.22 6.62
10/23/2020 3:00:00 AM 15.96 60.728 0.178 7.19 2.13 6.7
10/23/2020 3:15:00 AM 15.9 60.62 0.178 7.18 2.44 6.66
10/23/2020 3:30:00 AM 15.83 60.494 0.178 7.18 3.23 6.7
10/23/2020 3:45:00 AM 15.78 60.404 0.178 7.2 2.22 6.67
10/23/2020 4:00:00 AM 15.72 60.296 0.178 7.18 3.99 6.61
10/23/2020 4:15:00 AM 15.64 60.152 0.177 7.2 2.31 6.73
10/23/2020 4:30:00 AM 15.58 60.044 0.177 7.21 2.41 6.78
10/23/2020 4:45:00 AM 15.54 59.972 0.177 7.2 2.27 6.77
10/23/2020 5:00:00 AM 15.49 59.882 0.177 7.16 2.32 6.84
10/23/2020 5:15:00 AM 15.47 59.846 0.178 7.2 2.23 6.76
10/23/2020 5:30:00 AM 15.43 59.774 0.178 7.17 3.46 6.72
10/23/2020 5:45:00 AM 15.41 59.738 0.178 7.18 5.71 6.61
10/23/2020 6:00:00 AM 15.39 59.702 0.178 7.19 2.85 6.64
10/23/2020 6:15:00 AM 15.38 59.684 0.178 7.15 2.45 6.64
10/23/2020 6:30:00 AM 15.37 59.666 0.178 7.17 2.31 6.74
10/23/2020 6:45:00 AM 15.36 59.648 0.177 7.17 2.25 6.73
10/23/2020 7:00:00 AM 15.35 59.63 0.177 7.19 2.45 6.73
10/23/2020 7:15:00 AM 15.34 59.612 0.177 7.17 2.35 6.75
10/23/2020 7:30:00 AM 15.32 59.576 0.177 7.18 2.35 6.86
10/23/2020 7:45:00 AM 15.32 59.576 0.177 7.21 2.3 6.87
10/23/2020 8:00:00 AM 15.31 59.558 0.177 7.17 9.2 6.84
10/23/2020 8:15:00 AM 15.31 59.558 0.177 7.18 2.2 6.85
10/23/2020 8:30:00 AM 15.31 59.558 0.177 7.21 2.52 6.87
10/23/2020 8:45:00 AM 15.32 59.576 0.177 7.21 2.3 6.92
10/23/2020 9:00:00 AM 15.33 59.594 0.177 7.19 2.23 6.97
10/23/2020 9:15:00 AM 15.36 59.648 0.177 7.23 2.18 7.07
10/23/2020 9:30:00 AM 15.4 59.72 0.177 7.24 2.09 7.12
10/23/2020 9:45:00 AM 15.45 59.81 0.177 7.21 2.15 7.21
10/23/2020 10:00:00 AM 15.5 59.9 0.178 7.26 2.04 7.23
10/23/2020 10:15:00 AM 15.55 59.99 0.178 7.22 2.14 7.24
10/23/2020 10:30:00 AM 15.65 60.17 0.178 7.23 2.08 7.29
10/23/2020 10:45:00 AM 15.74 60.332 0.178 7.26 2.05 7.3
10/23/2020 11:00:00 AM 15.84 60.512 0.178 7.26 2.05 7.35
10/23/2020 11:15:00 AM 15.96 60.728 0.178 7.27 2.04 7.41
10/23/2020 11:30:00 AM 16.23 61.214 0.178 7.28 2.2 7.45
10/23/2020 11:45:00 AM 16.45 61.61 0.178 7.25 2.14 7.5
10/23/2020 12:00:00 PM 16.6 61.88 0.178 7.29 2.03 7.51
10/23/2020 12:15:00 PM 16.87 62.366 0.178 7.29 2.02 7.52
10/23/2020 12:30:00 PM 17.18 62.924 0.178 7.3 2.09 7.53
10/23/2020 12:45:00 PM 17.45 63.41 0.178 7.29 2.03 7.56
10/23/2020 1:00:00 PM 17.66 63.788 0.178 7.29 1.96 7.56
10/23/2020 1:15:00 PM 17.89 64.202 0.178 7.29 1.99 7.56
10/23/2020 1:30:00 PM 18.12 64.616 0.178 7.25 2 7.5
10/23/2020 1:45:00 PM 18.31 64.958 0.178 7.29 2.04 7.54
10/23/2020 2:00:00 PM 18.49 65.282 0.178 7.29 2.02 7.52
10/23/2020 2:15:00 PM 18.67 65.606 0.178 7.29 1.96 7.51
10/23/2020 2:30:00 PM 18.83 65.894 0.178 7.29 1.99 7.53
10/23/2020 2:45:00 PM 19.05 66.29 0.178 7.25 2 7.46
10/23/2020 3:00:00 PM 19.24 66.632 0.178 7.27 2.05 7.43
10/23/2020 3:15:00 PM 19.31 66.758 0.178 7.24 2.26 7.48
10/23/2020 3:30:00 PM 19.41 66.938 0.178 7.29 2.04 7.42
10/23/2020 3:45:00 PM 19.47 67.046 0.178 7.29 2.12 7.46
10/23/2020 4:00:00 PM 19.5 67.1 0.178 7.29 2.13 7.46
10/23/2020 4:15:00 PM 19.52 67.136 0.179 7.27 2.18 7.39
10/23/2020 4:30:00 PM 19.53 67.154 0.179 7.27 2.04 7.35
10/23/2020 4:45:00 PM 19.49 67.082 0.179 7.25 2.31 7.28
10/23/2020 5:00:00 PM 19.38 66.884 0.179 7.26 2 7.19
10/23/2020 5:15:00 PM 19.26 66.668 0.179 7.28 2.11 7.07
10/23/2020 5:30:00 PM 19.16 66.488 0.179 7.28 2.15 7.05
10/23/2020 5:45:00 PM 19.05 66.29 0.18 7.24 2.09 6.95
10/23/2020 6:00:00 PM 18.9 66.02 0.179 7.25 2.76 6.98
10/23/2020 6:15:00 PM 18.86 65.948 0.179 7.26 2.74 6.98
10/23/2020 6:30:00 PM 18.76 65.768 0.179 7.25 2.6 6.91
10/23/2020 6:45:00 PM 18.65 65.57 0.18 7.23 2.23 6.74
10/23/2020 7:00:00 PM 18.51 65.318 0.18 7.23 2.3 6.63
10/23/2020 7:15:00 PM 18.41 65.138 0.18 7.22 3.19 6.67
10/23/2020 7:30:00 PM 18.28 64.904 0.18 7.24 2.58 6.62
10/23/2020 7:45:00 PM 18.14 64.652 0.18 7.2 2.22 6.59
10/23/2020 8:00:00 PM 18.01 64.418 0.18 7.22 2.23 6.57
10/23/2020 8:15:00 PM 17.89 64.202 0.18 7.23 2.26 6.56
10/23/2020 8:30:00 PM 17.78 64.004 0.18 7.22 2.49 6.49
10/23/2020 8:45:00 PM 17.63 63.734 0.18 7.22 2.6 6.45
10/23/2020 9:00:00 PM 17.54 63.572 0.18 7.22 2.33 6.43
10/23/2020 9:15:00 PM 17.41 63.338 0.18 7.22 2.5 6.5
10/23/2020 9:30:00 PM 17.35 63.23 0.18 7.21 16.37 6.49
10/23/2020 9:45:00 PM 17.23 63.014 0.18 7.19 2.55 6.39
10/23/2020 10:00:00 PM 17.13 62.834 0.18 7.18 2.28 6.46
10/23/2020 10:15:00 PM 17.04 62.672 0.18 7.21 2.26 6.51
10/23/2020 10:30:00 PM 16.95 62.51 0.18 7.21 2.58 6.49
10/23/2020 10:45:00 PM 16.9 62.42 0.18 7.17 2.66 6.47
10/23/2020 11:00:00 PM 16.81 62.258 0.18 7.2 2.5 6.44
10/23/2020 11:15:00 PM 16.77 62.186 0.18 7.2 2.65 6.41
10/23/2020 11:30:00 PM 16.68 62.024 0.18 7.19 2.47 6.48
10/23/2020 11:45:00 PM 16.63 61.934 0.18 7.19 2.43 6.4
10/24/2020 12:00:00 AM 16.58 61.844 0.18 7.19 6.31 6.24
10/24/2020 12:15:00 AM 16.51 61.718 0.18 7.17 2.83 6.28
10/24/2020 12:30:00 AM 16.46 61.628 0.18 7.19 2.85 6.36
10/24/2020 12:45:00 AM 16.42 61.556 0.18 7.18 4.67 6.29
10/24/2020 1:00:00 AM 16.36 61.448 0.18 7.14 2.95 6.33
10/24/2020 1:15:00 AM 16.31 61.358 0.18 7.15 2.87 6.36
10/24/2020 1:30:00 AM 16.26 61.268 0.18 7.16 2.69 6.33
10/24/2020 1:45:00 AM 16.2 61.16 0.18 7.18 3.03 6.28
10/24/2020 2:00:00 AM 16.16 61.088 0.18 7.17 4.79 6.08
10/24/2020 2:15:00 AM 16.12 61.016 0.18 7.14 4.33 6.13
10/24/2020 2:30:00 AM 16.08 60.944 0.18 7.14 2.82 6.22
10/24/2020 2:45:00 AM 16.05 60.89 0.18 7.14 3.1 6.18
10/24/2020 3:00:00 AM 16.01 60.818 0.18 7.14 2.98 6.17
10/24/2020 3:15:00 AM 15.97 60.746 0.18 7.17 2.82 6.16
10/24/2020 3:30:00 AM 15.92 60.656 0.18 7.16 2.87 6.18
10/24/2020 3:45:00 AM 15.9 60.62 0.18 7.17 2.54 6.14
10/24/2020 4:00:00 AM 15.86 60.548 0.18 7.17 3.3 6.16
10/24/2020 4:15:00 AM 15.83 60.494 0.18 7.16 2.96 6.14
10/24/2020 4:30:00 AM 15.8 60.44 0.18 7.16 2.77 6.22
10/24/2020 4:45:00 AM 15.77 60.386 0.179 7.16 2.65 6.18
10/24/2020 5:00:00 AM 15.76 60.368 0.179 7.17 2.6 6.27
10/24/2020 5:15:00 AM 15.74 60.332 0.179 7.17 3.05 6.21
10/24/2020 5:30:00 AM 15.73 60.314 0.179 7.17 2.65 6.16
10/24/2020 5:45:00 AM 15.71 60.278 0.179 7.16 2.59 6.12
10/24/2020 6:00:00 AM 15.71 60.278 0.179 7.16 2.72 6.1
10/24/2020 6:15:00 AM 15.7 60.26 0.179 7.16 2.68 6.1
10/24/2020 6:30:00 AM 15.69 60.242 0.179 7.13 2.63 6.04
10/24/2020 6:45:00 AM 15.69 60.242 0.179 7.16 2.71 6.04
10/24/2020 7:00:00 AM 15.68 60.224 0.179 7.12 2.75 6.05
10/24/2020 7:15:00 AM 15.68 60.224 0.179 7.16 2.56 6.1
10/24/2020 7:30:00 AM 15.67 60.206 0.179 7.14 2.57 6.17
10/24/2020 7:45:00 AM 15.67 60.206 0.179 7.17 2.56 6.17
10/24/2020 8:00:00 AM 15.67 60.206 0.179 7.16 2.5 6.17
10/24/2020 8:15:00 AM 15.66 60.188 0.179 7.17 2.49 6.21
10/24/2020 8:30:00 AM 15.65 60.17 0.179 7.17 2.44 6.32
10/24/2020 8:45:00 AM 15.64 60.152 0.179 7.18 2.57 6.36
10/24/2020 9:00:00 AM 15.63 60.134 0.179 7.18 2.36 6.36
10/24/2020 9:15:00 AM 15.62 60.116 0.179 7.18 2.44 6.38
10/24/2020 9:30:00 AM 15.61 60.098 0.179 7.15 2.44 6.35
10/24/2020 9:45:00 AM 15.59 60.062 0.179 7.17 2.44 6.43
10/24/2020 10:00:00 AM 15.58 60.044 0.179 7.18 2.11 6.42
10/24/2020 10:15:00 AM 15.57 60.026 0.179 7.18 2.13 6.45
10/24/2020 10:30:00 AM 15.56 60.008 0.179 7.18 2.12 6.37
10/24/2020 10:45:00 AM 15.54 59.972 0.179 7.15 2.05 6.43
10/24/2020 11:00:00 AM 15.53 59.954 0.179 7.19 2.11 6.43
10/24/2020 11:15:00 AM 15.54 59.972 0.179 7.18 2.02 6.38
10/24/2020 11:30:00 AM 15.57 60.026 0.179 7.17 2.04 6.38
10/24/2020 11:45:00 AM 15.64 60.152 0.179 7.2 2.04 6.54
10/24/2020 12:00:00 PM 15.81 60.458 0.179 7.22 2 6.76
10/24/2020 12:15:00 PM 15.84 60.512 0.179 7.2 2.05 6.83
10/24/2020 12:30:00 PM 15.87 60.566 0.18 7.19 2.01 6.8
10/24/2020 12:45:00 PM 15.92 60.656 0.18 7.2 1.96 6.88
10/24/2020 1:00:00 PM 15.96 60.728 0.18 7.22 2 6.88
10/24/2020 1:15:00 PM 16.03 60.854 0.18 7.24 2 6.93
10/24/2020 1:30:00 PM 16.07 60.926 0.18 7.23 1.96 6.94
10/24/2020 1:45:00 PM 16.06 60.908 0.18 7.22 2.03 6.94
10/24/2020 2:00:00 PM 16.07 60.926 0.18 7.22 1.98 6.91
10/24/2020 2:15:00 PM 16.09 60.962 0.18 7.19 2.02 6.89
10/24/2020 2:30:00 PM 16.18 61.124 0.18 7.23 2.12 6.95
10/24/2020 2:45:00 PM 16.33 61.394 0.18 7.22 2.17 6.95
10/24/2020 3:00:00 PM 16.45 61.61 0.18 7.23 2.04 6.92
10/24/2020 3:15:00 PM 16.51 61.718 0.18 7.23 3.02 6.94
10/24/2020 3:30:00 PM 16.53 61.754 0.179 7.2 2.31 7.03
10/24/2020 3:45:00 PM 16.55 61.79 0.179 7.24 2.32 7.1
10/24/2020 4:00:00 PM 16.51 61.718 0.18 7.22 2.17 7.13
10/24/2020 4:15:00 PM 16.47 61.646 0.179 7.24 2.46 7.11
10/24/2020 4:30:00 PM 16.47 61.646 0.179 7.24 5.5 7.05
10/24/2020 4:45:00 PM 16.4 61.52 0.179 7.23 2.45 7.18
10/24/2020 5:00:00 PM 16.31 61.358 0.179 7.23 3.15 7.03
10/24/2020 5:15:00 PM 16.21 61.178 0.18 7.27 2.53 7.24
10/24/2020 5:30:00 PM 16.1 60.98 0.18 7.24 2.42 7.17
10/24/2020 5:45:00 PM 15.95 60.71 0.18 7.26 2.28 7.14
10/24/2020 6:00:00 PM 15.84 60.512 0.18 7.25 2.52 7.09
10/24/2020 6:15:00 PM 15.73 60.314 0.18 7.25 2.11 7.02
10/24/2020 6:30:00 PM 15.6 60.08 0.18 7.24 2.24 6.98
10/24/2020 6:45:00 PM 15.51 59.918 0.18 7.21 2.57 6.93
10/24/2020 7:00:00 PM 15.4 59.72 0.18 7.21 2.13 6.91
10/24/2020 7:15:00 PM 15.29 59.522 0.18 7.23 2.12 6.83
10/24/2020 7:30:00 PM 15.17 59.306 0.181 7.23 2.02 6.81
10/24/2020 7:45:00 PM 15.05 59.09 0.181 7.22 2.09 6.76
10/24/2020 8:00:00 PM 14.94 58.892 0.181 7.18 2.44 6.75
10/24/2020 8:15:00 PM 14.84 58.712 0.181 7.22 2.21 6.73
10/24/2020 8:30:00 PM 14.72 58.496 0.181 7.17 2.68 6.78
10/24/2020 8:45:00 PM 14.61 58.298 0.181 7.18 2.16 6.71
10/24/2020 9:00:00 PM 14.52 58.136 0.181 7.2 2.13 6.69
10/24/2020 9:15:00 PM 14.42 57.956 0.181 7.2 3.03 6.71
10/24/2020 9:30:00 PM 14.33 57.794 0.181 7.17 2.1 6.72
10/24/2020 9:45:00 PM 14.25 57.65 0.181 7.21 2.08 6.73
10/24/2020 10:00:00 PM 14.16 57.488 0.181 7.2 2.08 6.77
10/24/2020 10:15:00 PM 14.08 57.344 0.181 7.2 2.12 6.82
10/24/2020 10:30:00 PM 14.01 57.218 0.181 7.2 2.09 6.73
10/24/2020 10:45:00 PM 13.91 57.038 0.181 7.19 2.11 6.82
10/24/2020 11:00:00 PM 13.85 56.93 0.181 7.2 2.13 6.79
10/24/2020 11:15:00 PM 13.75 56.75 0.181 7.2 2.09 6.87
10/24/2020 11:30:00 PM 13.67 56.606 0.181 7.21 3.12 6.83
10/24/2020 11:45:00 PM 13.54 56.372 0.181 7.21 2.08 6.92
10/25/2020 12:00:00 AM 13.45 56.21 0.181 7.16 2.28 6.99
10/25/2020 12:15:00 AM 13.35 56.03 0.181 7.21 2.44 6.94
10/25/2020 12:30:00 AM 13.27 55.886 0.181 7.16 2.15 6.96
10/25/2020 12:45:00 AM 13.16 55.688 0.181 7.17 2.14 7
10/25/2020 1:00:00 AM 13.06 55.508 0.181 7.17 2.72 6.97
10/25/2020 1:15:00 AM 12.96 55.328 0.164 7.17 2.74 7.04
10/25/2020 1:30:00 AM 12.89 55.202 0.175 7.11 2.76 7.01
10/25/2020 1:45:00 AM 12.78 55.004 0.181 7.1 2.95 7.04
10/25/2020 2:00:00 AM 12.72 54.896 0.181 7.12 2.72 6.95
10/25/2020 2:15:00 AM 12.63 54.734 0.181 7.14 2.43 6.97
10/25/2020 2:30:00 AM 12.55 54.59 0.181 7.14 2.34 6.96
10/25/2020 2:45:00 AM 12.47 54.446 0.181 7.09 2.29 7.02
10/25/2020 3:00:00 AM 12.36 54.248 0.181 7.11 3.04 6.99
10/25/2020 3:15:00 AM 12.26 54.068 0.181 7.09 3.02 6.96
10/25/2020 3:30:00 AM 12.19 53.942 0.166 7.11 3.05 7.01
10/25/2020 3:45:00 AM 12.12 53.816 0.181 7.11 3.03 7.03
10/25/2020 4:00:00 AM 12 53.6 0.181 7.16 2.33 7.13
10/25/2020 4:15:00 AM 11.94 53.492 0.18 7.12 3.51 7.13
10/25/2020 4:30:00 AM 11.84 53.312 0.181 7.16 2.56 7.21
10/25/2020 4:45:00 AM 11.77 53.186 0.179 7.11 3.55 7.19
10/25/2020 5:00:00 AM 11.72 53.096 0.18 7.12 3.2 7.2
10/25/2020 5:15:00 AM 11.61 52.898 0.168 7.13 2.93 7.34
10/25/2020 5:30:00 AM 11.55 52.79 0.165 7.13 2.93 7.31
10/25/2020 5:45:00 AM 11.43 52.574 0.152 7.14 2.84 7.33
10/25/2020 6:00:00 AM 11.38 52.484 0.181 7.13 3.18 7.3
10/25/2020 6:15:00 AM 11.29 52.322 0.153 7.13 5.21 7.26
10/25/2020 6:30:00 AM 11.2 52.16 0.181 7.13 3.59 7.36
10/25/2020 6:45:00 AM 11.15 52.07 0.181 7.13 3.64 7.41
10/25/2020 7:00:00 AM 11.08 51.944 0.181 7.13 3.03 7.33
10/25/2020 7:15:00 AM 11.01 51.818 0.181 7.17 2.73 7.39
10/25/2020 7:30:00 AM 10.97 51.746 0.181 7.13 3.06 7.37
10/25/2020 7:45:00 AM 10.9 51.62 0.156 7.16 2.81 7.51
10/25/2020 8:00:00 AM 10.86 51.548 0.18 7.15 2.94 7.5
10/25/2020 8:15:00 AM 10.84 51.512 0.179 7.16 2.81 7.45
10/25/2020 8:30:00 AM 10.8 51.44 0.179 7.17 2.82 7.51
10/25/2020 8:45:00 AM 10.78 51.404 0.18 7.21 2.62 7.52
10/25/2020 9:00:00 AM 10.72 51.296 0.092 7.19 2.5 7.7
10/25/2020 9:15:00 AM 10.69 51.242 0.18 7.23 2.3 7.71
10/25/2020 9:30:00 AM 10.69 51.242 0.179 7.19 2.75 7.66
10/25/2020 9:45:00 AM 10.71 51.278 0.18 7.22 2.09 7.65
10/25/2020 10:00:00 AM 10.72 51.296 0.18 7.24 2.08 7.71
10/25/2020 10:15:00 AM 10.75 51.35 0.18 7.21 2.1 7.75
10/25/2020 10:30:00 AM 10.76 51.368 0.18 7.26 2.08 8
10/25/2020 10:45:00 AM 10.86 51.548 0.18 7.29 1.97 8.22
10/25/2020 11:00:00 AM 11.05 51.89 0.18 7.31 1.97 8.27
10/25/2020 11:15:00 AM 11.2 52.16 0.18 7.3 2 8.24
10/25/2020 11:30:00 AM 11.38 52.484 0.18 7.27 2.85 8.4
10/25/2020 11:45:00 AM 11.61 52.898 0.18 7.29 3.02 8.48
10/25/2020 12:00:00 PM 11.59 52.862 0.18 7.33 2 8.53
10/25/2020 12:15:00 PM 11.69 53.042 0.18 7.31 2.1 8.66
10/25/2020 12:30:00 PM 12.03 53.654 0.179 7.32 2.14 8.66
10/25/2020 12:45:00 PM 12.14 53.852 0.18 7.31 2.71 8.6
10/25/2020 1:00:00 PM 12.17 53.906 0.18 7.32 2.48 8.67
10/25/2020 1:15:00 PM 12.18 53.924 0.18 7.31 2.54 8.64
10/25/2020 1:30:00 PM 12.34 54.212 0.18 7.32 2.76 8.62
10/25/2020 1:45:00 PM 12.46 54.428 0.106 7.34 2.21 8.77
10/25/2020 2:00:00 PM 12.6 54.68 0.179 7.34 2.47 8.76
10/25/2020 2:15:00 PM 12.76 54.968 0.18 7.38 1.92 8.75
10/25/2020 2:30:00 PM 12.81 55.058 0.18 7.38 1.93 8.76
10/25/2020 2:45:00 PM 12.81 55.058 0.18 7.38 2.05 8.83
10/25/2020 3:00:00 PM 12.88 55.184 0.18 7.38 2.02 8.78
10/25/2020 3:15:00 PM 12.89 55.202 0.18 7.34 1.9 8.77
10/25/2020 3:30:00 PM 12.91 55.238 0.18 7.38 1.94 8.79
10/25/2020 3:45:00 PM 12.96 55.328 0.18 7.39 2.12 8.82
10/25/2020 4:00:00 PM 12.98 55.364 0.18 7.35 2.52 8.83
10/25/2020 4:15:00 PM 12.98 55.364 0.18 7.39 1.88 8.83
10/25/2020 4:30:00 PM 12.96 55.328 0.18 7.39 1.92 8.83
10/25/2020 4:45:00 PM 12.91 55.238 0.18 7.37 1.88 8.78
10/25/2020 5:00:00 PM 12.87 55.166 0.18 7.38 2.07 8.75
10/25/2020 5:15:00 PM 12.82 55.076 0.18 7.36 1.91 8.72
10/25/2020 5:30:00 PM 12.76 54.968 0.18 7.37 2.76 8.62
10/25/2020 5:45:00 PM 12.67 54.806 0.181 7.37 1.9 8.58
10/25/2020 6:00:00 PM 12.58 54.644 0.18 7.36 1.93 8.59
10/25/2020 6:15:00 PM 12.46 54.428 0.181 7.36 1.98 8.59
10/25/2020 6:30:00 PM 12.38 54.284 0.181 7.32 2.56 8.54
10/25/2020 6:45:00 PM 12.31 54.158 0.181 7.33 1.91 8.51
10/25/2020 7:00:00 PM 12.24 54.032 0.181 7.34 1.88 8.47
10/25/2020 7:15:00 PM 12.2 53.96 0.181 7.32 1.89 8.48
10/25/2020 7:30:00 PM 12.14 53.852 0.173 7.31 2.52 8.47
10/25/2020 7:45:00 PM 12.07 53.726 0.181 7.3 2.56 8.42
10/25/2020 8:00:00 PM 12 53.6 0.181 7.33 2.02 8.41
10/25/2020 8:15:00 PM 11.94 53.492 0.181 7.33 2.25 8.4
10/25/2020 8:30:00 PM 11.88 53.384 0.181 7.33 1.98 8.39
10/25/2020 8:45:00 PM 11.82 53.276 0.181 7.29 2.68 8.4
10/25/2020 9:00:00 PM 11.78 53.204 0.181 7.32 2.88 8.37
10/25/2020 9:15:00 PM 11.74 53.132 0.181 7.32 2.07 8.4
10/25/2020 9:30:00 PM 11.65 52.97 0.181 7.28 2.6 8.44
10/25/2020 9:45:00 PM 11.63 52.934 0.179 7.28 2.73 8.43
10/25/2020 10:00:00 PM 11.58 52.844 0.097 7.28 2.64 8.41
10/25/2020 10:15:00 PM 11.54 52.772 0.181 7.28 2.56 8.41
10/25/2020 10:30:00 PM 11.47 52.646 0.181 7.32 2.55 8.49
10/25/2020 10:45:00 PM 11.43 52.574 0.18 7.29 2.66 8.51
10/25/2020 11:00:00 PM 11.41 52.538 0.18 7.31 2.16 8.47
10/25/2020 11:15:00 PM 11.35 52.43 0.18 7.32 2.34 8.45
10/25/2020 11:30:00 PM 11.32 52.376 0.18 7.27 2.74 8.45
10/25/2020 11:45:00 PM 11.3 52.34 0.18 7.27 2.82 8.44
10/26/2020 12:00:00 AM 11.28 52.304 0.18 7.27 2.99 8.41
10/26/2020 12:15:00 AM 11.26 52.268 0.18 7.28 2.09 8.42
10/26/2020 12:30:00 AM 11.23 52.214 0.18 7.3 2.15 8.38
10/26/2020 12:45:00 AM 11.22 52.196 0.18 7.25 3.53 8.31
10/26/2020 1:00:00 AM 11.2 52.16 0.18 7.3 2.4 8.34
10/26/2020 1:15:00 AM 11.17 52.106 0.18 7.26 2.92 8.36
10/26/2020 1:30:00 AM 11.15 52.07 0.18 7.26 2.99 8.36
10/26/2020 1:45:00 AM 11.13 52.034 0.135 7.26 2.73 8.39
10/26/2020 2:00:00 AM 11.12 52.016 0.18 7.29 2.46 8.38
10/26/2020 2:15:00 AM 11.08 51.944 0.18 7.27 2.97 8.38
10/26/2020 2:30:00 AM 11.07 51.926 0.18 7.26 2.86 8.4
10/26/2020 2:45:00 AM 11.05 51.89 0.18 7.24 2.79 8.38
10/26/2020 3:00:00 AM 11.03 51.854 0.18 7.27 2.8 8.41
10/26/2020 3:15:00 AM 11.02 51.836 0.18 7.26 2.81 8.39
10/26/2020 3:30:00 AM 10.98 51.764 0.18 7.28 2.82 8.42
10/26/2020 3:45:00 AM 10.97 51.746 0.18 7.3 2.16 8.4
10/26/2020 4:00:00 AM 10.95 51.71 0.18 7.26 2.8 8.39
10/26/2020 4:15:00 AM 10.94 51.692 0.176 7.26 2.65 8.3
10/26/2020 4:30:00 AM 10.91 51.638 0.18 7.27 2.6 8.41
10/26/2020 4:45:00 AM 10.92 51.656 0.18 7.26 2.04 8.32
10/26/2020 5:00:00 AM 10.91 51.638 0.18 7.25 2.07 8.3
10/26/2020 5:15:00 AM 10.86 51.548 0.18 7.26 2.63 8.38
10/26/2020 5:30:00 AM 10.85 51.53 0.18 7.29 2.3 8.36
10/26/2020 5:45:00 AM 10.85 51.53 0.18 7.26 2.12 8.32
10/26/2020 6:00:00 AM 10.83 51.494 0.18 7.26 2.84 8.3
10/26/2020 6:15:00 AM 10.81 51.458 0.18 7.26 2.81 8.33
10/26/2020 6:30:00 AM 10.8 51.44 0.18 7.25 2.87 8.21
10/26/2020 6:45:00 AM 10.78 51.404 0.181 7.28 2.09 8.33
10/26/2020 7:00:00 AM 10.75 51.35 0.18 7.3 2.05 8.4
10/26/2020 7:15:00 AM 10.74 51.332 0.18 7.26 2.64 8.39
10/26/2020 7:30:00 AM 10.72 51.296 0.18 7.26 2.64 8.43
10/26/2020 7:45:00 AM 10.72 51.296 0.179 7.27 2.9 8.44
10/26/2020 8:00:00 AM 10.71 51.278 0.18 7.25 2.66 8.3
10/26/2020 8:15:00 AM 10.69 51.242 0.169 7.27 2.78 8.43
10/26/2020 8:30:00 AM 10.66 51.188 0.179 7.31 2.03 8.54
10/26/2020 8:45:00 AM 10.65 51.17 0.179 7.27 2.6 8.56
10/26/2020 9:00:00 AM 10.65 51.17 0.179 7.31 2.09 8.54
10/26/2020 9:15:00 AM 10.65 51.17 0.179 7.31 2.05 8.54
10/26/2020 9:30:00 AM 10.64 51.152 0.179 7.32 1.99 8.57
10/26/2020 9:45:00 AM 10.64 51.152 0.179 7.27 1.93 8.6
10/26/2020 10:00:00 AM 10.65 51.17 0.179 7.32 1.94 8.64
10/26/2020 10:15:00 AM 10.66 51.188 0.178 7.29 2.21 8.69
10/26/2020 10:30:00 AM 10.68 51.224 0.172 7.28 2.6 8.61
10/26/2020 10:45:00 AM 10.69 51.242 0.179 7.31 1.91 8.61
10/26/2020 11:00:00 AM 10.71 51.278 0.179 7.3 2.63 8.67
10/26/2020 11:15:00 AM 10.75 51.35 0.179 7.3 2.57 8.74
10/26/2020 11:30:00 AM 10.77 51.386 0.179 7.3 1.97 8.72
10/26/2020 11:45:00 AM 10.82 51.476 0.179 7.33 1.93 8.76
10/26/2020 12:00:00 PM 10.87 51.566 0.179 7.34 1.91 8.82
10/26/2020 12:15:00 PM 10.91 51.638 0.179 7.3 2.52 8.82
10/26/2020 12:30:00 PM 10.96 51.728 0.179 7.31 2.52 8.87
10/26/2020 12:45:00 PM 11 51.8 0.179 7.32 2.58 8.89
10/26/2020 1:00:00 PM 11.05 51.89 0.179 7.33 2.51 8.95
10/26/2020 1:15:00 PM 11.09 51.962 0.179 7.32 2.47 8.96
10/26/2020 1:30:00 PM 11.13 52.034 0.179 7.32 2.6 8.9
10/26/2020 1:45:00 PM 11.16 52.088 0.179 7.36 1.96 8.95
10/26/2020 2:00:00 PM 11.19 52.142 0.179 7.34 2.46 8.94
10/26/2020 2:15:00 PM 11.23 52.214 0.179 7.37 1.92 9
10/26/2020 2:30:00 PM 11.24 52.232 0.179 7.37 1.95 8.98
10/26/2020 2:45:00 PM 11.25 52.25 0.179 7.37 1.92 8.97
10/26/2020 3:00:00 PM 11.26 52.268 0.179 7.33 1.89 9
10/26/2020 3:15:00 PM 11.28 52.304 0.179 7.34 2.52 9.02
10/26/2020 3:30:00 PM 11.3 52.34 0.165 7.34 2.61 9.01
10/26/2020 3:45:00 PM 11.31 52.358 0.179 7.33 2.62 8.99
10/26/2020 4:00:00 PM 11.33 52.394 0.179 7.35 2.6 8.99
10/26/2020 4:15:00 PM 11.38 52.484 0.178 7.34 2.49 8.98
10/26/2020 4:30:00 PM 11.43 52.574 0.179 7.33 2.56 8.95
10/26/2020 4:45:00 PM 11.46 52.628 0.179 7.37 1.94 8.97
10/26/2020 5:00:00 PM 11.48 52.664 0.179 7.33 2.52 8.96
10/26/2020 5:15:00 PM 11.49 52.682 0.179 7.33 2.6 8.92
10/26/2020 5:30:00 PM 11.49 52.682 0.179 7.37 1.98 8.94
10/26/2020 5:45:00 PM 11.49 52.682 0.179 7.32 3.29 8.75
10/26/2020 6:00:00 PM 11.47 52.646 0.179 7.33 2.59 8.85
10/26/2020 6:15:00 PM 11.46 52.628 0.179 7.3 1.97 8.83
10/26/2020 6:30:00 PM 11.45 52.61 0.179 7.31 2.01 8.72
10/26/2020 6:45:00 PM 11.42 52.556 0.179 7.35 2.01 8.79
10/26/2020 7:00:00 PM 11.42 52.556 0.175 7.32 2.51 8.79
10/26/2020 7:15:00 PM 11.4 52.52 0.176 7.32 2.65 8.75
10/26/2020 7:30:00 PM 11.4 52.52 0.179 7.31 2.64 8.67
10/26/2020 7:45:00 PM 11.37 52.466 0.179 7.31 2.73 8.7
10/26/2020 8:00:00 PM 11.36 52.448 0.18 7.34 1.99 8.71
10/26/2020 8:15:00 PM 11.36 52.448 0.18 7.33 1.97 8.66
10/26/2020 8:30:00 PM 11.34 52.412 0.17 7.31 2.67 8.64
10/26/2020 8:45:00 PM 11.34 52.412 0.179 7.3 1.97 8.58
10/26/2020 9:00:00 PM 11.34 52.412 0.179 7.3 2.59 8.58
10/26/2020 9:15:00 PM 11.33 52.394 0.18 7.3 2.68 8.59
10/26/2020 9:30:00 PM 11.33 52.394 0.179 7.3 2.57 8.59
10/26/2020 9:45:00 PM 11.32 52.376 0.179 7.3 2.74 8.58
10/26/2020 10:00:00 PM 11.32 52.376 0.18 7.29 2.68 8.52
10/26/2020 10:15:00 PM 11.31 52.358 0.18 7.29 1.97 8.55
10/26/2020 10:30:00 PM 11.31 52.358 0.18 7.3 2.56 8.53
10/26/2020 10:45:00 PM 11.3 52.34 0.179 7.3 2.66 8.53
10/26/2020 11:00:00 PM 11.3 52.34 0.18 7.31 2.11 8.5
10/26/2020 11:15:00 PM 11.3 52.34 0.18 7.29 2.68 8.5
10/26/2020 11:30:00 PM 11.3 52.34 0.168 7.28 2.59 8.45
10/26/2020 11:45:00 PM 11.29 52.322 0.18 7.3 2.6 8.54
10/27/2020 12:00:00 AM 11.29 52.322 0.18 7.29 2.02 8.49
10/27/2020 12:15:00 AM 11.29 52.322 0.18 7.31 2.26 8.43
10/27/2020 12:30:00 AM 11.28 52.304 0.18 7.31 2.12 8.5
10/27/2020 12:45:00 AM 11.27 52.286 0.179 7.28 2.7 8.54
10/27/2020 1:00:00 AM 11.28 52.304 0.18 7.3 2.23 8.49
10/27/2020 1:15:00 AM 11.28 52.304 0.18 7.28 2.61 8.5
10/27/2020 1:30:00 AM 11.28 52.304 0.153 7.3 2.41 8.55
10/27/2020 1:45:00 AM 11.28 52.304 0.18 7.29 2.64 8.53
10/27/2020 2:00:00 AM 11.28 52.304 0.179 7.29 2.69 8.48
10/27/2020 2:15:00 AM 11.28 52.304 0.18 7.27 2.01 8.51
10/27/2020 2:30:00 AM 11.28 52.304 0.18 7.29 2.03 8.52
10/27/2020 2:45:00 AM 11.28 52.304 0.18 7.29 2.65 8.52
10/27/2020 3:00:00 AM 11.28 52.304 0.179 7.28 2.54 8.45
10/27/2020 3:15:00 AM 11.28 52.304 0.18 7.31 2 8.46
10/27/2020 3:30:00 AM 11.26 52.268 0.18 7.3 2.03 8.45
10/27/2020 3:45:00 AM 11.24 52.232 0.18 7.3 2.05 8.4
10/27/2020 4:00:00 AM 11.23 52.214 0.179 7.27 2.3 8.41
10/27/2020 4:15:00 AM 11.23 52.214 0.18 7.3 1.98 8.4
10/27/2020 4:30:00 AM 11.22 52.196 0.18 7.28 1.99 8.41
10/27/2020 4:45:00 AM 11.19 52.142 0.18 7.31 1.94 8.48
10/27/2020 5:00:00 AM 11.18 52.124 0.18 7.28 2.65 8.52
10/27/2020 5:15:00 AM 11.17 52.106 0.18 7.3 2.04 8.48
10/27/2020 5:30:00 AM 11.15 52.07 0.18 7.31 2 8.5
10/27/2020 5:45:00 AM 11.13 52.034 0.18 7.31 1.99 8.49
10/27/2020 6:00:00 AM 11.11 51.998 0.178 7.28 2.62 8.42
10/27/2020 6:15:00 AM 11.09 51.962 0.18 7.28 2.53 8.53
10/27/2020 6:30:00 AM 11.08 51.944 0.18 7.3 2.03 8.51
10/27/2020 6:45:00 AM 11.08 51.944 0.18 7.28 2.63 8.52
10/27/2020 7:00:00 AM 11.06 51.908 0.18 7.28 2.65 8.51
10/27/2020 7:15:00 AM 11.05 51.89 0.18 7.27 1.99 8.4
10/27/2020 7:30:00 AM 11.04 51.872 0.18 7.28 2.65 8.4
10/27/2020 7:45:00 AM 11.01 51.818 0.18 7.28 2.15 8.43
10/27/2020 8:00:00 AM 10.99 51.782 0.18 7.3 1.97 8.49
10/27/2020 8:15:00 AM 10.98 51.764 0.18 7.31 2 8.53
10/27/2020 8:30:00 AM 10.99 51.782 0.18 7.26 2.66 8.45
10/27/2020 8:45:00 AM 10.97 51.746 0.179 7.3 2.04 8.55
10/27/2020 9:00:00 AM 10.97 51.746 0.179 7.28 2.56 8.57
10/27/2020 9:15:00 AM 10.96 51.728 0.179 7.28 2.57 8.59
10/27/2020 9:30:00 AM 10.96 51.728 0.179 7.32 2 8.62
10/27/2020 9:45:00 AM 10.96 51.728 0.179 7.28 2.61 8.47
10/27/2020 10:00:00 AM 10.98 51.764 0.179 7.29 2.64 8.56
10/27/2020 10:15:00 AM 10.99 51.782 0.175 7.29 2.62 8.54
10/27/2020 10:30:00 AM 11.03 51.854 0.179 7.3 1.93 8.68
10/27/2020 10:45:00 AM 11.09 51.962 0.179 7.32 2.61 8.74
10/27/2020 11:00:00 AM 11.15 52.07 0.179 7.33 1.99 8.81
10/27/2020 11:15:00 AM 11.26 52.268 0.179 7.35 1.95 8.84
10/27/2020 11:30:00 AM 11.35 52.43 0.179 7.3 2.59 8.82
10/27/2020 11:45:00 AM 11.44 52.592 0.179 7.32 2.56 8.93
10/27/2020 12:00:00 PM 11.54 52.772 0.179 7.35 1.95 8.89
10/27/2020 12:15:00 PM 11.71 53.078 0.179 7.34 1.88 8.86
10/27/2020 12:30:00 PM 11.83 53.294 0.179 7.38 1.89 8.88
10/27/2020 12:45:00 PM 11.87 53.366 0.179 7.39 2.49 8.99
10/27/2020 1:00:00 PM 11.89 53.402 0.179 7.35 1.98 9.01
10/27/2020 1:15:00 PM 11.92 53.456 0.179 7.39 1.92 9.01
10/27/2020 1:30:00 PM 11.97 53.546 0.179 7.34 1.88 9.03
10/27/2020 1:45:00 PM 12 53.6 0.179 7.38 1.94 9.03
10/27/2020 2:00:00 PM 12.06 53.708 0.179 7.36 2.49 9.15
10/27/2020 2:15:00 PM 12.09 53.762 0.179 7.39 2 9.11
10/27/2020 2:30:00 PM 12.11 53.798 0.179 7.38 1.9 8.99
10/27/2020 2:45:00 PM 12.14 53.852 0.179 7.33 2.58 8.97
10/27/2020 3:00:00 PM 12.15 53.87 0.179 7.36 2.53 9.11
10/27/2020 3:15:00 PM 12.14 53.852 0.179 7.37 2.05 9.18
10/27/2020 3:30:00 PM 12.14 53.852 0.179 7.41 2.33 9.14
10/27/2020 3:45:00 PM 12.12 53.816 0.179 7.35 2.55 9.18
10/27/2020 4:00:00 PM 12.11 53.798 0.158 7.38 2.49 9.2
10/27/2020 4:15:00 PM 12.1 53.78 0.179 7.41 1.94 9.18
10/27/2020 4:30:00 PM 12.06 53.708 0.179 7.4 2.24 9.14
10/27/2020 4:45:00 PM 12.05 53.69 0.179 7.37 2 9.13
10/27/2020 5:00:00 PM 12.03 53.654 0.179 7.41 2.21 9.13
10/27/2020 5:15:00 PM 11.98 53.564 0.179 7.36 2.57 9.12
10/27/2020 5:30:00 PM 11.95 53.51 0.179 7.37 2.5 9.11
10/27/2020 5:45:00 PM 11.94 53.492 0.179 7.37 1.98 9.03
10/27/2020 6:00:00 PM 11.89 53.402 0.179 7.4 2.11 9.06
10/27/2020 6:15:00 PM 11.87 53.366 0.179 7.4 2.14 9.04
10/27/2020 6:30:00 PM 11.83 53.294 0.179 7.36 1.9 9.01
10/27/2020 6:45:00 PM 11.81 53.258 0.179 7.36 1.95 8.98
10/27/2020 7:00:00 PM 11.77 53.186 0.18 7.39 2.47 8.94
10/27/2020 7:15:00 PM 11.68 53.024 0.179 7.36 2.52 8.99
10/27/2020 7:30:00 PM 11.68 53.024 0.165 7.36 2.59 8.94
10/27/2020 7:45:00 PM 11.65 52.97 0.179 7.35 2.53 8.91
10/27/2020 8:00:00 PM 11.66 52.988 0.179 7.34 2.54 8.88
10/27/2020 8:15:00 PM 11.64 52.952 0.18 7.34 2.67 8.82
10/27/2020 8:30:00 PM 11.59 52.862 0.18 7.34 2.56 8.87
10/27/2020 8:45:00 PM 11.59 52.862 0.176 7.33 2.6 8.83
10/27/2020 9:00:00 PM 11.57 52.826 0.18 7.34 2.57 8.82
10/27/2020 9:15:00 PM 11.56 52.808 0.18 7.36 2.08 8.83
10/27/2020 9:30:00 PM 11.51 52.718 0.179 7.34 2.57 8.88
10/27/2020 9:45:00 PM 11.51 52.718 0.179 7.33 2.59 8.81
10/27/2020 10:00:00 PM 11.5 52.7 0.179 7.32 2.54 8.7
10/27/2020 10:15:00 PM 11.48 52.664 0.18 7.32 2.56 8.74
10/27/2020 10:30:00 PM 11.46 52.628 0.152 7.33 2.43 8.75
10/27/2020 10:45:00 PM 11.45 52.61 0.18 7.34 1.98 8.71
10/27/2020 11:00:00 PM 11.42 52.556 0.18 7.35 2.02 8.75
10/27/2020 11:15:00 PM 11.41 52.538 0.179 7.29 2.81 8.73
10/27/2020 11:30:00 PM 11.39 52.502 0.179 7.33 2.69 8.73
10/27/2020 11:45:00 PM 11.37 52.466 0.179 7.33 2.58 8.77
10/28/2020 12:00:00 AM 11.36 52.448 0.18 7.32 2.57 8.72
10/28/2020 12:15:00 AM 11.35 52.43 0.179 7.34 2.78 8.73
10/28/2020 12:30:00 AM 11.33 52.394 0.18 7.33 2.67 8.77
10/28/2020 12:45:00 AM 11.32 52.376 0.18 7.35 2.02 8.72
10/28/2020 1:00:00 AM 11.31 52.358 0.18 7.35 1.94 8.71
10/28/2020 1:15:00 AM 11.3 52.34 0.18 7.31 1.97 8.69
10/28/2020 1:30:00 AM 11.28 52.304 0.18 7.32 2.74 8.72
10/28/2020 1:45:00 AM 11.27 52.286 0.179 7.31 2.54 8.7
10/28/2020 2:00:00 AM 11.26 52.268 0.179 7.33 2.58 8.65
10/28/2020 2:15:00 AM 11.25 52.25 0.179 7.34 1.98 8.67
10/28/2020 2:30:00 AM 11.24 52.232 0.179 7.34 2.18 8.64
10/28/2020 2:45:00 AM 11.24 52.232 0.179 7.34 1.98 8.65
10/28/2020 3:00:00 AM 11.22 52.196 0.179 7.3 1.99 8.64
10/28/2020 3:15:00 AM 11.2 52.16 0.179 7.34 2.12 8.64
10/28/2020 3:30:00 AM 11.2 52.16 0.179 7.33 2.03 8.62
10/28/2020 3:45:00 AM 11.17 52.106 0.178 7.3 2.56 8.68
10/28/2020 4:00:00 AM 11.17 52.106 0.178 7.31 1.98 8.72
10/28/2020 4:15:00 AM 11.16 52.088 0.178 7.32 2.57 8.73
10/28/2020 4:30:00 AM 11.15 52.07 0.164 7.32 2.56 8.72
10/28/2020 4:45:00 AM 11.14 52.052 0.151 7.31 2.43 8.71
10/28/2020 5:00:00 AM 11.13 52.034 0.178 7.35 1.98 8.71
10/28/2020 5:15:00 AM 11.12 52.016 0.178 7.31 2.52 8.72
10/28/2020 5:30:00 AM 11.11 51.998 0.159 7.32 2.49 8.72
10/28/2020 5:45:00 AM 11.11 51.998 0.178 7.31 1.93 8.69
10/28/2020 6:00:00 AM 11.1 51.98 0.174 7.32 2.55 8.71
10/28/2020 6:15:00 AM 11.1 51.98 0.178 7.32 2.51 8.73
10/28/2020 6:30:00 AM 11.1 51.98 0.178 7.34 1.94 8.71
10/28/2020 6:45:00 AM 11.09 51.962 0.178 7.31 2.58 8.7
10/28/2020 7:00:00 AM 11.08 51.944 0.178 7.31 2.52 8.68
10/28/2020 7:15:00 AM 11.08 51.944 0.178 7.29 2.68 8.62
10/28/2020 7:30:00 AM 11.08 51.944 0.178 7.31 2.21 8.66
10/28/2020 7:45:00 AM 11.09 51.962 0.178 7.34 2.04 8.72
10/28/2020 8:00:00 AM 11.09 51.962 0.177 7.32 2.65 8.75
10/28/2020 8:15:00 AM 11.08 51.944 0.178 7.3 2.02 8.71
10/28/2020 8:30:00 AM 11.08 51.944 0.096 7.31 2.32 8.7
10/28/2020 8:45:00 AM 11.08 51.944 0.178 7.3 2.9 8.62
10/28/2020 9:00:00 AM 11.07 51.926 0.178 7.32 2.77 8.7
10/28/2020 9:15:00 AM 11.09 51.962 0.178 7.32 2.03 8.7
10/28/2020 9:30:00 AM 11.12 52.016 0.178 7.31 3.32 8.74
10/28/2020 9:45:00 AM 11.15 52.07 0.178 7.32 2.55 8.79
10/28/2020 10:00:00 AM 11.18 52.124 0.177 7.31 2.63 8.75
10/28/2020 10:15:00 AM 11.24 52.232 0.178 7.32 2 8.83
10/28/2020 10:30:00 AM 11.26 52.268 0.178 7.36 2.04 8.84
10/28/2020 10:45:00 AM 11.28 52.304 0.177 7.33 1.99 8.78
10/28/2020 11:00:00 AM 11.31 52.358 0.105 7.33 2.31 8.84
10/28/2020 11:15:00 AM 11.35 52.43 0.177 7.33 2.55 8.88
10/28/2020 11:30:00 AM 11.39 52.502 0.177 7.37 2.02 8.89
10/28/2020 11:45:00 AM 11.45 52.61 0.113 7.34 2.3 8.91
10/28/2020 12:00:00 PM 11.48 52.664 0.177 7.34 2.56 8.9
10/28/2020 12:15:00 PM 11.54 52.772 0.154 7.35 2.44 8.95
10/28/2020 12:30:00 PM 11.59 52.862 0.177 7.34 2.52 8.99
10/28/2020 12:45:00 PM 11.64 52.952 0.178 7.34 2.54 8.96
10/28/2020 1:00:00 PM 11.72 53.096 0.178 7.36 2.34 9.07
10/28/2020 1:15:00 PM 11.75 53.15 0.177 7.36 2.86 9.12
10/28/2020 1:30:00 PM 11.78 53.204 0.177 7.37 2.46 9.14
10/28/2020 1:45:00 PM 11.8 53.24 0.177 7.37 2.56 9.14
10/28/2020 2:00:00 PM 11.82 53.276 0.177 7.36 1.95 9.13
10/28/2020 2:15:00 PM 11.83 53.294 0.177 7.4 2 9.13
10/28/2020 2:30:00 PM 11.84 53.312 0.177 7.37 2.55 9.13
10/28/2020 2:45:00 PM 11.84 53.312 0.177 7.4 2.01 9.1
10/28/2020 3:00:00 PM 11.85 53.33 0.175 7.37 2.64 9.1
10/28/2020 3:15:00 PM 11.85 53.33 0.177 7.37 1.97 9.14
10/28/2020 3:30:00 PM 11.85 53.33 0.177 7.41 1.91 9.1
10/28/2020 3:45:00 PM 11.85 53.33 0.177 7.41 1.93 9.13
10/28/2020 4:00:00 PM 11.85 53.33 0.177 7.37 1.95 9.13
10/28/2020 4:15:00 PM 11.85 53.33 0.177 7.4 17.53 9.01
10/28/2020 4:30:00 PM 11.85 53.33 0.177 7.4 2.3 9.06
10/28/2020 4:45:00 PM 11.84 53.312 0.177 7.41 1.97 9.08
10/28/2020 5:00:00 PM 11.84 53.312 0.177 7.37 2.63 9.11
10/28/2020 5:15:00 PM 11.83 53.294 0.177 7.42 1.92 9.11
10/28/2020 5:30:00 PM 11.82 53.276 0.177 7.37 2.55 9.07
10/28/2020 5:45:00 PM 11.79 53.222 0.177 7.37 2.5 9.05
10/28/2020 6:00:00 PM 11.77 53.186 0.177 7.36 2.45 9.05
10/28/2020 6:15:00 PM 11.74 53.132 0.177 7.36 1.95 9.03
10/28/2020 6:30:00 PM 11.73 53.114 0.177 7.37 2.74 9
10/28/2020 6:45:00 PM 11.71 53.078 0.177 7.37 2.56 8.97
10/28/2020 7:00:00 PM 11.69 53.042 0.177 7.36 2.56 8.95
10/28/2020 7:15:00 PM 11.67 53.006 0.177 7.36 2.58 8.93
10/28/2020 7:30:00 PM 11.63 52.934 0.177 7.35 2.57 8.96
10/28/2020 7:45:00 PM 11.62 52.916 0.177 7.22 2.55 8.89
10/28/2020 8:00:00 PM 11.57 52.826 0.177 7.35 2.31 8.93
10/28/2020 8:15:00 PM 11.54 52.772 0.177 7.35 2.6 8.92
10/28/2020 8:30:00 PM 11.51 52.718 0.165 7.35 2.56 8.87
10/28/2020 8:45:00 PM 11.46 52.628 0.177 7.37 1.91 8.91
10/28/2020 9:00:00 PM 11.41 52.538 0.177 7.38 1.94 8.89
10/28/2020 9:15:00 PM 11.37 52.466 0.177 7.35 2.29 8.86
10/28/2020 9:30:00 PM 11.34 52.412 0.177 7.36 1.97 8.88
10/28/2020 9:45:00 PM 11.31 52.358 0.177 7.37 2.05 8.85
10/28/2020 10:00:00 PM 11.28 52.304 0.177 7.35 2.11 8.83
10/28/2020 10:15:00 PM 11.26 52.268 0.177 7.37 2.17 8.81
10/28/2020 10:30:00 PM 11.23 52.214 0.164 7.33 2.67 8.86
10/28/2020 10:45:00 PM 11.21 52.178 0.177 7.34 2.01 8.88
10/28/2020 11:00:00 PM 11.18 52.124 0.177 7.34 2.55 8.86
10/28/2020 11:15:00 PM 11.15 52.07 0.177 7.33 2.48 8.87
10/28/2020 11:30:00 PM 11.14 52.052 0.177 7.27 2.61 8.91
10/28/2020 11:45:00 PM 11.14 52.052 0.177 7.33 1.96 8.87
10/29/2020 12:00:00 AM 11.13 52.034 0.177 7.32 2.61 8.86
10/29/2020 12:15:00 AM 11.11 51.998 0.177 7.36 2.59 8.85
10/29/2020 12:30:00 AM 11.1 51.98 0.177 7.32 2.53 8.9
10/29/2020 12:45:00 AM 11.09 51.962 0.177 7.32 2.67 8.86
10/29/2020 1:00:00 AM 11.07 51.926 0.177 7.32 2.62 8.84
10/29/2020 1:15:00 AM 11.06 51.908 0.177 7.36 1.95 8.88
10/29/2020 1:30:00 AM 11.05 51.89 0.177 7.32 2.36 8.88
10/29/2020 1:45:00 AM 11.05 51.89 0.177 7.34 2.6 8.89
10/29/2020 2:00:00 AM 11.05 51.89 0.177 7.32 2.22 8.87
10/29/2020 2:15:00 AM 11.04 51.872 0.177 7.37 2.79 8.9
10/29/2020 2:30:00 AM 11.04 51.872 0.177 7.32 2.02 8.88
10/29/2020 2:45:00 AM 11.03 51.854 0.176 7.34 2.63 8.9
10/29/2020 3:00:00 AM 11.02 51.836 0.176 7.32 1.98 8.89
10/29/2020 3:15:00 AM 11.01 51.818 0.176 7.36 2.05 8.87
10/29/2020 3:30:00 AM 11 51.8 0.176 7.32 2.63 8.86
10/29/2020 3:45:00 AM 11 51.8 0.176 7.36 2.14 8.89
10/29/2020 4:00:00 AM 10.99 51.782 0.143 7.33 2.39 8.96
10/29/2020 4:15:00 AM 10.98 51.764 0.175 7.32 2.61 8.92
10/29/2020 4:30:00 AM 10.97 51.746 0.175 7.36 2.02 8.94
10/29/2020 4:45:00 AM 10.96 51.728 0.175 7.33 2.6 8.99
10/29/2020 5:00:00 AM 10.95 51.71 0.173 7.33 2.57 8.98
10/29/2020 5:15:00 AM 10.94 51.692 0.174 7.33 2.58 8.99
10/29/2020 5:30:00 AM 10.92 51.656 0.174 7.33 2.26 8.98
10/29/2020 5:45:00 AM 10.92 51.656 0.173 7.33 2.64 8.99
10/29/2020 6:00:00 AM 10.9 51.62 0.173 7.37 1.99 9.01
10/29/2020 6:15:00 AM 10.88 51.584 0.173 7.37 2.02 9.03
10/29/2020 6:30:00 AM 10.87 51.566 0.172 7.34 2.34 9.05
10/29/2020 6:45:00 AM 10.85 51.53 0.172 7.37 2 9.06
10/29/2020 7:00:00 AM 10.81 51.458 0.171 7.38 2.2 9.08
10/29/2020 7:15:00 AM 10.8 51.44 0.17 7.34 2.67 9.14
10/29/2020 7:30:00 AM 10.78 51.404 0.169 7.35 2.61 9.15
10/29/2020 7:45:00 AM 10.76 51.368 0.085 7.35 2.33 9.15
10/29/2020 8:00:00 AM 10.76 51.368 0.17 7.34 2.66 9.12
10/29/2020 8:15:00 AM 10.75 51.35 0.165 7.34 2.65 9.08
10/29/2020 8:30:00 AM 10.75 51.35 0.17 7.37 2.08 9.01
10/29/2020 8:45:00 AM 10.74 51.332 0.169 7.33 2.56 9.16
10/29/2020 9:00:00 AM 10.72 51.296 0.169 7.33 2.59 9.18
10/29/2020 9:15:00 AM 10.71 51.278 0.169 7.38 1.97 9.17
10/29/2020 9:30:00 AM 10.7 51.26 0.169 7.33 2.58 9.18
10/29/2020 9:45:00 AM 10.68 51.224 0.169 7.34 2.58 9.18
10/29/2020 10:00:00 AM 10.67 51.206 0.169 7.38 2.32 9.15
10/29/2020 10:15:00 AM 10.66 51.188 0.169 7.38 2.08 9.18
10/29/2020 10:30:00 AM 10.64 51.152 0.169 7.35 2.56 9.24
10/29/2020 10:45:00 AM 10.63 51.134 0.169 7.38 2.06 9.25
10/29/2020 11:00:00 AM 10.63 51.134 0.169 7.33 2.78 9.33
10/29/2020 11:15:00 AM 10.62 51.116 0.169 7.39 2.1 9.34
10/29/2020 11:30:00 AM 10.61 51.098 0.169 7.36 2.03 9.38
10/29/2020 11:45:00 AM 10.61 51.098 0.169 7.37 2.2 9.4
10/29/2020 12:00:00 PM 10.6 51.08 0.168 7.41 2.1 9.46
10/29/2020 12:15:00 PM 10.61 51.098 0.168 7.38 2.75 9.51
10/29/2020 12:30:00 PM 10.61 51.098 0.168 7.42 2.26 9.51
10/29/2020 12:45:00 PM 10.61 51.098 0.169 7.42 2.54 9.55
10/29/2020 1:00:00 PM 10.61 51.098 0.17 7.42 3.19 9.55
10/29/2020 1:15:00 PM 10.62 51.116 0.172 7.42 4.02 9.55
10/29/2020 1:30:00 PM 10.61 51.098 0.173 7.43 4.53 9.59
10/29/2020 1:45:00 PM 10.61 51.098 0.175 7.39 5.31 9.61
10/29/2020 2:00:00 PM 10.62 51.116 0.181 7.44 5.59 9.66
10/29/2020 2:15:00 PM 10.62 51.116 0.181 7.44 5.42 9.64
10/29/2020 2:30:00 PM 10.62 51.116 0.183 7.45 6.4 9.67
10/29/2020 2:45:00 PM 10.61 51.098 0.185 7.42 6.65 9.69
10/29/2020 3:00:00 PM 10.61 51.098 0.185 7.42 7.66 9.72
10/29/2020 3:15:00 PM 10.59 51.062 0.19 7.43 8.43 9.75
10/29/2020 3:30:00 PM 10.57 51.026 0.2 7.44 11.17 9.77
10/29/2020 3:45:00 PM 10.57 51.026 0.21 7.44 12.47 9.82
10/29/2020 4:00:00 PM 10.57 51.026 0.217 7.45 12.35 9.87
10/29/2020 4:15:00 PM 10.57 51.026 0.222 7.45 13.95 9.88
10/29/2020 4:30:00 PM 10.59 51.062 0.226 7.44 13.61 9.91
10/29/2020 4:45:00 PM 10.6 51.08 0.228 7.46 14.23 9.94
10/29/2020 5:00:00 PM 10.6 51.08 0.227 7.5 13.03 9.94
10/29/2020 5:15:00 PM 10.6 51.08 0.225 7.47 12.42 9.95
10/29/2020 5:30:00 PM 10.61 51.098 0.222 7.48 12.51 9.99
10/29/2020 5:45:00 PM 10.61 51.098 0.219 7.51 11.63 9.98
10/29/2020 6:00:00 PM 10.61 51.098 0.216 7.47 14.02 10
10/29/2020 6:15:00 PM 10.61 51.098 0.214 7.48 12.98 10
10/29/2020 6:30:00 PM 10.61 51.098 0.21 7.5 11.3 10
10/29/2020 6:45:00 PM 10.6 51.08 0.207 7.5 13.03 10.02
10/29/2020 7:00:00 PM 10.59 51.062 0.203 7.47 12.84 10.01
10/29/2020 7:15:00 PM 10.58 51.044 0.201 7.46 13.13 10.02
10/29/2020 7:30:00 PM 10.56 51.008 0.198 7.48 15.39 10.03
10/29/2020 7:45:00 PM 10.54 50.972 0.194 7.5 13.49 10.05
10/29/2020 8:00:00 PM 10.5 50.9 0.191 7.5 15.6 10.06
10/29/2020 8:15:00 PM 10.48 50.864 0.188 7.49 13.21 10.07
10/29/2020 8:30:00 PM 10.44 50.792 0.185 7.5 21.06 10.09
10/29/2020 8:45:00 PM 10.41 50.738 0.183 7.46 17.48 10.1
10/29/2020 9:00:00 PM 10.38 50.684 0.181 7.47 20.48 10.13
10/29/2020 9:15:00 PM 10.36 50.648 0.179 7.46 20.67 10.14
10/29/2020 9:30:00 PM 10.33 50.594 0.177 7.46 28.63 10.16
10/29/2020 9:45:00 PM 10.31 50.558 0.177 7.47 22.21 10.18
10/29/2020 10:00:00 PM 10.29 50.522 0.176 7.47 41.52 10.18
10/29/2020 10:15:00 PM 10.27 50.486 0.176 7.48 24.13 10.2
10/29/2020 10:30:00 PM 10.25 50.45 0.175 7.47 29.26 10.21
10/29/2020 10:45:00 PM 10.24 50.432 0.176 7.52 17.68 10.21
10/29/2020 11:00:00 PM 10.22 50.396 0.176 7.47 76.76 10.22
10/29/2020 11:15:00 PM 10.21 50.378 0.176 7.47 25.53 10.21
10/29/2020 11:30:00 PM 10.2 50.36 0.178 7.52 16.61 10.23
10/29/2020 11:45:00 PM 10.19 50.342 0.179 7.51 16.67 10.26
10/30/2020 12:00:00 AM 10.18 50.324 0.18 7.48 28.22 10.26
10/30/2020 12:15:00 AM 10.17 50.306 0.18 7.46 16.3 10.26
10/30/2020 12:30:00 AM 10.15 50.27 0.181 7.51 15.26 10.26
10/30/2020 12:45:00 AM 10.14 50.252 0.179 7.48 13.25 10.28
10/30/2020 1:00:00 AM 10.13 50.234 0.18 7.47 13.07 10.27
10/30/2020 1:15:00 AM 10.11 50.198 0.179 7.52 12.64 10.28
10/30/2020 1:30:00 AM 10.1 50.18 0.178 7.51 13.43 10.24
10/30/2020 1:45:00 AM 10.08 50.144 0.176 7.51 13.82 10.28
10/30/2020 2:00:00 AM 10.04 50.072 0.175 7.5 11.1 10.3
10/30/2020 2:15:00 AM 10.02 50.036 0.174 7.47 11.83 10.26
10/30/2020 2:30:00 AM 10.01 50.018 0.172 7.47 10.92 10.28
10/30/2020 2:45:00 AM 9.99 49.982 0.172 7.5 9.98 10.29
10/30/2020 3:00:00 AM 9.97 49.946 0.171 7.45 10.97 10.3
10/30/2020 3:15:00 AM 9.94 49.892 0.17 7.45 10.78 10.3
10/30/2020 3:30:00 AM 9.9 49.82 0.169 7.41 10.84 10.32
10/30/2020 3:45:00 AM 9.87 49.766 0.168 7.49 9.57 10.34
10/30/2020 4:00:00 AM 9.85 49.73 0.161 7.38 8.8 10.33
10/30/2020 4:15:00 AM 9.82 49.676 0.168 7.45 9.7 10.35
10/30/2020 4:30:00 AM 9.78 49.604 0.169 7.45 10.23 10.37
10/30/2020 4:45:00 AM 9.75 49.55 0.168 7.46 8.8 10.36
10/30/2020 5:00:00 AM 9.71 49.478 0.169 7.46 7.68 10.37
10/30/2020 5:15:00 AM 9.68 49.424 0.169 7.48 8.16 10.39
10/30/2020 5:30:00 AM 9.64 49.352 0.152 7.45 8.22 10.42
10/30/2020 5:45:00 AM 9.6 49.28 0.153 7.44 9.46 10.42
10/30/2020 6:00:00 AM 9.58 49.244 0.171 7.48 7.51 10.42
10/30/2020 6:15:00 AM 9.55 49.19 0.173 7.44 8.61 10.41
10/30/2020 6:30:00 AM 9.52 49.136 0.174 7.43 7.89 10.44
10/30/2020 6:45:00 AM 9.5 49.1 0.174 7.48 7.55 10.44
10/30/2020 7:00:00 AM 9.47 49.046 0.176 7.44 6.95 10.44
10/30/2020 7:15:00 AM 9.44 48.992 0.177 7.48 7.49 10.44
10/30/2020 7:30:00 AM 9.41 48.938 0.178 7.43 7.08 10.46
10/30/2020 7:45:00 AM 9.38 48.884 0.179 7.49 6.64 10.45
10/30/2020 8:00:00 AM 9.36 48.848 0.18 7.45 6.54 10.46
10/30/2020 8:15:00 AM 9.34 48.812 0.18 7.48 6.66 10.47
10/30/2020 8:30:00 AM 9.33 48.794 0.182 7.43 6.41 10.48
10/30/2020 8:45:00 AM 9.32 48.776 0.183 7.49 6.63 10.49
10/30/2020 9:00:00 AM 9.31 48.758 0.184 7.45 7.38 10.51
10/30/2020 9:15:00 AM 9.31 48.758 0.184 7.49 6.37 10.53
10/30/2020 9:30:00 AM 9.31 48.758 0.184 7.44 8.05 10.53
10/30/2020 9:45:00 AM 9.3 48.74 0.166 7.47 6.98 10.57
10/30/2020 10:00:00 AM 9.29 48.722 0.184 7.45 6.19 10.58
10/30/2020 10:15:00 AM 9.29 48.722 0.176 7.46 6.64 10.6
10/30/2020 10:30:00 AM 9.29 48.722 0.185 7.44 6.24 10.62
10/30/2020 10:45:00 AM 9.28 48.704 0.184 7.5 5.85 10.64
10/30/2020 11:00:00 AM 9.29 48.722 0.184 7.5 5.8 10.64
10/30/2020 11:15:00 AM 9.3 48.74 0.183 7.46 7.27 10.67
10/30/2020 11:30:00 AM 9.32 48.776 0.184 7.51 5.61 10.69
10/30/2020 11:45:00 AM 9.34 48.812 0.183 7.51 5.76 10.69
10/30/2020 12:00:00 PM 9.34 48.812 0.183 7.51 5.66 10.7
10/30/2020 12:15:00 PM 9.35 48.83 0.182 7.47 6.2 10.71
10/30/2020 12:30:00 PM 9.37 48.866 0.171 7.48 6.27 10.7
10/30/2020 12:45:00 PM 9.41 48.938 0.182 7.48 5.32 10.72
10/30/2020 1:00:00 PM 9.46 49.028 0.182 7.52 5.6 10.75
10/30/2020 1:15:00 PM 9.47 49.046 0.182 7.53 6.12 10.74
10/30/2020 1:30:00 PM 9.49 49.082 0.181 7.47 6.05 10.74
10/30/2020 1:45:00 PM 9.55 49.19 0.181 7.49 6.18 10.76
10/30/2020 2:00:00 PM 9.64 49.352 0.181 7.52 5.41 10.76
10/30/2020 2:15:00 PM 9.67 49.406 0.181 7.5 6.2 10.75
10/30/2020 2:30:00 PM 9.67 49.406 0.181 7.54 5.35 10.77
10/30/2020 2:45:00 PM 9.68 49.424 0.181 7.49 8.55 10.72
10/30/2020 3:00:00 PM 9.67 49.406 0.181 7.54 6.68 10.72
10/30/2020 3:15:00 PM 9.67 49.406 0.18 7.5 7.76 10.71
10/30/2020 3:30:00 PM 9.68 49.424 0.181 7.51 6.44 10.7
10/30/2020 3:45:00 PM 9.7 49.46 0.181 7.49 6.12 10.71
10/30/2020 4:00:00 PM 9.71 49.478 0.181 7.49 6.02 10.7
10/30/2020 4:15:00 PM 9.71 49.478 0.181 7.51 5.48 10.69
10/30/2020 4:30:00 PM 9.7 49.46 0.181 7.49 6.67 10.69
10/30/2020 4:45:00 PM 9.69 49.442 0.181 7.52 5.86 10.68
10/30/2020 5:00:00 PM 9.67 49.406 0.181 7.5 9.04 10.67
10/30/2020 5:15:00 PM 9.65 49.37 0.182 7.53 5.43 10.65
10/30/2020 5:30:00 PM 9.64 49.352 0.132 7.49 5.96 10.65
10/30/2020 5:45:00 PM 9.62 49.316 0.182 7.49 5.4 10.63
10/30/2020 6:00:00 PM 9.59 49.262 0.176 7.49 6.93 10.62
10/30/2020 6:15:00 PM 9.56 49.208 0.182 7.53 5.45 10.63
10/30/2020 6:30:00 PM 9.52 49.136 0.183 7.49 6.9 10.62
10/30/2020 6:45:00 PM 9.5 49.1 0.183 7.54 6.06 10.62
10/30/2020 7:00:00 PM 9.48 49.064 0.183 7.52 6.39 10.61
10/30/2020 7:15:00 PM 9.45 49.01 0.183 7.52 6.51 10.62
10/30/2020 7:30:00 PM 9.42 48.956 0.183 7.48 8.39 10.62
10/30/2020 7:45:00 PM 9.38 48.884 0.183 7.49 5.89 10.62
10/30/2020 8:00:00 PM 9.36 48.848 0.183 7.52 5.62 10.62
10/30/2020 8:15:00 PM 9.34 48.812 0.183 7.47 6.35 10.62
10/30/2020 8:30:00 PM 9.31 48.758 0.183 7.51 5.65 10.62
10/30/2020 8:45:00 PM 9.29 48.722 0.183 7.47 6.08 10.61
10/30/2020 9:00:00 PM 9.25 48.65 0.183 7.51 5.43 10.62
10/30/2020 9:15:00 PM 9.22 48.596 0.182 7.51 5.44 10.63
10/30/2020 9:30:00 PM 9.18 48.524 0.182 7.51 5.92 10.63
10/30/2020 9:45:00 PM 9.13 48.434 0.182 7.49 5.44 10.63
10/30/2020 10:00:00 PM 9.09 48.362 0.182 7.45 6.01 10.64
10/30/2020 10:15:00 PM 9.04 48.272 0.182 7.49 5.01 10.64
10/30/2020 10:30:00 PM 8.98 48.164 0.181 7.45 5.2 10.66
10/30/2020 10:45:00 PM 8.94 48.092 0.181 7.45 5.04 10.67
10/30/2020 11:00:00 PM 8.9 48.02 0.181 7.49 5.43 10.69
10/30/2020 11:15:00 PM 8.86 47.948 0.181 7.49 5.65 10.7
10/30/2020 11:30:00 PM 8.83 47.894 0.181 7.48 5.83 10.71
10/30/2020 11:45:00 PM 8.79 47.822 0.18 7.49 5.39 10.72
10/31/2020 12:00:00 AM 8.76 47.768 0.18 7.45 5.9 10.73
10/31/2020 12:15:00 AM 8.72 47.696 0.18 7.49 5.49 10.75
10/31/2020 12:30:00 AM 8.69 47.642 0.179 7.45 6.06 10.76
10/31/2020 12:45:00 AM 8.65 47.57 0.18 7.45 5.35 10.77
10/31/2020 1:00:00 AM 8.61 47.498 0.18 7.45 5.25 10.78
10/31/2020 1:15:00 AM 8.58 47.444 0.18 7.44 5.26 10.79
10/31/2020 1:30:00 AM 8.54 47.372 0.18 7.45 5.13 10.72
10/31/2020 1:45:00 AM 8.5 47.3 0.18 7.47 5.01 10.81
10/31/2020 2:00:00 AM 8.46 47.228 0.179 7.48 4.77 10.79
10/31/2020 2:15:00 AM 8.43 47.174 0.179 7.47 4.77 10.83
10/31/2020 2:30:00 AM 8.38 47.084 0.179 7.48 4.5 10.85
10/31/2020 2:45:00 AM 8.35 47.03 0.179 7.42 4.36 10.86
10/31/2020 3:00:00 AM 8.32 46.976 0.18 7.47 4.41 10.88
10/31/2020 3:15:00 AM 8.28 46.904 0.179 7.44 4.21 10.89
10/31/2020 3:30:00 AM 8.25 46.85 0.179 7.47 4.31 10.9
10/31/2020 3:45:00 AM 8.21 46.778 0.179 7.47 4.36 10.92
10/31/2020 4:00:00 AM 8.19 46.742 0.179 7.47 5.04 10.93
10/31/2020 4:15:00 AM 8.16 46.688 0.178 7.43 5.62 10.95
10/31/2020 4:30:00 AM 8.13 46.634 0.179 7.46 4.21 10.95
10/31/2020 4:45:00 AM 8.11 46.598 0.179 7.43 4.73 10.96
10/31/2020 5:00:00 AM 8.08 46.544 0.179 7.43 4.12 10.96
10/31/2020 5:15:00 AM 8.03 46.454 0.179 7.45 4.11 10.97
10/31/2020 5:30:00 AM 7.98 46.364 0.179 7.46 4.21 10.98
10/31/2020 5:45:00 AM 7.92 46.256 0.179 7.44 4.12 10.99
10/31/2020 6:00:00 AM 7.87 46.166 0.179 7.43 4.11 11
10/31/2020 6:15:00 AM 7.82 46.076 0.179 7.41 3.98 11.02
10/31/2020 6:30:00 AM 7.79 46.022 0.179 7.43 3.87 11.04
10/31/2020 6:45:00 AM 7.76 45.968 0.179 7.4 3.92 11.05
10/31/2020 7:00:00 AM 7.72 45.896 0.179 7.4 4.28 11.07
10/31/2020 7:15:00 AM 7.69 45.842 0.179 7.42 3.87 11.07
10/31/2020 7:30:00 AM 7.66 45.788 0.179 7.4 4.42 11.09
10/31/2020 7:45:00 AM 7.63 45.734 0.179 7.42 3.84 11.1
10/31/2020 8:00:00 AM 7.6 45.68 0.179 7.41 4.35 11.13
10/31/2020 8:15:00 AM 7.58 45.644 0.179 7.44 4.2 11.14
10/31/2020 8:30:00 AM 7.56 45.608 0.179 7.44 4.64 11.17
10/31/2020 8:45:00 AM 7.54 45.572 0.179 7.46 3.95 11.2
10/31/2020 9:00:00 AM 7.54 45.572 0.179 7.47 3.63 11.23
10/31/2020 9:15:00 AM 7.56 45.608 0.179 7.44 3.64 11.26
10/31/2020 9:30:00 AM 7.59 45.662 0.179 7.49 3.51 11.28
10/31/2020 9:45:00 AM 7.61 45.698 0.179 7.49 3.63 11.32
10/31/2020 10:00:00 AM 7.62 45.716 0.179 7.46 3.53 11.32
10/31/2020 10:15:00 AM 7.64 45.752 0.178 7.5 3.44 11.37
10/31/2020 10:30:00 AM 7.67 45.806 0.178 7.5 4.12 11.38
10/31/2020 10:45:00 AM 7.7 45.86 0.178 7.47 3.81 11.41
10/31/2020 11:00:00 AM 7.78 46.004 0.178 7.49 3.4 11.42
10/31/2020 11:15:00 AM 7.86 46.148 0.178 7.52 3.46 11.44
10/31/2020 11:30:00 AM 7.95 46.31 0.179 7.5 3.43 11.43
10/31/2020 11:45:00 AM 8 46.4 0.178 7.53 3.51 11.44
10/31/2020 12:00:00 PM 8.08 46.544 0.179 7.49 3.39 11.45
10/31/2020 12:15:00 PM 8.09 46.562 0.179 7.51 3.5 11.46
10/31/2020 12:30:00 PM 8.12 46.616 0.179 7.51 3.37 11.45
10/31/2020 12:45:00 PM 8.18 46.724 0.179 7.51 3.43 11.45
10/31/2020 1:00:00 PM 8.27 46.886 0.179 7.53 3.6 11.46
10/31/2020 1:15:00 PM 8.37 47.066 0.179 7.52 3.36 11.45
10/31/2020 1:30:00 PM 8.43 47.174 0.179 7.57 3.39 11.46
10/31/2020 1:45:00 PM 8.49 47.282 0.179 7.55 3.21 11.45
10/31/2020 2:00:00 PM 8.53 47.354 0.179 7.53 3.31 11.44
10/31/2020 2:15:00 PM 8.58 47.444 0.179 7.53 4.02 11.43
10/31/2020 2:30:00 PM 8.61 47.498 0.179 7.55 3.26 11.42
10/31/2020 2:45:00 PM 8.67 47.606 0.179 7.53 3.27 11.37
10/31/2020 3:00:00 PM 8.71 47.678 0.179 7.54 3.26 11.36
10/31/2020 3:15:00 PM 8.75 47.75 0.179 7.58 3.19 11.36
10/31/2020 3:30:00 PM 8.8 47.84 0.179 7.57 3.18 11.31
10/31/2020 3:45:00 PM 8.85 47.93 0.179 7.57 3.15 11.31
10/31/2020 4:00:00 PM 8.94 48.092 0.179 7.58 3.16 11.31
10/31/2020 4:15:00 PM 8.94 48.092 0.18 7.53 4.17 11.27
10/31/2020 4:30:00 PM 8.98 48.164 0.18 7.57 3.08 11.25
10/31/2020 4:45:00 PM 9 48.2 0.18 7.58 3.13 11.19
10/31/2020 5:00:00 PM 8.97 48.146 0.18 7.53 3.65 11.18
10/31/2020 5:15:00 PM 8.97 48.146 0.18 7.57 3.1 11.15
10/31/2020 5:30:00 PM 8.94 48.092 0.18 7.54 3.05 11.12
10/31/2020 5:45:00 PM 8.9 48.02 0.181 7.54 3.1 11.08
10/31/2020 6:00:00 PM 8.85 47.93 0.18 7.54 9 11.05
10/31/2020 6:15:00 PM 8.81 47.858 0.181 7.52 4.15 11.01
10/31/2020 6:30:00 PM 8.76 47.768 0.181 7.52 3.82 10.98
10/31/2020 6:45:00 PM 8.71 47.678 0.181 7.54 3.09 10.94
10/31/2020 7:00:00 PM 8.66 47.588 0.181 7.52 3.39 10.92
10/31/2020 7:15:00 PM 8.6 47.48 0.182 7.53 3.1 10.93
10/31/2020 7:30:00 PM 8.56 47.408 0.182 7.53 3.31 10.91
10/31/2020 7:45:00 PM 8.51 47.318 0.182 7.49 3.06 10.9
10/31/2020 8:00:00 PM 8.46 47.228 0.182 7.49 3.5 10.9
10/31/2020 8:15:00 PM 8.4 47.12 0.182 7.48 3.62 10.88
10/31/2020 8:30:00 PM 8.34 47.012 0.182 7.49 3.04 10.88
10/31/2020 8:45:00 PM 8.27 46.886 0.182 7.51 3.01 10.87
10/31/2020 9:00:00 PM 8.2 46.76 0.183 7.5 3.01 10.85
10/31/2020 9:15:00 PM 8.12 46.616 0.183 7.51 2.97 10.87
10/31/2020 9:30:00 PM 8.06 46.508 0.183 7.5 3.13 10.85
10/31/2020 9:45:00 PM 7.98 46.364 0.183 7.5 3.04 10.87
10/31/2020 10:00:00 PM 7.91 46.238 0.183 7.49 3.02 10.88
10/31/2020 10:15:00 PM 7.84 46.112 0.184 7.49 3.03 10.91
10/31/2020 10:30:00 PM 7.76 45.968 0.184 7.48 3.02 10.91
10/31/2020 10:45:00 PM 7.68 45.824 0.184 7.45 2.97 10.93
10/31/2020 11:00:00 PM 7.6 45.68 0.184 7.48 2.92 10.93
10/31/2020 11:15:00 PM 7.51 45.518 0.184 7.45 3.01 10.94
10/31/2020 11:30:00 PM 7.45 45.41 0.184 7.48 3.04 10.95
10/31/2020 11:45:00 PM 7.35 45.23 0.185 7.45 2.94 10.97
11/1/2020 12:00:00 AM 7.27 45.086 0.185 7.48 2.89 11
11/1/2020 12:15:00 AM 7.19 44.942 0.185 7.48 3.01 11.02
11/1/2020 12:30:00 AM 7.1 44.78 0.185 7.42 2.93 11.06
11/1/2020 12:45:00 AM 7.03 44.654 0.185 7.45 2.88 11.08
11/1/2020 1:00:00 AM 6.96 44.528 0.185 7.43 2.88 11.1
11/1/2020 1:15:00 AM 6.88 44.384 0.186 7.44 2.9 11.11
11/1/2020 1:30:00 AM 6.82 44.276 0.186 7.44 2.85 11.14
11/1/2020 1:45:00 AM 6.75 44.15 0.186 7.42 2.8 11.13
11/1/2020 2:00:00 AM 6.68 44.024 0.186 7.41 2.84 11.16
11/1/2020 2:15:00 AM 6.61 43.898 0.169 7.4 3.6 11.18
11/1/2020 2:30:00 AM 6.55 43.79 0.186 7.41 2.93 11.19
11/1/2020 2:45:00 AM 6.49 43.682 0.186 7.41 3.33 11.22
11/1/2020 3:00:00 AM 6.44 43.592 0.186 7.44 2.88 11.25
11/1/2020 3:15:00 AM 6.39 43.502 0.187 7.41 2.79 11.26
11/1/2020 3:30:00 AM 6.34 43.412 0.187 7.44 2.77 11.27
11/1/2020 3:45:00 AM 6.3 43.34 0.187 7.41 3.32 11.3
11/1/2020 4:00:00 AM 6.25 43.25 0.187 7.45 2.84 11.33
11/1/2020 4:15:00 AM 6.06 42.908 0.188 7.46 2.78 11.36
11/1/2020 4:30:00 AM 6.03 42.854 0.187 7.41 3.46 11.37
11/1/2020 4:45:00 AM 5.99 42.782 0.188 7.42 3.41 11.38
11/1/2020 5:00:00 AM 5.98 42.764 0.184 7.43 3.38 11.41
11/1/2020 5:15:00 AM 5.96 42.728 0.188 7.43 3.36 11.4
11/1/2020 5:30:00 AM 5.93 42.674 0.188 7.43 3.42 11.42
11/1/2020 5:45:00 AM 5.92 42.656 0.188 7.47 2.75 11.43
11/1/2020 6:00:00 AM 5.9 42.62 0.188 7.47 2.66 11.44
11/1/2020 6:15:00 AM 5.89 42.602 0.188 7.47 2.73 11.42
11/1/2020 6:30:00 AM 5.86 42.548 0.188 7.47 2.72 11.46
11/1/2020 6:45:00 AM 5.84 42.512 0.188 7.43 2.78 11.45
11/1/2020 7:00:00 AM 5.82 42.476 0.188 7.47 2.69 11.47
11/1/2020 7:15:00 AM 5.82 42.476 0.188 7.46 5.95 11.47
11/1/2020 7:30:00 AM 5.83 42.494 0.188 7.45 2.58 11.47
11/1/2020 7:45:00 AM 5.85 42.53 0.105 7.45 5.96 11.49
11/1/2020 8:00:00 AM 5.9 42.62 0.188 7.45 6.9 11.48
11/1/2020 8:15:00 AM 5.95 42.71 0.184 7.46 5.67 11.56
11/1/2020 8:30:00 AM 5.98 42.764 0.188 7.45 3.11 11.51
11/1/2020 8:45:00 AM 6 42.8 0.188 7.45 2.93 11.56
11/1/2020 9:00:00 AM 6.04 42.872 0.188 7.48 2.5 11.57
11/1/2020 9:15:00 AM 6.07 42.926 0.189 7.49 2.53 11.52
11/1/2020 9:30:00 AM 6.11 42.998 0.189 7.49 2.51 11.53
11/1/2020 9:45:00 AM 6.14 43.052 0.189 7.48 2.48 11.56
11/1/2020 10:00:00 AM 6.16 43.088 0.189 7.5 2.49 11.55
11/1/2020 10:15:00 AM 6.19 43.142 0.189 7.48 2.52 11.53
11/1/2020 10:30:00 AM 6.24 43.232 0.189 7.5 2.44 11.55
11/1/2020 10:45:00 AM 6.29 43.322 0.189 7.49 2.49 11.56
11/1/2020 11:00:00 AM 6.33 43.394 0.189 7.51 2.67 11.55
11/1/2020 11:15:00 AM 6.36 43.448 0.189 7.52 2.41 11.57
11/1/2020 11:30:00 AM 6.4 43.52 0.189 7.51 2.44 11.54
11/1/2020 11:45:00 AM 6.43 43.574 0.189 7.5 2.39 11.57
11/1/2020 12:00:00 PM 6.51 43.718 0.189 7.49 3.2 11.54
11/1/2020 12:15:00 PM 6.61 43.898 0.189 7.52 2.42 11.56
11/1/2020 12:30:00 PM 6.67 44.006 0.189 7.51 2.39 11.54
11/1/2020 12:45:00 PM 6.8 44.24 0.189 7.53 2.41 11.52
11/1/2020 1:00:00 PM 7.01 44.618 0.189 7.54 2.34 11.52
11/1/2020 1:15:00 PM 7.26 45.068 0.189 7.54 2.37 11.47
11/1/2020 1:30:00 PM 7.26 45.068 0.189 7.54 2.34 11.49
11/1/2020 1:45:00 PM 7.27 45.086 0.188 7.55 2.4 11.49
11/1/2020 2:00:00 PM 7.27 45.086 0.188 7.51 2.4 11.43
11/1/2020 2:15:00 PM 7.3 45.14 0.188 7.56 2.38 11.47
11/1/2020 2:30:00 PM 7.34 45.212 0.188 7.55 2.71 11.43
11/1/2020 2:45:00 PM 7.37 45.266 0.188 7.53 2.56 11.4
11/1/2020 3:00:00 PM 7.37 45.266 0.188 7.55 2.61 11.36
11/1/2020 3:15:00 PM 7.4 45.32 0.188 7.51 2.45 11.35
11/1/2020 3:30:00 PM 7.42 45.356 0.188 7.54 3.38 11.34
11/1/2020 3:45:00 PM 7.46 45.428 0.188 7.52 2.78 11.32
11/1/2020 4:00:00 PM 7.46 45.428 0.188 7.52 2.42 11.3
11/1/2020 4:15:00 PM 7.48 45.464 0.188 7.56 2.41 11.3
11/1/2020 4:30:00 PM 7.47 45.446 0.188 7.56 2.46 11.28
11/1/2020 4:45:00 PM 7.42 45.356 0.188 7.52 2.46 11.25
11/1/2020 5:00:00 PM 7.38 45.284 0.188 7.52 2.4 11.21
11/1/2020 5:15:00 PM 7.34 45.212 0.188 7.53 2.43 11.14
11/1/2020 5:30:00 PM 7.32 45.176 0.188 7.54 6.39 11.18
11/1/2020 5:45:00 PM 7.31 45.158 0.188 7.54 2.57 11.13
11/1/2020 6:00:00 PM 7.27 45.086 0.188 7.52 2.83 11.11
11/1/2020 6:15:00 PM 7.24 45.032 0.188 7.53 2.55 11.12
11/1/2020 6:30:00 PM 7.19 44.942 0.188 7.53 2.62 11.08
11/1/2020 6:45:00 PM 7.15 44.87 0.188 7.53 2.83 11.05
11/1/2020 7:00:00 PM 7.13 44.834 0.189 7.52 2.69 11.02
11/1/2020 7:15:00 PM 7.09 44.762 0.188 7.47 3.35 10.99
11/1/2020 7:30:00 PM 7.03 44.654 0.189 7.52 2.5 10.96
11/1/2020 7:45:00 PM 6.96 44.528 0.189 7.52 2.7 10.99
11/1/2020 8:00:00 PM 6.94 44.492 0.189 7.5 2.65 11
11/1/2020 8:15:00 PM 6.88 44.384 0.189 7.51 3.99 10.93
11/1/2020 8:30:00 PM 6.83 44.294 0.189 7.51 2.6 10.99
11/1/2020 8:45:00 PM 6.78 44.204 0.189 7.51 2.69 11
11/1/2020 9:00:00 PM 6.73 44.114 0.189 7.5 2.68 10.99
11/1/2020 9:15:00 PM 6.69 44.042 0.189 7.46 3.24 10.96
11/1/2020 9:30:00 PM 6.65 43.97 0.19 7.47 2.6 11.01
11/1/2020 9:45:00 PM 6.62 43.916 0.189 7.46 3.32 11.02
11/1/2020 10:00:00 PM 6.58 43.844 0.189 7.47 2.72 11.05
11/1/2020 10:15:00 PM 6.54 43.772 0.189 7.46 3.3 11.03
11/1/2020 10:30:00 PM 6.49 43.682 0.19 7.45 3.23 11.04
11/1/2020 10:45:00 PM 6.44 43.592 0.19 7.45 3.17 11.03
11/1/2020 11:00:00 PM 6.4 43.52 0.19 7.46 3.25 11.05
11/1/2020 11:15:00 PM 6.34 43.412 0.19 7.46 2.78 11.06
11/1/2020 11:30:00 PM 6.26 43.268 0.191 7.49 2.66 11.04
11/1/2020 11:45:00 PM 6.2 43.16 0.191 7.5 2.67 11.09
11/2/2020 12:00:00 AM 6.14 43.052 0.191 7.49 3.06 11.11
11/2/2020 12:15:00 AM 6.06 42.908 0.191 7.49 2.65 11.13
11/2/2020 12:30:00 AM 5.97 42.746 0.191 7.45 3.26 11.18
11/2/2020 12:45:00 AM 5.92 42.656 0.191 7.45 3.18 11.2
11/2/2020 1:00:00 AM 5.85 42.53 0.192 7.5 2.49 11.22
11/2/2020 1:15:00 AM 5.78 42.404 0.192 7.49 2.76 11.23
11/2/2020 1:30:00 AM 5.72 42.296 0.192 7.49 2.55 11.23
11/2/2020 1:45:00 AM 5.67 42.206 0.192 7.45 2.56 11.23
11/2/2020 2:00:00 AM 5.61 42.098 0.192 7.48 2.54 11.24
11/2/2020 2:15:00 AM 5.53 41.954 0.192 7.46 2.53 11.28
11/2/2020 2:30:00 AM 5.46 41.828 0.192 7.46 3.07 11.31
11/2/2020 2:45:00 AM 5.41 41.738 0.192 7.48 2.55 11.31
11/2/2020 3:00:00 AM 5.37 41.666 0.192 7.45 2.57 11.34
11/2/2020 3:15:00 AM 5.35 41.63 0.192 7.49 2.46 11.33
11/2/2020 3:30:00 AM 5.33 41.594 0.192 7.49 2.51 11.37
11/2/2020 3:45:00 AM 5.32 41.576 0.192 7.5 2.44 11.4
11/2/2020 4:00:00 AM 5.28 41.504 0.192 7.45 2.47 11.42
11/2/2020 4:15:00 AM 5.25 41.45 0.185 7.43 3.21 11.44
11/2/2020 4:30:00 AM 5.23 41.414 0.192 7.46 2.52 11.45
11/2/2020 4:45:00 AM 5.17 41.306 0.192 7.46 2.42 11.5
11/2/2020 5:00:00 AM 5.11 41.198 0.192 7.43 2.49 11.51
11/2/2020 5:15:00 AM 5.09 41.162 0.192 7.47 2.4 11.51
11/2/2020 5:30:00 AM 5.06 41.108 0.192 7.47 2.37 11.56
11/2/2020 5:45:00 AM 5.04 41.072 0.192 7.45 2.41 11.57
11/2/2020 6:00:00 AM 5.02 41.036 0.192 7.47 2.42 11.57
11/2/2020 6:15:00 AM 5 41 0.192 7.45 2.35 11.59
11/2/2020 6:30:00 AM 4.97 40.946 0.192 7.47 2.39 11.61
11/2/2020 6:45:00 AM 4.93 40.874 0.192 7.45 2.48 11.61
11/2/2020 7:00:00 AM 4.91 40.838 0.193 7.45 2.36 11.62
11/2/2020 7:15:00 AM 4.89 40.802 0.193 7.46 2.4 11.65
11/2/2020 7:30:00 AM 4.87 40.766 0.193 7.47 2.44 11.65
11/2/2020 7:45:00 AM 4.88 40.784 0.193 7.47 2.37 11.69
11/2/2020 8:00:00 AM 4.87 40.766 0.193 7.5 2.39 11.72
11/2/2020 8:15:00 AM 4.86 40.748 0.193 7.51 2.33 11.74
11/2/2020 8:30:00 AM 4.91 40.838 0.193 7.49 2.26 11.8
11/2/2020 8:45:00 AM 4.94 40.892 0.192 7.5 2.29 11.85
11/2/2020 9:00:00 AM 4.94 40.892 0.193 7.52 2.32 11.85
11/2/2020 9:15:00 AM 4.98 40.964 0.193 7.52 2.3 11.89
11/2/2020 9:30:00 AM 5.04 41.072 0.193 7.53 2.28 11.93
11/2/2020 9:45:00 AM 5.12 41.216 0.184 7.5 2.89 11.96
11/2/2020 10:00:00 AM 5.22 41.396 0.193 7.55 2.27 11.98
11/2/2020 10:15:00 AM 5.35 41.63 0.193 7.51 2.83 12.01
11/2/2020 10:30:00 AM 5.45 41.81 0.192 7.52 2.96 12.05
11/2/2020 10:45:00 AM 5.61 42.098 0.192 7.56 2.3 12.03
11/2/2020 11:00:00 AM 5.8 42.44 0.192 7.54 2.25 12.01
11/2/2020 11:15:00 AM 5.99 42.782 0.192 7.54 2.83 12
11/2/2020 11:30:00 AM 6.17 43.106 0.192 7.55 2.25 12.03
11/2/2020 11:45:00 AM 6.25 43.25 0.192 7.57 2.83 12
11/2/2020 12:00:00 PM 6.42 43.556 0.192 7.55 2.4 11.98
11/2/2020 12:15:00 PM 6.59 43.862 0.192 7.55 3.12 11.97
11/2/2020 12:30:00 PM 6.73 44.114 0.192 7.59 2.32 11.98
11/2/2020 12:45:00 PM 6.76 44.168 0.192 7.59 2.26 11.96
11/2/2020 1:00:00 PM 6.88 44.384 0.192 7.58 2.24 11.95
11/2/2020 1:15:00 PM 6.8 44.24 0.192 7.57 2.21 11.94
11/2/2020 1:30:00 PM 6.76 44.168 0.192 7.58 2.21 11.94
11/2/2020 1:45:00 PM 6.71 44.078 0.192 7.57 2.22 11.93
11/2/2020 2:00:00 PM 6.65 43.97 0.192 7.56 2.88 11.91
11/2/2020 2:15:00 PM 6.61 43.898 0.192 7.56 2.89 11.92
11/2/2020 2:30:00 PM 6.55 43.79 0.192 7.57 2.21 11.9
11/2/2020 2:45:00 PM 6.53 43.754 0.192 7.6 2.22 11.9
11/2/2020 3:00:00 PM 6.53 43.754 0.192 7.61 2.31 11.89
11/2/2020 3:15:00 PM 6.53 43.754 0.192 7.6 2.23 11.86
11/2/2020 3:30:00 PM 6.51 43.718 0.192 7.57 3.08 11.87
11/2/2020 3:45:00 PM 6.51 43.718 0.191 7.57 2.83 11.84
11/2/2020 4:00:00 PM 6.49 43.682 0.192 7.56 2.78 11.83
11/2/2020 4:15:00 PM 6.47 43.646 0.192 7.57 2.77 11.8
11/2/2020 4:30:00 PM 6.45 43.61 0.192 7.56 2.84 11.78
11/2/2020 4:45:00 PM 6.39 43.502 0.192 7.6 2.22 11.75
11/2/2020 5:00:00 PM 6.33 43.394 0.192 7.58 2.33 11.71
11/2/2020 5:15:00 PM 6.27 43.286 0.192 7.59 2.49 11.69
11/2/2020 5:30:00 PM 6.23 43.214 0.192 7.59 2.24 11.64
11/2/2020 5:45:00 PM 6.2 43.16 0.192 7.58 2.26 11.59
11/2/2020 6:00:00 PM 6.18 43.124 0.192 7.58 2.2 11.57
11/2/2020 6:15:00 PM 6.15 43.07 0.192 7.54 2.28 11.53
11/2/2020 6:30:00 PM 6.14 43.052 0.193 7.57 2.29 11.48
11/2/2020 6:45:00 PM 6.14 43.052 0.193 7.53 2.22 11.45
11/2/2020 7:00:00 PM 6.13 43.034 0.193 7.54 2.29 11.42
11/2/2020 7:15:00 PM 6.16 43.088 0.193 7.54 2.3 11.43
11/2/2020 7:30:00 PM 6.17 43.106 0.193 7.56 2.25 11.38
11/2/2020 7:45:00 PM 6.14 43.052 0.193 7.52 2.21 11.34
11/2/2020 8:00:00 PM 6.12 43.016 0.193 7.52 2.3 11.35
11/2/2020 8:15:00 PM 6.09 42.962 0.193 7.53 2.17 11.33
11/2/2020 8:30:00 PM 6.04 42.872 0.193 7.54 2.25 11.27
11/2/2020 8:45:00 PM 5.99 42.782 0.193 7.52 2.23 11.29
11/2/2020 9:00:00 PM 5.94 42.692 0.193 7.54 2.22 11.28
11/2/2020 9:15:00 PM 5.88 42.584 0.193 7.54 2.22 11.28
11/2/2020 9:30:00 PM 5.83 42.494 0.194 7.5 2.22 11.29
11/2/2020 9:45:00 PM 5.78 42.404 0.194 7.5 2.85 11.27
11/2/2020 10:00:00 PM 5.72 42.296 0.193 7.5 2.86 11.32
11/2/2020 10:15:00 PM 5.67 42.206 0.194 7.53 2.24 11.3
11/2/2020 10:30:00 PM 5.62 42.116 0.194 7.49 2.43 11.32
11/2/2020 10:45:00 PM 5.58 42.044 0.194 7.52 2.2 11.36
11/2/2020 11:00:00 PM 5.54 41.972 0.194 7.52 2.3 11.38
11/2/2020 11:15:00 PM 5.5 41.9 0.194 7.52 2.19 11.37
11/2/2020 11:30:00 PM 5.45 41.81 0.194 7.49 2.2 11.41
11/2/2020 11:45:00 PM 5.4 41.72 0.194 7.51 2.27 11.37
11/3/2020 12:00:00 AM 5.35 41.63 0.194 7.52 2.35 11.41
11/3/2020 12:15:00 AM 5.31 41.558 0.194 7.48 2.34 11.44
11/3/2020 12:30:00 AM 5.27 41.486 0.195 7.48 2.97 11.46
11/3/2020 12:45:00 AM 5.17 41.306 0.194 7.49 2.26 11.48
11/3/2020 1:00:00 AM 5.1 41.18 0.195 7.48 3.01 11.51
11/3/2020 1:15:00 AM 5.04 41.072 0.195 7.48 2.26 11.53
11/3/2020 1:30:00 AM 4.97 40.946 0.195 7.51 2.19 11.54
11/3/2020 1:45:00 AM 4.89 40.802 0.195 7.49 2.24 11.58
11/3/2020 2:00:00 AM 4.83 40.694 0.195 7.5 2.21 11.6
11/3/2020 2:15:00 AM 4.77 40.586 0.195 7.48 2.29 11.63
11/3/2020 2:30:00 AM 4.71 40.478 0.195 7.51 2.31 11.62
11/3/2020 2:45:00 AM 4.66 40.388 0.195 7.48 2.32 11.64
11/3/2020 3:00:00 AM 4.61 40.298 0.195 7.48 2.19 11.71
11/3/2020 3:15:00 AM 4.57 40.226 0.195 7.47 3.07 11.7
11/3/2020 3:30:00 AM 4.52 40.136 0.195 7.47 2.66 11.71
11/3/2020 3:45:00 AM 4.47 40.046 0.159 7.46 2.65 11.71
11/3/2020 4:00:00 AM 4.41 39.938 0.195 7.44 2.71 11.77
11/3/2020 4:15:00 AM 4.35 39.83 0.195 7.46 2.26 11.77
11/3/2020 4:30:00 AM 4.31 39.758 0.195 7.45 2.2 11.78
11/3/2020 4:45:00 AM 4.27 39.686 0.196 7.46 2.25 11.77
11/3/2020 5:00:00 AM 4.23 39.614 0.195 7.49 2.21 11.79
11/3/2020 5:15:00 AM 4.21 39.578 0.196 7.45 2.22 11.81
11/3/2020 5:30:00 AM 4.19 39.542 0.196 7.49 2.2 11.79
11/3/2020 5:45:00 AM 4.16 39.488 0.196 7.49 2.23 11.8
11/3/2020 6:00:00 AM 4.13 39.434 0.196 7.5 2.24 11.86
11/3/2020 6:15:00 AM 4.11 39.398 0.196 7.46 2.18 11.82
11/3/2020 6:30:00 AM 4.08 39.344 0.196 7.47 2.23 11.85
11/3/2020 6:45:00 AM 4.05 39.29 0.196 7.47 2.19 11.82
11/3/2020 7:00:00 AM 4.02 39.236 0.196 7.5 2.22 11.9
11/3/2020 7:15:00 AM 4 39.2 0.196 7.49 2.18 11.89
11/3/2020 7:30:00 AM 4 39.2 0.196 7.49 2.17 11.93
11/3/2020 7:45:00 AM 4.01 39.218 0.196 7.46 2.75 12.01
11/3/2020 8:00:00 AM 4.04 39.272 0.196 7.5 2.12 12.03
11/3/2020 8:15:00 AM 4.09 39.362 0.196 7.48 2.26 12.06
11/3/2020 8:30:00 AM 4.17 39.506 0.196 7.5 2.17 12.04
11/3/2020 8:45:00 AM 4.3 39.74 0.196 7.51 2.17 12.01
11/3/2020 9:00:00 AM 4.45 40.01 0.196 7.51 2.11 12.14
11/3/2020 9:15:00 AM 4.61 40.298 0.196 7.52 2.15 12.07
11/3/2020 9:30:00 AM 4.8 40.64 0.195 7.51 2.73 12.17
11/3/2020 9:45:00 AM 4.97 40.946 0.196 7.54 2.09 12.15
11/3/2020 10:00:00 AM 5.16 41.288 0.196 7.55 2.14 12.18
11/3/2020 10:15:00 AM 5.35 41.63 0.196 7.53 2.12 12.14
11/3/2020 10:30:00 AM 5.6 42.08 0.196 7.56 2.14 12.07
11/3/2020 10:45:00 AM 5.79 42.422 0.196 7.54 2.11 12.1
11/3/2020 11:00:00 AM 6 42.8 0.195 7.54 2.08 12.16
11/3/2020 11:15:00 AM 6.1 42.98 0.195 7.54 2.1 12.05
11/3/2020 11:30:00 AM 6.33 43.394 0.195 7.58 2.08 12.07
11/3/2020 11:45:00 AM 6.52 43.736 0.195 7.54 2.71 12.13
11/3/2020 12:00:00 PM 6.72 44.096 0.195 7.56 2.07 12.1
11/3/2020 12:15:00 PM 6.92 44.456 0.195 7.55 2.1 12.05
11/3/2020 12:30:00 PM 7.15 44.87 0.195 7.58 2.08 12.03
11/3/2020 12:45:00 PM 7.37 45.266 0.195 7.55 2.47 12.02
11/3/2020 1:00:00 PM 7.49 45.482 0.195 7.57 2.21 11.99
11/3/2020 1:15:00 PM 7.57 45.626 0.195 7.56 2.11 11.96
11/3/2020 1:30:00 PM 7.59 45.662 0.195 7.59 2.28 11.98
11/3/2020 1:45:00 PM 7.64 45.752 0.195 7.57 2.53 11.95
11/3/2020 2:00:00 PM 7.73 45.914 0.195 7.57 2.78 11.93
11/3/2020 2:15:00 PM 7.78 46.004 0.194 7.57 2.84 11.9
11/3/2020 2:30:00 PM 7.66 45.788 0.195 7.57 2.19 11.89
11/3/2020 2:45:00 PM 7.73 45.914 0.181 7.57 2.85 11.86
11/3/2020 3:00:00 PM 7.73 45.914 0.195 7.6 2.16 11.84
11/3/2020 3:15:00 PM 7.64 45.752 0.195 7.6 2.22 11.75
11/3/2020 3:30:00 PM 7.59 45.662 0.195 7.57 2.35 11.76
11/3/2020 3:45:00 PM 7.57 45.626 0.195 7.59 2.15 11.61
11/3/2020 4:00:00 PM 7.51 45.518 0.195 7.57 2.28 11.69
11/3/2020 4:15:00 PM 7.48 45.464 0.195 7.59 2.15 11.64
11/3/2020 4:30:00 PM 7.44 45.392 0.195 7.59 2.18 11.65
11/3/2020 4:45:00 PM 7.42 45.356 0.195 7.57 2.2 11.59
11/3/2020 5:00:00 PM 7.37 45.266 0.195 7.56 2.18 11.54
11/3/2020 5:15:00 PM 7.33 45.194 0.195 7.58 2.45 11.46
11/3/2020 5:30:00 PM 7.29 45.122 0.195 7.53 2.79 11.44
11/3/2020 5:45:00 PM 7.25 45.05 0.195 7.54 2.16 11.37
11/3/2020 6:00:00 PM 7.21 44.978 0.195 7.52 3.13 11.32
11/3/2020 6:15:00 PM 7.19 44.942 0.195 7.52 2.82 11.32
11/3/2020 6:30:00 PM 7.16 44.888 0.194 7.52 2.67 11.26
11/3/2020 6:45:00 PM 7.14 44.852 0.195 7.51 2.72 11.23
11/3/2020 7:00:00 PM 7.13 44.834 0.195 7.52 2.15 11.2
11/3/2020 7:15:00 PM 7.12 44.816 0.195 7.49 3 11.15
11/3/2020 7:30:00 PM 7.11 44.798 0.195 7.5 3.54 11.12
11/3/2020 7:45:00 PM 7.1 44.78 0.195 7.5 2.4 11.09
11/3/2020 8:00:00 PM 7.1 44.78 0.195 7.5 2.38 11.08
11/3/2020 8:15:00 PM 7.08 44.744 0.195 7.49 2.19 11.03
11/3/2020 8:30:00 PM 7.08 44.744 0.195 7.5 4.31 10.99
11/3/2020 8:45:00 PM 7.08 44.744 0.195 7.5 3.1 10.98
11/3/2020 9:00:00 PM 7.05 44.69 0.195 7.51 4.82 10.93
11/3/2020 9:15:00 PM 7.05 44.69 0.195 7.5 3.25 10.95
11/3/2020 9:30:00 PM 7.03 44.654 0.195 7.5 2.34 10.91
11/3/2020 9:45:00 PM 7.01 44.618 0.195 7.46 2.36 10.91
11/3/2020 10:00:00 PM 6.98 44.564 0.195 7.49 2.15 10.9
11/3/2020 10:15:00 PM 6.94 44.492 0.196 7.46 2.21 10.88
11/3/2020 10:30:00 PM 6.9 44.42 0.196 7.49 2.22 10.84
11/3/2020 10:45:00 PM 6.88 44.384 0.195 7.47 3.55 10.92
11/3/2020 11:00:00 PM 6.84 44.312 0.196 7.48 2.36 10.86
11/3/2020 11:15:00 PM 6.79 44.222 0.196 7.45 2.29 10.9
11/3/2020 11:30:00 PM 6.73 44.114 0.196 7.48 2.6 10.91
11/3/2020 11:45:00 PM 6.68 44.024 0.196 7.47 2.23 10.92
11/4/2020 12:00:00 AM 6.61 43.898 0.196 7.44 2.17 10.94
11/4/2020 12:15:00 AM 6.55 43.79 0.196 7.48 2.17 10.87
11/4/2020 12:30:00 AM 6.48 43.664 0.196 7.48 2.26 10.95
11/4/2020 12:45:00 AM 6.42 43.556 0.196 7.46 2.11 10.97
11/4/2020 1:00:00 AM 6.34 43.412 0.196 7.47 2.17 10.98
11/4/2020 1:15:00 AM 6.27 43.286 0.197 7.46 2.19 10.95
11/4/2020 1:30:00 AM 6.19 43.142 0.197 7.45 2.22 10.98
11/4/2020 1:45:00 AM 6.11 42.998 0.197 7.47 2.18 11.02
11/4/2020 2:00:00 AM 6.03 42.854 0.197 7.44 2.15 11.04
11/4/2020 2:15:00 AM 5.94 42.692 0.197 7.46 2.18 11.04
11/4/2020 2:30:00 AM 5.86 42.548 0.197 7.42 2.7 11.12
11/4/2020 2:45:00 AM 5.78 42.404 0.198 7.42 2.77 11.15
11/4/2020 3:00:00 AM 5.69 42.242 0.198 7.41 2.74 11.17
11/4/2020 3:15:00 AM 5.61 42.098 0.198 7.46 2.15 11.17
11/4/2020 3:30:00 AM 5.53 41.954 0.198 7.45 2.23 11.2
11/4/2020 3:45:00 AM 5.45 41.81 0.198 7.45 2.2 11.25
11/4/2020 4:00:00 AM 5.37 41.666 0.198 7.45 2.08 11.26
11/4/2020 4:15:00 AM 5.29 41.522 0.179 7.41 2.74 11.34
11/4/2020 4:30:00 AM 5.21 41.378 0.198 7.41 2.42 11.34
11/4/2020 4:45:00 AM 5.12 41.216 0.195 7.41 2.83 11.41
11/4/2020 5:00:00 AM 5.05 41.09 0.198 7.42 2.19 11.44
11/4/2020 5:15:00 AM 4.98 40.964 0.198 7.45 2.23 11.44
11/4/2020 5:30:00 AM 4.9 40.82 0.198 7.43 2.26 11.45
11/4/2020 5:45:00 AM 4.85 40.73 0.198 7.42 2.2 11.5
11/4/2020 6:00:00 AM 4.81 40.658 0.198 7.42 2.16 11.52
11/4/2020 6:15:00 AM 4.78 40.604 0.198 7.42 2.19 11.55
11/4/2020 6:30:00 AM 4.75 40.55 0.198 7.45 2.23 11.57
11/4/2020 6:45:00 AM 4.73 40.514 0.198 7.41 2.73 11.62
11/4/2020 7:00:00 AM 4.72 40.496 0.198 7.42 2.75 11.64
11/4/2020 7:15:00 AM 4.71 40.478 0.198 7.42 2.69 11.67
11/4/2020 7:30:00 AM 4.7 40.46 0.197 7.42 2.71 11.71
11/4/2020 7:45:00 AM 4.7 40.46 0.198 7.46 2.14 11.76
11/4/2020 8:00:00 AM 4.71 40.478 0.198 7.43 2.69 11.82
11/4/2020 8:15:00 AM 4.73 40.514 0.197 7.44 2.62 11.86
11/4/2020 8:30:00 AM 4.77 40.586 0.197 7.48 2.11 11.89
11/4/2020 8:45:00 AM 4.84 40.712 0.197 7.45 2.07 11.92
11/4/2020 9:00:00 AM 4.91 40.838 0.197 7.48 2.06 12
11/4/2020 9:15:00 AM 4.92 40.856 0.197 7.48 2.08 12
11/4/2020 9:30:00 AM 5.04 41.072 0.197 7.47 2.07 12.04
11/4/2020 9:45:00 AM 5.24 41.432 0.197 7.47 2.69 12.08
11/4/2020 10:00:00 AM 5.46 41.828 0.197 7.51 2.07 12.11
11/4/2020 10:15:00 AM 5.72 42.296 0.197 7.49 2.13 12.12
11/4/2020 10:30:00 AM 5.98 42.764 0.175 7.49 2.66 12.13
11/4/2020 10:45:00 AM 6.22 43.196 0.197 7.53 1.99 12.13
11/4/2020 11:00:00 AM 6.41 43.538 0.197 7.5 2.02 12.1
11/4/2020 11:15:00 AM 6.72 44.096 0.197 7.49 2.81 12.1
11/4/2020 11:30:00 AM 6.95 44.51 0.197 7.52 2.1 12.09
11/4/2020 11:45:00 AM 7.13 44.834 0.196 7.51 2.01 12.05
11/4/2020 12:00:00 PM 7.37 45.266 0.197 7.52 1.99 12.04
11/4/2020 12:15:00 PM 7.65 45.77 0.197 7.55 2.11 12.04
11/4/2020 12:30:00 PM 7.81 46.058 0.196 7.51 2.53 12.05
11/4/2020 12:45:00 PM 8.06 46.508 0.196 7.53 2.04 12.01
11/4/2020 1:00:00 PM 8.24 46.832 0.197 7.56 1.98 11.99
11/4/2020 1:15:00 PM 8.43 47.174 0.197 7.52 2.08 11.91
11/4/2020 1:30:00 PM 8.62 47.516 0.197 7.54 2.03 11.86
11/4/2020 1:45:00 PM 8.73 47.714 0.197 7.53 1.97 11.8
11/4/2020 2:00:00 PM 8.79 47.822 0.196 7.53 2.6 11.75
11/4/2020 2:15:00 PM 8.86 47.948 0.197 7.56 2.12 11.75
11/4/2020 2:30:00 PM 8.9 48.02 0.197 7.57 2.06 11.76
11/4/2020 2:45:00 PM 8.87 47.966 0.197 7.57 2 11.67
11/4/2020 3:00:00 PM 8.79 47.822 0.196 7.54 2.06 11.71
11/4/2020 3:15:00 PM 8.78 47.804 0.196 7.54 2.57 11.7
11/4/2020 3:30:00 PM 8.7 47.66 0.196 7.54 2.59 11.67
11/4/2020 3:45:00 PM 8.62 47.516 0.197 7.57 2.02 11.61
11/4/2020 4:00:00 PM 8.55 47.39 0.197 7.54 2.13 11.57
11/4/2020 4:15:00 PM 8.45 47.21 0.197 7.57 2.14 11.51
11/4/2020 4:30:00 PM 8.38 47.084 0.197 7.56 2.13 11.44
11/4/2020 4:45:00 PM 8.31 46.958 0.197 7.53 1.99 11.37
11/4/2020 5:00:00 PM 8.22 46.796 0.197 7.55 2.12 11.36
11/4/2020 5:15:00 PM 8.15 46.67 0.197 7.51 2 11.32
11/4/2020 5:30:00 PM 8.07 46.526 0.197 7.53 1.97 11.28
11/4/2020 5:45:00 PM 8 46.4 0.197 7.49 2.78 11.25
11/4/2020 6:00:00 PM 7.95 46.31 0.197 7.48 2.63 11.22
11/4/2020 6:15:00 PM 7.89 46.202 0.197 7.52 2.22 11.18
11/4/2020 6:30:00 PM 7.85 46.13 0.197 7.48 1.99 11.14
11/4/2020 6:45:00 PM 7.8 46.04 0.197 7.51 2.02 11.11
11/4/2020 7:00:00 PM 7.76 45.968 0.197 7.51 2.27 11.06
11/4/2020 7:15:00 PM 7.73 45.914 0.197 7.47 2.05 11.03
11/4/2020 7:30:00 PM 7.7 45.86 0.197 7.47 2.05 11.02
11/4/2020 7:45:00 PM 7.69 45.842 0.197 7.48 2.12 10.97
11/4/2020 8:00:00 PM 7.66 45.788 0.197 7.47 2.08 10.94
11/4/2020 8:15:00 PM 7.65 45.77 0.197 7.46 2.09 10.93
11/4/2020 8:30:00 PM 7.64 45.752 0.197 7.49 2.04 10.89
11/4/2020 8:45:00 PM 7.65 45.77 0.197 7.49 2.04 10.85
11/4/2020 9:00:00 PM 7.64 45.752 0.197 7.45 1.97 10.84
11/4/2020 9:15:00 PM 7.63 45.734 0.197 7.48 2.1 10.81
11/4/2020 9:30:00 PM 7.61 45.698 0.197 7.47 2.05 10.79
11/4/2020 9:45:00 PM 7.61 45.698 0.197 7.47 2.05 10.77
11/4/2020 10:00:00 PM 7.59 45.662 0.197 7.47 2.12 10.75
11/4/2020 10:15:00 PM 7.58 45.644 0.197 7.47 2.08 10.73
11/4/2020 10:30:00 PM 7.57 45.626 0.197 7.47 2.08 10.68
11/4/2020 10:45:00 PM 7.56 45.608 0.197 7.43 2.05 10.69
11/4/2020 11:00:00 PM 7.53 45.554 0.197 7.46 2.1 10.69
11/4/2020 11:15:00 PM 7.5 45.5 0.197 7.44 2.06 10.68
11/4/2020 11:30:00 PM 7.46 45.428 0.197 7.46 2.23 10.68
11/4/2020 11:45:00 PM 7.43 45.374 0.197 7.46 2.1 10.66
11/5/2020 12:00:00 AM 7.4 45.32 0.197 7.46 2.11 10.62
11/5/2020 12:15:00 AM 7.34 45.212 0.197 7.42 2.05 10.65
11/5/2020 12:30:00 AM 7.31 45.158 0.197 7.45 2.13 10.67
11/5/2020 12:45:00 AM 7.26 45.068 0.197 7.41 2.09 10.66
11/5/2020 1:00:00 AM 7.2 44.96 0.197 7.41 2.73 10.63
11/5/2020 1:15:00 AM 7.14 44.852 0.197 7.42 2.64 10.69
11/5/2020 1:30:00 AM 7.08 44.744 0.197 7.41 2.67 10.68
11/5/2020 1:45:00 AM 7.01 44.618 0.198 7.43 2.07 10.73
11/5/2020 2:00:00 AM 6.94 44.492 0.198 7.44 2.1 10.73
11/5/2020 2:15:00 AM 6.88 44.384 0.198 7.44 2.07 10.77
11/5/2020 2:30:00 AM 6.8 44.24 0.198 7.44 2.06 10.78
11/5/2020 2:45:00 AM 6.73 44.114 0.198 7.44 2.09 10.78
11/5/2020 3:00:00 AM 6.66 43.988 0.198 7.42 2.07 10.84
11/5/2020 3:15:00 AM 6.58 43.844 0.198 7.38 2.7 10.84
11/5/2020 3:30:00 AM 6.5 43.7 0.198 7.4 2.12 10.84
11/5/2020 3:45:00 AM 6.42 43.556 0.198 7.4 2.69 10.86
11/5/2020 4:00:00 AM 6.33 43.394 0.198 7.4 2.63 10.9
11/5/2020 4:15:00 AM 6.25 43.25 0.199 7.43 2.1 10.94
11/5/2020 4:30:00 AM 6.16 43.088 0.199 7.4 2.08 10.97
11/5/2020 4:45:00 AM 6.08 42.944 0.199 7.42 2.04 11.01
11/5/2020 5:00:00 AM 5.99 42.782 0.199 7.42 2.07 11.04
11/5/2020 5:15:00 AM 5.9 42.62 0.198 7.39 2.63 11.09
11/5/2020 5:30:00 AM 5.82 42.476 0.199 7.38 2.35 11.13
11/5/2020 5:45:00 AM 5.74 42.332 0.195 7.39 2.66 11.16
11/5/2020 6:00:00 AM 5.65 42.17 0.199 7.43 2.06 11.16
11/5/2020 6:15:00 AM 5.58 42.044 0.199 7.41 2.07 11.2
11/5/2020 6:30:00 AM 5.51 41.918 0.199 7.41 2.03 11.21
11/5/2020 6:45:00 AM 5.45 41.81 0.199 7.43 2.04 11.24
11/5/2020 7:00:00 AM 5.39 41.702 0.199 7.41 2.06 11.28
11/5/2020 7:15:00 AM 5.35 41.63 0.199 7.39 2.6 11.38
11/5/2020 7:30:00 AM 5.35 41.63 0.199 7.39 2.59 11.42
11/5/2020 7:45:00 AM 5.35 41.63 0.199 7.4 2.07 11.43
11/5/2020 8:00:00 AM 5.34 41.612 0.199 7.43 2.04 11.49
11/5/2020 8:15:00 AM 5.35 41.63 0.198 7.44 2.01 11.58
11/5/2020 8:30:00 AM 5.39 41.702 0.198 7.44 2.03 11.65
11/5/2020 8:45:00 AM 5.46 41.828 0.198 7.46 2.01 11.69
11/5/2020 9:00:00 AM 5.55 41.99 0.198 7.47 2.02 11.76
11/5/2020 9:15:00 AM 5.63 42.134 0.198 7.46 2.11 11.82
11/5/2020 9:30:00 AM 5.82 42.476 0.198 7.44 2.7 11.88
11/5/2020 9:45:00 AM 6.03 42.854 0.196 7.44 2.91 11.87
11/5/2020 10:00:00 AM 6.26 43.268 0.198 7.49 2.01 11.83
11/5/2020 10:15:00 AM 6.5 43.7 0.198 7.49 1.98 11.72
11/5/2020 10:30:00 AM 6.71 44.078 0.197 7.48 1.98 11.77
11/5/2020 10:45:00 AM 6.96 44.528 0.197 7.5 1.92 11.9
11/5/2020 11:00:00 AM 7.19 44.942 0.197 7.48 2.57 11.89
11/5/2020 11:15:00 AM 7.45 45.41 0.197 7.49 1.92 11.92
11/5/2020 11:30:00 AM 7.65 45.77 0.197 7.51 1.93 11.89
11/5/2020 11:45:00 AM 7.8 46.04 0.197 7.5 1.95 11.83
11/5/2020 12:00:00 PM 8.02 46.436 0.197 7.54 2.01 11.91
11/5/2020 12:15:00 PM 8.16 46.688 0.197 7.54 1.9 11.91
11/5/2020 12:30:00 PM 8.27 46.886 0.197 7.55 1.92 11.91
11/5/2020 12:45:00 PM 8.36 47.048 0.197 7.56 1.97 11.91
11/5/2020 1:00:00 PM 8.37 47.066 0.196 7.54 1.91 11.86
11/5/2020 1:15:00 PM 8.41 47.138 0.196 7.51 2.47 11.85
11/5/2020 1:30:00 PM 8.41 47.138 0.196 7.54 2.04 11.86
11/5/2020 1:45:00 PM 8.4 47.12 0.196 7.57 1.93 11.87
11/5/2020 2:00:00 PM 8.43 47.174 0.196 7.55 2.74 11.9
11/5/2020 2:15:00 PM 8.44 47.192 0.196 7.58 1.95 11.88
11/5/2020 2:30:00 PM 8.48 47.264 0.196 7.58 1.97 11.84
11/5/2020 2:45:00 PM 8.52 47.336 0.196 7.55 2.06 11.83
11/5/2020 3:00:00 PM 8.52 47.336 0.196 7.57 2.47 11.86
11/5/2020 3:15:00 PM 8.49 47.282 0.196 7.56 2.2 11.78
11/5/2020 3:30:00 PM 8.48 47.264 0.196 7.55 3.17 11.76
11/5/2020 3:45:00 PM 8.48 47.264 0.196 7.59 2.82 11.74
11/5/2020 4:00:00 PM 8.47 47.246 0.196 7.59 1.96 11.66
11/5/2020 4:15:00 PM 8.42 47.156 0.196 7.55 1.95 11.62
11/5/2020 4:30:00 PM 8.38 47.084 0.196 7.55 2.49 11.57
11/5/2020 4:45:00 PM 8.33 46.994 0.196 7.56 1.96 11.49
11/5/2020 5:00:00 PM 8.26 46.868 0.196 7.54 1.99 11.4
11/5/2020 5:15:00 PM 8.21 46.778 0.197 7.53 1.99 11.3
11/5/2020 5:30:00 PM 8.15 46.67 0.196 7.55 1.99 11.33
11/5/2020 5:45:00 PM 8.12 46.616 0.197 7.54 1.97 11.26
11/5/2020 6:00:00 PM 8.07 46.526 0.197 7.53 2 11.2
11/5/2020 6:15:00 PM 8.04 46.472 0.197 7.53 1.94 11.18
11/5/2020 6:30:00 PM 8.01 46.418 0.197 7.48 2.01 11.15
11/5/2020 6:45:00 PM 7.97 46.346 0.197 7.51 2.03 11.1
11/5/2020 7:00:00 PM 7.94 46.292 0.103 7.47 2.32 11.06
11/5/2020 7:15:00 PM 7.91 46.238 0.196 7.48 1.99 11.04
11/5/2020 7:30:00 PM 7.9 46.22 0.196 7.46 2.7 10.99
11/5/2020 7:45:00 PM 7.89 46.202 0.196 7.49 2 10.98
11/5/2020 8:00:00 PM 7.9 46.22 0.196 7.49 2.01 10.9
11/5/2020 8:15:00 PM 7.9 46.22 0.196 7.48 2.07 10.91
11/5/2020 8:30:00 PM 7.9 46.22 0.196 7.45 2.13 10.89
11/5/2020 8:45:00 PM 7.9 46.22 0.196 7.45 2.7 10.84
11/5/2020 9:00:00 PM 7.91 46.238 0.196 7.48 2.07 10.84
11/5/2020 9:15:00 PM 7.91 46.238 0.196 7.44 2.02 10.79
11/5/2020 9:30:00 PM 7.92 46.256 0.196 7.48 2.05 10.77
11/5/2020 9:45:00 PM 7.91 46.238 0.196 7.45 2.06 10.73
11/5/2020 10:00:00 PM 7.93 46.274 0.196 7.46 2.1 10.71
11/5/2020 10:15:00 PM 7.94 46.292 0.196 7.45 2.07 10.68
11/5/2020 10:30:00 PM 7.94 46.292 0.196 7.42 2.2 10.65
11/5/2020 10:45:00 PM 7.94 46.292 0.196 7.45 2.01 10.63
11/5/2020 11:00:00 PM 7.94 46.292 0.196 7.44 2.18 10.59
11/5/2020 11:15:00 PM 7.95 46.31 0.196 7.45 2.15 10.59
11/5/2020 11:30:00 PM 7.95 46.31 0.196 7.42 2.02 10.57
11/5/2020 11:45:00 PM 7.95 46.31 0.196 7.45 2.13 10.55
11/6/2020 12:00:00 AM 7.94 46.292 0.196 7.43 2.06 10.53
11/6/2020 12:15:00 AM 7.92 46.256 0.197 7.4 2.67 10.51
11/6/2020 12:30:00 AM 7.9 46.22 0.197 7.4 2.05 10.52
11/6/2020 12:45:00 AM 7.88 46.184 0.197 7.43 2.01 10.49
11/6/2020 1:00:00 AM 7.86 46.148 0.197 7.43 2.01 10.5
11/6/2020 1:15:00 AM 7.84 46.112 0.197 7.42 2.04 10.48
11/6/2020 1:30:00 AM 7.81 46.058 0.197 7.39 2.05 10.48
11/6/2020 1:45:00 AM 7.79 46.022 0.197 7.42 2.12 10.47
11/6/2020 2:00:00 AM 7.77 45.986 0.197 7.42 2.13 10.46
11/6/2020 2:15:00 AM 7.75 45.95 0.197 7.41 2.01 10.49
11/6/2020 2:30:00 AM 7.72 45.896 0.197 7.41 2.14 10.47
11/6/2020 2:45:00 AM 7.69 45.842 0.197 7.42 2.09 10.49
11/6/2020 3:00:00 AM 7.65 45.77 0.197 7.38 2.21 10.49
11/6/2020 3:15:00 AM 7.62 45.716 0.197 7.42 2.03 10.5
11/6/2020 3:30:00 AM 7.57 45.626 0.197 7.38 2.16 10.51
11/6/2020 3:45:00 AM 7.53 45.554 0.198 7.41 2.08 10.52
11/6/2020 4:00:00 AM 7.48 45.464 0.198 7.41 2.03 10.53
11/6/2020 4:15:00 AM 7.42 45.356 0.198 7.39 2.05 10.52
11/6/2020 4:30:00 AM 7.35 45.23 0.198 7.41 2.11 10.58
11/6/2020 4:45:00 AM 7.29 45.122 0.198 7.38 2.11 10.6
11/6/2020 5:00:00 AM 7.21 44.978 0.198 7.37 2.66 10.61
11/6/2020 5:15:00 AM 7.13 44.834 0.198 7.41 2.05 10.61
11/6/2020 5:30:00 AM 7.06 44.708 0.198 7.37 2.06 10.63
11/6/2020 5:45:00 AM 6.98 44.564 0.198 7.38 2.06 10.66
11/6/2020 6:00:00 AM 6.9 44.42 0.199 7.37 2.09 10.68
11/6/2020 6:15:00 AM 6.82 44.276 0.199 7.4 2.11 10.68
11/6/2020 6:30:00 AM 6.74 44.132 0.199 7.38 2.15 10.73
11/6/2020 6:45:00 AM 6.67 44.006 0.199 7.41 2.07 10.73
11/6/2020 7:00:00 AM 6.61 43.898 0.199 7.37 2.83 10.77
11/6/2020 7:15:00 AM 6.55 43.79 0.199 7.37 2.14 10.77
11/6/2020 7:30:00 AM 6.5 43.7 0.198 7.37 2.63 10.76
11/6/2020 7:45:00 AM 6.47 43.646 0.199 7.37 2.15 10.85
11/6/2020 8:00:00 AM 6.47 43.646 0.199 7.37 2.69 10.89
11/6/2020 8:15:00 AM 6.49 43.682 0.199 7.39 2.5 11.04
11/6/2020 8:30:00 AM 6.55 43.79 0.199 7.43 2.17 10.98
11/6/2020 8:45:00 AM 6.67 44.006 0.198 7.4 2.43 11.19
11/6/2020 9:00:00 AM 6.81 44.258 0.198 7.43 2.11 11.25
11/6/2020 9:15:00 AM 6.97 44.546 0.198 7.43 2.13 11.31
11/6/2020 9:30:00 AM 7.15 44.87 0.198 7.46 2.11 11.33
11/6/2020 9:45:00 AM 7.36 45.248 0.198 7.47 2.08 11.4
11/6/2020 10:00:00 AM 7.6 45.68 0.198 7.48 2.09 11.42
11/6/2020 10:15:00 AM 7.84 46.112 0.198 7.48 2.13 11.42
11/6/2020 10:30:00 AM 8.1 46.58 0.198 7.46 2.06 11.48
11/6/2020 10:45:00 AM 8.37 47.066 0.198 7.5 2.08 11.46
11/6/2020 11:00:00 AM 8.64 47.552 0.197 7.48 2.31 11.51
11/6/2020 11:15:00 AM 8.87 47.966 0.187 7.49 2.6 11.51
11/6/2020 11:30:00 AM 9.11 48.398 0.197 7.52 2.07 11.48
11/6/2020 11:45:00 AM 9.39 48.902 0.197 7.53 2.02 11.51
11/6/2020 12:00:00 PM 9.67 49.406 0.197 7.53 2.01 11.48
11/6/2020 12:15:00 PM 9.93 49.874 0.197 7.55 2.02 11.51
11/6/2020 12:30:00 PM 10.18 50.324 0.197 7.56 2.06 11.48
11/6/2020 12:45:00 PM 10.37 50.666 0.197 7.53 2.64 11.51
11/6/2020 1:00:00 PM 10.56 51.008 0.197 7.57 1.99 11.46
11/6/2020 1:15:00 PM 10.71 51.278 0.197 7.54 2.57 11.46
11/6/2020 1:30:00 PM 10.82 51.476 0.197 7.55 2.54 11.46
11/6/2020 1:45:00 PM 10.91 51.638 0.197 7.59 2.01 11.45
11/6/2020 2:00:00 PM 10.98 51.764 0.197 7.6 2.11 11.4
11/6/2020 2:15:00 PM 11.02 51.836 0.197 7.56 2.48 11.37
11/6/2020 2:30:00 PM 11.01 51.818 0.195 7.56 2.5 11.39
11/6/2020 2:45:00 PM 11 51.8 0.196 7.57 2.58 11.34
11/6/2020 3:00:00 PM 10.93 51.674 0.196 7.57 2.49 11.33
11/6/2020 3:15:00 PM 10.86 51.548 0.196 7.58 3.09 11.29
11/6/2020 3:30:00 PM 10.78 51.404 0.196 7.61 1.98 11.26
11/6/2020 3:45:00 PM 10.66 51.188 0.196 7.56 2.52 11.2
11/6/2020 4:00:00 PM 10.53 50.954 0.197 7.56 2.54 11.17
11/6/2020 4:15:00 PM 10.42 50.756 0.197 7.56 2.56 11.09
11/6/2020 4:30:00 PM 10.29 50.522 0.196 7.54 2.5 11.05
11/6/2020 4:45:00 PM 10.17 50.306 0.196 7.55 2.12 10.98
11/6/2020 5:00:00 PM 10.08 50.144 0.197 7.56 1.98 10.88
11/6/2020 5:15:00 PM 9.95 49.91 0.197 7.55 2.01 10.82
11/6/2020 5:30:00 PM 9.86 49.748 0.197 7.5 1.98 10.73
11/6/2020 5:45:00 PM 9.76 49.568 0.197 7.5 2 10.67
11/6/2020 6:00:00 PM 9.67 49.406 0.196 7.48 3.27 10.59
11/6/2020 6:15:00 PM 9.59 49.262 0.196 7.47 2.46 10.57
11/6/2020 6:30:00 PM 9.53 49.154 0.197 7.49 2.18 10.53
11/6/2020 6:45:00 PM 9.47 49.046 0.196 7.49 2.34 10.49
11/6/2020 7:00:00 PM 9.42 48.956 0.196 7.46 2.49 10.44
11/6/2020 7:15:00 PM 9.36 48.848 0.196 7.45 2.25 10.43
11/6/2020 7:30:00 PM 9.32 48.776 0.196 7.47 2.27 10.38
11/6/2020 7:45:00 PM 9.28 48.704 0.196 7.45 2.19 10.36
11/6/2020 8:00:00 PM 9.24 48.632 0.196 7.44 2.27 10.34
11/6/2020 8:15:00 PM 9.2 48.56 0.196 7.47 2.4 10.33
11/6/2020 8:30:00 PM 9.16 48.488 0.196 7.45 2.22 10.3
11/6/2020 8:45:00 PM 9.13 48.434 0.196 7.44 2.3 10.3
11/6/2020 9:00:00 PM 9.09 48.362 0.191 7.42 3.36 10.27
11/6/2020 9:15:00 PM 9.06 48.308 0.196 7.43 2.31 10.26
11/6/2020 9:30:00 PM 9.04 48.272 0.131 7.41 2.69 10.23
11/6/2020 9:45:00 PM 9.01 48.218 0.196 7.41 2.43 10.22
11/6/2020 10:00:00 PM 8.98 48.164 0.196 7.42 2.34 10.21
11/6/2020 10:15:00 PM 8.95 48.11 0.196 7.43 2.28 10.16
11/6/2020 10:30:00 PM 8.94 48.092 0.196 7.43 2.23 10.16
11/6/2020 10:45:00 PM 8.91 48.038 0.196 7.43 2.24 10.13
11/6/2020 11:00:00 PM 8.88 47.984 0.196 7.43 2.62 10.14
11/6/2020 11:15:00 PM 8.85 47.93 0.196 7.42 2.17 10.12
11/6/2020 11:30:00 PM 8.83 47.894 0.196 7.39 2.68 10.07
11/6/2020 11:45:00 PM 8.79 47.822 0.196 7.39 2.08 10.07
11/7/2020 12:00:00 AM 8.76 47.768 0.196 7.39 2.33 10.05
11/7/2020 12:15:00 AM 8.72 47.696 0.196 7.42 2.22 9.95
11/7/2020 12:30:00 AM 8.7 47.66 0.196 7.41 2.36 10.05
11/7/2020 12:45:00 AM 8.66 47.588 0.196 7.41 2.41 9.98
11/7/2020 1:00:00 AM 8.63 47.534 0.196 7.41 2.26 10.02
11/7/2020 1:15:00 AM 8.61 47.498 0.196 7.37 2.83 10.02
11/7/2020 1:30:00 AM 8.57 47.426 0.196 7.41 2.49 10.04
11/7/2020 1:45:00 AM 8.53 47.354 0.196 7.41 2.31 10.05
11/7/2020 2:00:00 AM 8.5 47.3 0.196 7.38 2.47 10.06
11/7/2020 2:15:00 AM 8.45 47.21 0.196 7.4 2.4 10.03
11/7/2020 2:30:00 AM 8.41 47.138 0.196 7.4 2.33 10.02
11/7/2020 2:45:00 AM 8.36 47.048 0.196 7.37 2.48 10.07
11/7/2020 3:00:00 AM 8.31 46.958 0.197 7.37 2.4 10.06
11/7/2020 3:15:00 AM 8.26 46.868 0.197 7.4 2.34 10.02
11/7/2020 3:30:00 AM 8.21 46.778 0.197 7.36 2.69 10.08
11/7/2020 3:45:00 AM 8.15 46.67 0.197 7.37 2.33 10.11
11/7/2020 4:00:00 AM 8.09 46.562 0.197 7.4 2.69 10.09
11/7/2020 4:15:00 AM 8.02 46.436 0.197 7.4 2.54 10.12
11/7/2020 4:30:00 AM 7.96 46.328 0.197 7.39 2.46 10.17
11/7/2020 4:45:00 AM 7.89 46.202 0.197 7.37 2.44 10.15
11/7/2020 5:00:00 AM 7.82 46.076 0.197 7.4 2.45 10.2
11/7/2020 5:15:00 AM 7.75 45.95 0.197 7.39 2.41 10.22
11/7/2020 5:30:00 AM 7.67 45.806 0.197 7.35 2.91 10.23
11/7/2020 5:45:00 AM 7.61 45.698 0.197 7.39 2.42 10.26
11/7/2020 6:00:00 AM 7.53 45.554 0.197 7.39 2.42 10.28
11/7/2020 6:15:00 AM 7.46 45.428 0.198 7.39 2.45 10.3
11/7/2020 6:30:00 AM 7.38 45.284 0.198 7.39 2.35 10.36
11/7/2020 6:45:00 AM 7.31 45.158 0.198 7.39 2.43 10.38
11/7/2020 7:00:00 AM 7.24 45.032 0.198 7.36 2.3 10.35
11/7/2020 7:15:00 AM 7.17 44.906 0.198 7.38 2.32 10.42
11/7/2020 7:30:00 AM 7.12 44.816 0.198 7.4 2.79 10.52
11/7/2020 7:45:00 AM 7.08 44.744 0.198 7.36 2.9 10.62
11/7/2020 8:00:00 AM 7.07 44.726 0.194 7.38 2.85 10.74
11/7/2020 8:15:00 AM 7.08 44.744 0.198 7.4 2.63 10.84
11/7/2020 8:30:00 AM 7.13 44.834 0.198 7.43 2.11 10.95
11/7/2020 8:45:00 AM 7.19 44.942 0.198 7.44 2.11 11.03
11/7/2020 9:00:00 AM 7.3 45.14 0.197 7.46 2.08 11.11
11/7/2020 9:15:00 AM 7.42 45.356 0.197 7.43 2.09 11.16
11/7/2020 9:30:00 AM 7.59 45.662 0.197 7.49 2.06 11.26
11/7/2020 9:45:00 AM 7.78 46.004 0.197 7.46 2.09 11.33
11/7/2020 10:00:00 AM 7.99 46.382 0.197 7.5 2.05 11.39
11/7/2020 10:15:00 AM 8.22 46.796 0.197 7.5 2.02 11.4
11/7/2020 10:30:00 AM 8.48 47.264 0.197 7.49 2.05 11.44
11/7/2020 10:45:00 AM 8.7 47.66 0.197 7.52 2.08 11.48
11/7/2020 11:00:00 AM 8.96 48.128 0.197 7.51 2.02 11.47
11/7/2020 11:15:00 AM 9.23 48.614 0.197 7.55 2.02 11.52
11/7/2020 11:30:00 AM 9.46 49.028 0.197 7.55 2.02 11.48
11/7/2020 11:45:00 AM 9.7 49.46 0.196 7.56 2.04 11.55
11/7/2020 12:00:00 PM 9.97 49.946 0.196 7.56 2.01 11.54
11/7/2020 12:15:00 PM 10.22 50.396 0.196 7.53 2.04 11.55
11/7/2020 12:30:00 PM 10.44 50.792 0.196 7.56 2.6 11.56
11/7/2020 12:45:00 PM 10.66 51.188 0.196 7.56 2.59 11.56
11/7/2020 1:00:00 PM 10.84 51.512 0.196 7.57 2.62 11.58
11/7/2020 1:15:00 PM 10.98 51.764 0.194 7.58 2.58 11.56
11/7/2020 1:30:00 PM 11.11 51.998 0.196 7.58 2.56 11.55
11/7/2020 1:45:00 PM 11.19 52.142 0.196 7.61 1.97 11.53
11/7/2020 2:00:00 PM 11.27 52.286 0.196 7.62 2.06 11.52
11/7/2020 2:15:00 PM 11.29 52.322 0.196 7.63 2.04 11.47
11/7/2020 2:30:00 PM 11.32 52.376 0.196 7.64 2.03 11.44
11/7/2020 2:45:00 PM 11.3 52.34 0.196 7.6 2.56 11.41
11/7/2020 3:00:00 PM 11.23 52.214 0.195 7.61 2.58 11.41
11/7/2020 3:15:00 PM 11.17 52.106 0.19 7.61 2.6 11.4
11/7/2020 3:30:00 PM 11.1 51.98 0.195 7.6 2.51 11.35
11/7/2020 3:45:00 PM 10.96 51.728 0.196 7.64 2.02 11.31
11/7/2020 4:00:00 PM 10.8 51.44 0.196 7.59 2.58 11.28
11/7/2020 4:15:00 PM 10.65 51.17 0.196 7.59 2.53 11.22
11/7/2020 4:30:00 PM 10.51 50.918 0.195 7.57 2.61 11.14
11/7/2020 4:45:00 PM 10.37 50.666 0.196 7.56 2.62 11.05
11/7/2020 5:00:00 PM 10.23 50.414 0.196 7.55 2.16 10.97
11/7/2020 5:15:00 PM 10.08 50.144 0.196 7.53 2.61 10.87
11/7/2020 5:30:00 PM 9.97 49.946 0.196 7.52 2.04 10.8
11/7/2020 5:45:00 PM 9.86 49.748 0.196 7.53 2.08 10.73
11/7/2020 6:00:00 PM 9.74 49.532 0.196 7.48 2.6 10.62
11/7/2020 6:15:00 PM 9.67 49.406 0.196 7.51 2.28 10.58
11/7/2020 6:30:00 PM 9.58 49.244 0.196 7.47 2.68 10.53
11/7/2020 6:45:00 PM 9.51 49.118 0.196 7.5 2.08 10.53
11/7/2020 7:00:00 PM 9.44 48.992 0.195 7.46 2.3 10.5
11/7/2020 7:15:00 PM 9.38 48.884 0.172 7.46 2.54 10.47
11/7/2020 7:30:00 PM 9.33 48.794 0.196 7.45 2.06 10.44
11/7/2020 7:45:00 PM 9.27 48.686 0.195 7.44 2.62 10.4
11/7/2020 8:00:00 PM 9.22 48.596 0.196 7.44 2.62 10.39
11/7/2020 8:15:00 PM 9.17 48.506 0.195 7.44 2.6 10.39
11/7/2020 8:30:00 PM 9.12 48.416 0.195 7.46 2.08 10.38
11/7/2020 8:45:00 PM 9.06 48.308 0.195 7.43 2.76 10.37
11/7/2020 9:00:00 PM 9.02 48.236 0.195 7.43 2.07 10.34
11/7/2020 9:15:00 PM 8.96 48.128 0.191 7.42 2.64 10.32
11/7/2020 9:30:00 PM 8.92 48.056 0.195 7.41 2.64 10.31
11/7/2020 9:45:00 PM 8.88 47.984 0.195 7.41 2.1 10.28
11/7/2020 10:00:00 PM 8.83 47.894 0.195 7.44 2.07 10.26
11/7/2020 10:15:00 PM 8.79 47.822 0.195 7.4 2.07 10.25
11/7/2020 10:30:00 PM 8.74 47.732 0.195 7.4 2.62 10.23
11/7/2020 10:45:00 PM 8.71 47.678 0.195 7.43 2.11 10.22
11/7/2020 11:00:00 PM 8.67 47.606 0.195 7.39 2.1 10.17
11/7/2020 11:15:00 PM 8.62 47.516 0.097 7.38 2.32 10.17
11/7/2020 11:30:00 PM 8.59 47.462 0.195 7.41 2.07 10.16
11/7/2020 11:45:00 PM 8.56 47.408 0.195 7.39 2.08 10.15
11/8/2020 12:00:00 AM 8.52 47.336 0.195 7.4 2.05 10.16
11/8/2020 12:15:00 AM 8.49 47.282 0.195 7.36 2.62 10.14
11/8/2020 12:30:00 AM 8.46 47.228 0.195 7.4 2.06 10.15
11/8/2020 12:45:00 AM 8.42 47.156 0.195 7.4 2.08 10.13
11/8/2020 1:00:00 AM 8.39 47.102 0.195 7.38 2.69 10.13
11/8/2020 1:15:00 AM 8.35 47.03 0.195 7.39 2.08 10.13
11/8/2020 1:30:00 AM 8.31 46.958 0.195 7.37 2.55 10.11
11/8/2020 1:45:00 AM 8.28 46.904 0.195 7.39 2.13 10.12
11/8/2020 2:00:00 AM 8.24 46.832 0.192 7.36 2.66 10.11
11/8/2020 2:15:00 AM 8.2 46.76 0.195 7.39 2.25 10.11
11/8/2020 2:30:00 AM 8.15 46.67 0.195 7.36 2.7 10.11
11/8/2020 2:45:00 AM 8.11 46.598 0.196 7.4 2.1 10.09
11/8/2020 3:00:00 AM 8.06 46.508 0.196 7.37 2.11 10.11
11/8/2020 3:15:00 AM 8.02 46.436 0.196 7.39 2.08 10.1
11/8/2020 3:30:00 AM 7.97 46.346 0.196 7.36 2.13 10.11
11/8/2020 3:45:00 AM 7.92 46.256 0.196 7.35 2.66 10.13
11/8/2020 4:00:00 AM 7.87 46.166 0.196 7.37 2.12 10.15
11/8/2020 4:15:00 AM 7.82 46.076 0.196 7.39 2.22 10.15
11/8/2020 4:30:00 AM 7.77 45.986 0.196 7.36 2.12 10.18
11/8/2020 4:45:00 AM 7.73 45.914 0.196 7.36 2.11 10.2
11/8/2020 5:00:00 AM 7.73 45.914 0.196 7.36 2.13 10.2
11/8/2020 5:15:00 AM 7.72 45.896 0.18 7.35 3.12 10.23
11/8/2020 5:30:00 AM 7.71 45.878 0.197 7.35 2.14 10.24
11/8/2020 5:45:00 AM 7.68 45.824 0.197 7.39 2.11 10.25
11/8/2020 6:00:00 AM 7.64 45.752 0.197 7.39 2.13 10.28
11/8/2020 6:15:00 AM 7.6 45.68 0.197 7.39 2.08 10.29
11/8/2020 6:30:00 AM 7.55 45.59 0.197 7.36 2.1 10.29
11/8/2020 6:45:00 AM 7.51 45.518 0.197 7.39 2.11 10.33
11/8/2020 7:00:00 AM 7.48 45.464 0.197 7.39 2.08 10.36
11/8/2020 7:15:00 AM 7.45 45.41 0.197 7.4 2.05 10.38
11/8/2020 7:30:00 AM 7.41 45.338 0.197 7.36 2.11 10.41
11/8/2020 7:45:00 AM 7.38 45.284 0.197 7.37 2.17 10.49
11/8/2020 8:00:00 AM 7.34 45.212 0.197 7.39 2.07 10.55
11/8/2020 8:15:00 AM 7.3 45.14 0.197 7.4 2.28 10.64
11/8/2020 8:30:00 AM 7.34 45.212 0.197 7.4 2.06 10.79
11/8/2020 8:45:00 AM 7.38 45.284 0.197 7.44 2.18 10.94
11/8/2020 9:00:00 AM 7.44 45.392 0.197 7.45 2.09 11.01
11/8/2020 9:15:00 AM 7.48 45.464 0.196 7.46 2.19 11.1
11/8/2020 9:30:00 AM 7.54 45.572 0.196 7.44 2.11 11.19
11/8/2020 9:45:00 AM 7.7 45.86 0.196 7.45 2.52 11.29
11/8/2020 10:00:00 AM 7.97 46.346 0.196 7.45 2.62 11.39
11/8/2020 10:15:00 AM 8.19 46.742 0.196 7.51 2.49 11.42
11/8/2020 10:30:00 AM 8.49 47.282 0.196 7.49 2.15 11.54
11/8/2020 10:45:00 AM 8.73 47.714 0.196 7.53 2.04 11.54
11/8/2020 11:00:00 AM 8.98 48.164 0.196 7.52 2.03 11.56
11/8/2020 11:15:00 AM 9.24 48.632 0.186 7.53 2.54 11.61
11/8/2020 11:30:00 AM 9.48 49.064 0.196 7.54 2.1 11.61
11/8/2020 11:45:00 AM 9.79 49.622 0.196 7.54 2.63 11.63
11/8/2020 12:00:00 PM 10.01 50.018 0.196 7.58 2.06 11.6
11/8/2020 12:15:00 PM 10.25 50.45 0.196 7.57 1.99 11.64
11/8/2020 12:30:00 PM 10.47 50.846 0.195 7.58 2.6 11.65
11/8/2020 12:45:00 PM 10.63 51.134 0.195 7.61 2.13 11.67
11/8/2020 1:00:00 PM 10.79 51.422 0.195 7.58 2.02 11.68
11/8/2020 1:15:00 PM 10.94 51.692 0.195 7.6 2.57 11.67
11/8/2020 1:30:00 PM 11.05 51.89 0.195 7.64 2.01 11.67
11/8/2020 1:45:00 PM 11.13 52.034 0.195 7.6 2.52 11.68
11/8/2020 2:00:00 PM 11.17 52.106 0.195 7.63 2.03 11.64
11/8/2020 2:15:00 PM 11.2 52.16 0.195 7.62 2.02 11.65
11/8/2020 2:30:00 PM 11.14 52.052 0.195 7.63 2.14 11.68
11/8/2020 2:45:00 PM 11.11 51.998 0.194 7.59 2.62 11.64
11/8/2020 3:00:00 PM 11.04 51.872 0.195 7.6 3.87 11.61
11/8/2020 3:15:00 PM 10.98 51.764 0.195 7.61 2.61 11.63
11/8/2020 3:30:00 PM 10.9 51.62 0.118 7.61 2.41 11.57
11/8/2020 3:45:00 PM 10.73 51.314 0.194 7.62 2.27 11.54
11/8/2020 4:00:00 PM 10.58 51.044 0.195 7.6 1.96 11.5
11/8/2020 4:15:00 PM 10.41 50.738 0.195 7.62 2.56 11.43
11/8/2020 4:30:00 PM 10.28 50.504 0.195 7.59 28.46 11.3
11/8/2020 4:45:00 PM 10.14 50.252 0.195 7.55 4.53 11.24
11/8/2020 5:00:00 PM 9.98 49.964 0.194 7.54 3.23 11.15
11/8/2020 5:15:00 PM 9.84 49.712 0.194 7.52 3.28 11.05
11/8/2020 5:30:00 PM 9.74 49.532 0.195 7.52 2.66 10.97
11/8/2020 5:45:00 PM 9.62 49.316 0.195 7.54 2.65 10.89
11/8/2020 6:00:00 PM 9.52 49.136 0.195 7.49 2.69 10.81
11/8/2020 6:15:00 PM 9.43 48.974 0.195 7.51 2.64 10.76
11/8/2020 6:30:00 PM 9.35 48.83 0.195 7.51 2.66 10.72
11/8/2020 6:45:00 PM 9.27 48.686 0.195 7.48 2.76 10.68
11/8/2020 7:00:00 PM 9.21 48.578 0.195 7.5 2.73 10.65
11/8/2020 7:15:00 PM 9.14 48.452 0.195 7.49 2.74 10.63
11/8/2020 7:30:00 PM 9.08 48.344 0.195 7.46 2.66 10.6
11/8/2020 7:45:00 PM 9.03 48.254 0.195 7.46 2.65 10.56
11/8/2020 8:00:00 PM 8.98 48.164 0.195 7.47 2.7 10.54
11/8/2020 8:15:00 PM 8.93 48.074 0.194 7.44 2.81 10.54
11/8/2020 8:30:00 PM 8.87 47.966 0.194 7.44 3.21 10.54
11/8/2020 8:45:00 PM 8.82 47.876 0.194 7.43 2.68 10.53
11/8/2020 9:00:00 PM 8.78 47.804 0.194 7.45 2.89 10.49
11/8/2020 9:15:00 PM 8.73 47.714 0.194 7.44 2.66 10.48
11/8/2020 9:30:00 PM 8.68 47.624 0.194 7.42 2.65 10.47
11/8/2020 9:45:00 PM 8.64 47.552 0.194 7.45 3.04 10.45
11/8/2020 10:00:00 PM 8.59 47.462 0.194 7.4 3.27 10.45
11/8/2020 10:15:00 PM 8.54 47.372 0.194 7.44 2.35 10.43
11/8/2020 10:30:00 PM 8.5 47.3 0.194 7.39 2.96 10.41
11/8/2020 10:45:00 PM 8.46 47.228 0.194 7.41 4.27 10.38
11/8/2020 11:00:00 PM 8.42 47.156 0.194 7.39 3.24 10.36
11/8/2020 11:15:00 PM 8.39 47.102 0.194 7.39 2.33 10.35
11/8/2020 11:30:00 PM 8.35 47.03 0.194 7.38 2.91 10.34
11/8/2020 11:45:00 PM 8.32 46.976 0.194 7.39 2.34 10.34
11/9/2020 12:00:00 AM 8.28 46.904 0.194 7.38 2.95 10.32
11/9/2020 12:15:00 AM 8.25 46.85 0.194 7.4 2.36 10.29
11/9/2020 12:30:00 AM 8.22 46.796 0.194 7.38 2.31 10.28
11/9/2020 12:45:00 AM 8.19 46.742 0.194 7.38 2.9 10.27
11/9/2020 1:00:00 AM 8.16 46.688 0.194 7.4 2.36 10.24
11/9/2020 1:15:00 AM 8.13 46.634 0.194 7.39 2.35 10.25
11/9/2020 1:30:00 AM 8.1 46.58 0.193 7.37 3.02 10.23
11/9/2020 1:45:00 AM 8.07 46.526 0.194 7.4 2.35 10.22
11/9/2020 2:00:00 AM 8.03 46.454 0.194 7.36 2.98 10.21
11/9/2020 2:15:00 AM 8.01 46.418 0.194 7.36 2.39 10.21
11/9/2020 2:30:00 AM 7.97 46.346 0.194 7.39 2.35 10.21
11/9/2020 2:45:00 AM 7.93 46.274 0.194 7.39 2.37 10.2
11/9/2020 3:00:00 AM 7.89 46.202 0.194 7.39 2.35 10.22
11/9/2020 3:15:00 AM 7.85 46.13 0.194 7.4 2.39 10.21
11/9/2020 3:30:00 AM 7.85 46.13 0.194 7.36 2.35 10.22
11/9/2020 3:45:00 AM 7.84 46.112 0.194 7.4 2.39 10.22
11/9/2020 4:00:00 AM 7.81 46.058 0.194 7.36 2.36 10.23
11/9/2020 4:15:00 AM 7.8 46.04 0.194 7.38 2.35 10.24
11/9/2020 4:30:00 AM 7.8 46.04 0.194 7.4 2.36 10.21
11/9/2020 4:45:00 AM 7.8 46.04 0.195 7.37 2.39 10.25
11/9/2020 5:00:00 AM 7.77 45.986 0.195 7.36 2.41 10.25
11/9/2020 5:15:00 AM 7.7 45.86 0.183 7.37 3.01 10.27
11/9/2020 5:30:00 AM 7.67 45.806 0.195 7.39 2.37 10.29
11/9/2020 5:45:00 AM 7.65 45.77 0.195 7.38 2.36 10.3
11/9/2020 6:00:00 AM 7.62 45.716 0.195 7.39 2.36 10.29
11/9/2020 6:15:00 AM 7.58 45.644 0.195 7.38 2.4 10.3
11/9/2020 6:30:00 AM 7.55 45.59 0.195 7.37 2.41 10.31
11/9/2020 6:45:00 AM 7.52 45.536 0.196 7.39 2.91 10.34
11/9/2020 7:00:00 AM 7.5 45.5 0.196 7.39 2.3 10.35
11/9/2020 7:15:00 AM 7.49 45.482 0.196 7.37 2.29 10.4
11/9/2020 7:30:00 AM 7.48 45.464 0.196 7.37 2.26 10.39
11/9/2020 7:45:00 AM 7.48 45.464 0.196 7.4 2.29 10.45
11/9/2020 8:00:00 AM 7.49 45.482 0.196 7.4 2.32 10.51
11/9/2020 8:15:00 AM 7.51 45.518 0.196 7.42 2.46 10.67
11/9/2020 8:30:00 AM 7.52 45.536 0.196 7.43 2.24 10.76
11/9/2020 8:45:00 AM 7.56 45.608 0.196 7.42 2.21 10.88
11/9/2020 9:00:00 AM 7.6 45.68 0.196 7.46 2.23 10.99
11/9/2020 9:15:00 AM 7.67 45.806 0.196 7.44 2.21 11.11
11/9/2020 9:30:00 AM 7.77 45.986 0.196 7.46 2.28 11.23
11/9/2020 9:45:00 AM 7.88 46.184 0.196 7.46 2.23 11.31
11/9/2020 10:00:00 AM 8.07 46.526 0.196 7.48 2.22 11.34
11/9/2020 10:15:00 AM 8.32 46.976 0.195 7.49 2.19 11.38
11/9/2020 10:30:00 AM 8.6 47.48 0.195 7.54 2.18 11.44
11/9/2020 10:45:00 AM 8.85 47.93 0.195 7.52 2.19 11.48
11/9/2020 11:00:00 AM 9.11 48.398 0.195 7.54 2.19 11.56
11/9/2020 11:15:00 AM 9.43 48.974 0.195 7.58 36.62 11.7
11/9/2020 11:30:00 AM 9.65 49.37 0.195 7.59 4.18 11.7
11/9/2020 11:45:00 AM 9.93 49.874 0.195 7.56 3.53 11.71
11/9/2020 12:00:00 PM 10.16 50.288 0.121 7.59 3.13 11.75
11/9/2020 12:15:00 PM 10.41 50.738 0.195 7.6 2.77 11.74
11/9/2020 12:30:00 PM 10.66 51.188 0.193 7.6 3.29 11.76
11/9/2020 12:45:00 PM 10.86 51.548 0.195 7.62 2.74 11.74
11/9/2020 1:00:00 PM 11.01 51.818 0.193 7.63 3.31 11.71
11/9/2020 1:15:00 PM 11.16 52.088 0.195 7.63 3.23 11.76
11/9/2020 1:30:00 PM 11.27 52.286 0.194 7.64 3.23 11.78
11/9/2020 1:45:00 PM 11.36 52.448 0.192 7.65 3.23 11.76
11/9/2020 2:00:00 PM 11.43 52.574 0.194 7.69 2.77 11.74
11/9/2020 2:15:00 PM 11.43 52.574 0.194 7.68 2.69 11.74
11/9/2020 2:30:00 PM 11.44 52.592 0.194 7.67 3.34 11.73
11/9/2020 2:45:00 PM 11.4 52.52 0.194 7.67 3.41 11.71
11/9/2020 3:00:00 PM 11.3 52.34 0.194 7.67 2.98 11.62
11/9/2020 3:15:00 PM 11.23 52.214 0.194 7.68 3.27 11.68
11/9/2020 3:30:00 PM 11.17 52.106 0.194 7.68 2.96 11.67
11/9/2020 3:45:00 PM 11.02 51.836 0.194 7.67 2.56 11.62
11/9/2020 4:00:00 PM 10.88 51.584 0.189 7.67 3.01 11.58
11/9/2020 4:15:00 PM 10.72 51.296 0.194 7.64 2.86 11.46
11/9/2020 4:30:00 PM 10.59 51.062 0.194 7.65 1.93 11.4
11/9/2020 4:45:00 PM 10.42 50.756 0.194 7.61 2.54 11.32
11/9/2020 5:00:00 PM 10.25 50.45 0.194 7.63 1.95 11.15
11/9/2020 5:15:00 PM 10.11 50.198 0.194 7.61 1.98 11.07
11/9/2020 5:30:00 PM 9.97 49.946 0.194 7.59 1.92 10.96
11/9/2020 5:45:00 PM 9.86 49.748 0.194 7.54 1.95 10.87
11/9/2020 6:00:00 PM 9.74 49.532 0.194 7.52 2.5 10.78
11/9/2020 6:15:00 PM 9.64 49.352 0.194 7.51 1.97 10.7
11/9/2020 6:30:00 PM 9.56 49.208 0.194 7.49 2.67 10.69
11/9/2020 6:45:00 PM 9.48 49.064 0.194 7.49 1.96 10.62
11/9/2020 7:00:00 PM 9.41 48.938 0.194 7.49 1.99 10.6
11/9/2020 7:15:00 PM 9.35 48.83 0.194 7.5 1.98 10.56
11/9/2020 7:30:00 PM 9.3 48.74 0.194 7.48 1.94 10.55
11/9/2020 7:45:00 PM 9.25 48.65 0.194 7.48 1.98 10.5
11/9/2020 8:00:00 PM 9.19 48.542 0.194 7.48 2.11 10.48
11/9/2020 8:15:00 PM 9.14 48.452 0.194 7.45 2.06 10.48
11/9/2020 8:30:00 PM 9.09 48.362 0.194 7.45 2 10.44
11/9/2020 8:45:00 PM 9.05 48.29 0.194 7.47 2.01 10.43
11/9/2020 9:00:00 PM 9 48.2 0.194 7.43 1.99 10.41
11/9/2020 9:15:00 PM 8.95 48.11 0.193 7.43 2.51 10.42
11/9/2020 9:30:00 PM 8.91 48.038 0.193 7.44 2.05 10.37
11/9/2020 9:45:00 PM 8.87 47.966 0.193 7.42 2.04 10.37
11/9/2020 10:00:00 PM 8.83 47.894 0.193 7.44 2.08 10.32
11/9/2020 10:15:00 PM 8.79 47.822 0.193 7.44 1.96 10.32
11/9/2020 10:30:00 PM 8.76 47.768 0.193 7.4 2.12 10.31
11/9/2020 10:45:00 PM 8.72 47.696 0.193 7.44 2.02 10.28
11/9/2020 11:00:00 PM 8.69 47.642 0.193 7.4 2.07 10.27
11/9/2020 11:15:00 PM 8.66 47.588 0.193 7.43 2.04 10.26
11/9/2020 11:30:00 PM 8.64 47.552 0.193 7.42 2.04 10.24
11/9/2020 11:45:00 PM 8.61 47.498 0.193 7.42 2.02 10.22
11/10/2020 12:00:00 AM 8.58 47.444 0.193 7.42 2.07 10.2
11/10/2020 12:15:00 AM 8.55 47.39 0.193 7.4 2.15 10.19
11/10/2020 12:30:00 AM 8.53 47.354 0.193 7.4 1.98 10.18
11/10/2020 12:45:00 AM 8.5 47.3 0.193 7.38 2.15 10.17
11/10/2020 1:00:00 AM 8.47 47.246 0.193 7.41 2.11 10.16
11/10/2020 1:15:00 AM 8.45 47.21 0.193 7.41 2.02 10.12
11/10/2020 1:30:00 AM 8.42 47.156 0.193 7.41 2.05 10.13
11/10/2020 1:45:00 AM 8.39 47.102 0.193 7.4 2.06 10.13
11/10/2020 2:00:00 AM 8.37 47.066 0.193 7.36 2.71 10.11
11/10/2020 2:15:00 AM 8.34 47.012 0.193 7.35 2.69 10.13
11/10/2020 2:30:00 AM 8.32 46.976 0.193 7.4 2.05 10.1
11/10/2020 2:45:00 AM 8.29 46.922 0.193 7.36 2.01 10.09
11/10/2020 3:00:00 AM 8.26 46.868 0.193 7.38 1.99 10.1
11/10/2020 3:15:00 AM 8.25 46.85 0.193 7.39 2.05 10.09
11/10/2020 3:30:00 AM 8.23 46.814 0.193 7.38 2.08 10.1
11/10/2020 3:45:00 AM 8.2 46.76 0.193 7.35 2.64 10.1
11/10/2020 4:00:00 AM 8.18 46.724 0.193 7.36 2.03 10.1
11/10/2020 4:15:00 AM 8.19 46.742 0.193 7.38 2.06 10.11
11/10/2020 4:30:00 AM 8.21 46.778 0.193 7.38 2.02 10.11
11/10/2020 4:45:00 AM 8.22 46.796 0.193 7.36 2.1 10.1
11/10/2020 5:00:00 AM 8.23 46.814 0.193 7.39 2.05 10.11
11/10/2020 5:15:00 AM 8.23 46.814 0.186 7.36 2.61 10.11
11/10/2020 5:30:00 AM 8.24 46.832 0.193 7.35 2.06 10.11
11/10/2020 5:45:00 AM 8.25 46.85 0.193 7.4 2.05 10.12
11/10/2020 6:00:00 AM 8.26 46.868 0.193 7.38 2.04 10.12
11/10/2020 6:15:00 AM 8.26 46.868 0.194 7.39 2.04 10.11
11/10/2020 6:30:00 AM 8.26 46.868 0.194 7.36 2.08 10.12
11/10/2020 6:45:00 AM 8.26 46.868 0.194 7.36 2.03 10.1
11/10/2020 7:00:00 AM 8.26 46.868 0.194 7.4 2.07 10.13
11/10/2020 7:15:00 AM 8.26 46.868 0.194 7.39 2.04 10.15
11/10/2020 7:30:00 AM 8.27 46.886 0.194 7.39 1.98 10.19
11/10/2020 7:45:00 AM 8.28 46.904 0.194 7.38 2.04 10.25
11/10/2020 8:00:00 AM 8.29 46.922 0.194 7.39 2.04 10.32
11/10/2020 8:15:00 AM 8.31 46.958 0.194 7.43 2.02 10.41
11/10/2020 8:30:00 AM 8.34 47.012 0.194 7.43 2.14 10.52
11/10/2020 8:45:00 AM 8.38 47.084 0.194 7.46 2.04 10.66
11/10/2020 9:00:00 AM 8.43 47.174 0.194 7.44 2.05 10.76
11/10/2020 9:15:00 AM 8.51 47.318 0.194 7.44 2.56 10.89
11/10/2020 9:30:00 AM 8.58 47.444 0.194 7.47 2.01 10.99
11/10/2020 9:45:00 AM 8.67 47.606 0.194 7.52 1.99 11.11
11/10/2020 10:00:00 AM 8.78 47.804 0.194 7.54 2.01 11.22
11/10/2020 10:15:00 AM 8.97 48.146 0.194 7.53 2.05 11.32
11/10/2020 10:30:00 AM 9.2 48.56 0.194 7.56 2.02 11.37
11/10/2020 10:45:00 AM 9.48 49.064 0.194 7.54 2.62 11.44
11/10/2020 11:00:00 AM 9.71 49.478 0.194 7.58 1.98 11.44
11/10/2020 11:15:00 AM 9.95 49.91 0.194 7.6 2.01 11.45
11/10/2020 11:30:00 AM 10.27 50.486 0.195 7.56 2.73 11.5
11/10/2020 11:45:00 AM 10.52 50.936 0.194 7.62 2 11.55
11/10/2020 12:00:00 PM 10.79 51.422 0.194 7.59 2.53 11.58
11/10/2020 12:15:00 PM 11.05 51.89 0.194 7.61 2.52 11.61
11/10/2020 12:30:00 PM 11.32 52.376 0.194 7.62 2.66 11.56
11/10/2020 12:45:00 PM 11.53 52.754 0.194 7.63 2.58 11.63
11/10/2020 1:00:00 PM 11.72 53.096 0.194 7.64 2.52 11.64
11/10/2020 1:15:00 PM 11.87 53.366 0.194 7.7 2.23 11.65
11/10/2020 1:30:00 PM 12.02 53.636 0.194 7.67 2.22 11.64
11/10/2020 1:45:00 PM 12.14 53.852 0.193 7.68 2.49 11.63
11/10/2020 2:00:00 PM 12.23 54.014 0.193 7.68 2.24 11.62
11/10/2020 2:15:00 PM 12.27 54.086 0.193 7.73 1.95 11.59
11/10/2020 2:30:00 PM 12.28 54.104 0.193 7.73 1.97 11.58
11/10/2020 2:45:00 PM 12.26 54.068 0.193 7.71 1.89 11.54
11/10/2020 3:00:00 PM 12.2 53.96 0.193 7.72 2.47 11.52
11/10/2020 3:15:00 PM 12.11 53.798 0.176 7.7 2.44 11.46
11/10/2020 3:30:00 PM 11.98 53.564 0.193 7.73 2 11.41
11/10/2020 3:45:00 PM 11.77 53.186 0.193 7.72 1.87 11.32
11/10/2020 4:00:00 PM 11.59 52.862 0.192 7.67 2.52 11.27
11/10/2020 4:15:00 PM 11.44 52.592 0.189 7.66 2.55 11.18
11/10/2020 4:30:00 PM 11.32 52.376 0.193 7.64 2.46 11.07
11/10/2020 4:45:00 PM 11.21 52.178 0.193 7.66 1.91 10.96
11/10/2020 5:00:00 PM 11.05 51.89 0.193 7.59 3.05 10.82
11/10/2020 5:15:00 PM 10.97 51.746 0.192 7.58 3.78 10.69
11/10/2020 5:30:00 PM 10.88 51.584 0.193 7.56 2.52 10.62
11/10/2020 5:45:00 PM 10.79 51.422 0.193 7.54 2.46 10.57
11/10/2020 6:00:00 PM 10.71 51.278 0.193 7.57 1.97 10.47
11/10/2020 6:15:00 PM 10.64 51.152 0.193 7.51 2.5 10.41
11/10/2020 6:30:00 PM 10.59 51.062 0.193 7.54 1.95 10.35
11/10/2020 6:45:00 PM 10.56 51.008 0.098 7.49 2.28 10.3
11/10/2020 7:00:00 PM 10.55 50.99 0.193 7.52 2.02 10.27
11/10/2020 7:15:00 PM 10.57 51.026 0.193 7.48 2.5 10.22
11/10/2020 7:30:00 PM 10.57 51.026 0.193 7.48 2.53 10.19
11/10/2020 7:45:00 PM 10.54 50.972 0.193 7.46 2.43 10.14
11/10/2020 8:00:00 PM 10.52 50.936 0.193 7.45 2.6 10.1
11/10/2020 8:15:00 PM 10.5 50.9 0.193 7.46 2.54 10.06
11/10/2020 8:30:00 PM 10.48 50.864 0.191 7.45 2.52 10.04
11/10/2020 8:45:00 PM 10.45 50.81 0.191 7.45 2.56 10.01
11/10/2020 9:00:00 PM 10.42 50.756 0.192 7.44 2.52 9.97
11/10/2020 9:15:00 PM 10.4 50.72 0.192 7.44 2.45 9.95
11/10/2020 9:30:00 PM 10.37 50.666 0.192 7.45 2.29 9.93
11/10/2020 9:45:00 PM 10.34 50.612 0.192 7.44 1.98 9.91
11/10/2020 10:00:00 PM 10.32 50.576 0.192 7.41 2.49 9.9
11/10/2020 10:15:00 PM 10.3 50.54 0.192 7.45 2.24 9.88
11/10/2020 10:30:00 PM 10.27 50.486 0.192 7.41 2.57 9.86
11/10/2020 10:45:00 PM 10.25 50.45 0.192 7.41 2.58 9.83
11/10/2020 11:00:00 PM 10.23 50.414 0.192 7.45 1.96 9.81
11/10/2020 11:15:00 PM 10.21 50.378 0.192 7.42 1.97 9.81
11/10/2020 11:30:00 PM 10.19 50.342 0.192 7.41 2.05 9.78
11/10/2020 11:45:00 PM 10.17 50.306 0.192 7.43 2.05 9.74
11/11/2020 12:00:00 AM 10.15 50.27 0.192 7.39 2.59 9.73
11/11/2020 12:15:00 AM 10.13 50.234 0.192 7.4 2.15 9.7
11/11/2020 12:30:00 AM 10.11 50.198 0.192 7.4 2.72 9.66
11/11/2020 12:45:00 AM 10.09 50.162 0.191 7.42 2.02 9.67
11/11/2020 1:00:00 AM 10.07 50.126 0.191 7.42 2.03 9.65
11/11/2020 1:15:00 AM 10.06 50.108 0.191 7.38 2.01 9.64
11/11/2020 1:30:00 AM 10.04 50.072 0.191 7.4 1.95 9.61
11/11/2020 1:45:00 AM 10.03 50.054 0.191 7.41 1.97 9.6
11/11/2020 2:00:00 AM 10.02 50.036 0.191 7.37 2 9.6
11/11/2020 2:15:00 AM 10.01 50.018 0.19 7.37 2.56 9.56
11/11/2020 2:30:00 AM 10 50 0.191 7.4 2.06 9.56
11/11/2020 2:45:00 AM 10 50 0.191 7.36 2.03 9.53
11/11/2020 3:00:00 AM 9.99 49.982 0.191 7.36 2.53 9.53
11/11/2020 3:15:00 AM 9.99 49.982 0.191 7.37 2.02 9.52
11/11/2020 3:30:00 AM 9.98 49.964 0.191 7.39 2.06 9.51
11/11/2020 3:45:00 AM 9.97 49.946 0.192 7.39 2.01 9.5
11/11/2020 4:00:00 AM 9.96 49.928 0.191 7.35 2.6 9.49
11/11/2020 4:15:00 AM 9.95 49.91 0.192 7.39 1.97 9.48
11/11/2020 4:30:00 AM 9.96 49.928 0.192 7.38 2.03 9.48
11/11/2020 4:45:00 AM 9.95 49.91 0.192 7.36 2.04 9.46
11/11/2020 5:00:00 AM 9.97 49.946 0.192 7.35 2.57 9.47
11/11/2020 5:15:00 AM 10 50 0.192 7.34 2.48 9.48
11/11/2020 5:30:00 AM 10.02 50.036 0.192 7.38 2.02 9.48
11/11/2020 5:45:00 AM 10.04 50.072 0.192 7.36 2.46 9.48
11/11/2020 6:00:00 AM 10.06 50.108 0.192 7.36 2.05 9.47
11/11/2020 6:15:00 AM 10.07 50.126 0.119 7.35 2.38 9.46
11/11/2020 6:30:00 AM 10.1 50.18 0.192 7.38 2.07 9.45
11/11/2020 6:45:00 AM 10.12 50.216 0.192 7.35 2.6 9.48
11/11/2020 7:00:00 AM 10.14 50.252 0.192 7.35 2.96 9.46
11/11/2020 7:15:00 AM 10.16 50.288 0.193 7.34 2.98 9.47
11/11/2020 7:30:00 AM 10.18 50.324 0.193 7.37 2.02 9.48
11/11/2020 7:45:00 AM 10.21 50.378 0.193 7.36 2.63 9.5
11/11/2020 8:00:00 AM 10.23 50.414 0.192 7.38 2.21 9.5
11/11/2020 8:15:00 AM 10.27 50.486 0.187 7.36 3.04 9.63
11/11/2020 8:30:00 AM 10.32 50.576 0.184 7.41 2.22 9.77
11/11/2020 8:45:00 AM 10.33 50.594 0.185 7.41 2.27 9.75
11/11/2020 9:00:00 AM 10.35 50.63 0.184 7.38 2.18 9.79
11/11/2020 9:15:00 AM 10.36 50.648 0.182 7.38 2.93 9.8
11/11/2020 9:30:00 AM 10.38 50.684 0.182 7.38 2.25 9.8
11/11/2020 9:45:00 AM 10.39 50.702 0.182 7.38 2.87 9.83
11/11/2020 10:00:00 AM 10.41 50.738 0.181 7.39 2.83 9.91
11/11/2020 10:15:00 AM 10.39 50.702 0.181 7.43 2.22 9.92
11/11/2020 10:30:00 AM 10.4 50.72 0.182 7.38 3.03 10.01
11/11/2020 10:45:00 AM 10.39 50.702 0.183 7.39 2.94 10.05
11/11/2020 11:00:00 AM 10.38 50.684 0.183 7.39 2.99 10.11
11/11/2020 11:15:00 AM 10.39 50.702 0.184 7.38 9.36 10.11
11/11/2020 11:30:00 AM 10.37 50.666 0.183 7.38 11.62 10.17
11/11/2020 11:45:00 AM 10.34 50.612 0.185 7.4 11.63 10.22
11/11/2020 12:00:00 PM 10.35 50.63 0.186 7.42 13.29 10.24
11/11/2020 12:15:00 PM 10.39 50.702 0.184 7.37 27.46 10.25
11/11/2020 12:30:00 PM 10.51 50.918 0.187 7.4 31.15 10.27
11/11/2020 12:45:00 PM 10.64 51.152 0.19 7.32 79.09 10.24
11/11/2020 1:00:00 PM 10.98 51.764 0.198 7.27 89.72 10.08
11/11/2020 1:15:00 PM 11.12 52.016 0.209 7.21 93.26 9.85
11/11/2020 1:30:00 PM 11.24 52.232 0.203 7.21 108.83 9.87
11/11/2020 1:45:00 PM 11.18 52.124 0.193 7.27 116.76 10
11/11/2020 2:00:00 PM 11.14 52.052 0.176 7.32 150.05 10.09
11/11/2020 2:15:00 PM 11.2 52.16 0.156 7.24 203.67 10.07
11/11/2020 2:30:00 PM 11.22 52.196 0.141 7.23 263.56 10.07
11/11/2020 2:45:00 PM 11.18 52.124 0.099 7.22 81.19 10.11
11/11/2020 3:00:00 PM 11.16 52.088 0.131 7.24 303.24 10.14
11/11/2020 3:15:00 PM 11.12 52.016 0.136 7.29 310.11 10.14
11/11/2020 3:30:00 PM 11.14 52.052 0.139 7.34 259.24 10.16
11/11/2020 3:45:00 PM 11.23 52.214 0.138 7.33 259.91 10.13
11/11/2020 4:00:00 PM 11.28 52.304 0.133 7.25 251.44 10.12
11/11/2020 4:15:00 PM 11.28 52.304 0.128 7.2 274.61 10.13
11/11/2020 4:30:00 PM 11.28 52.304 0.123 7.17 246.02 10.14
11/11/2020 4:45:00 PM 11.28 52.304 0.119 7.15 143.32 10.15
11/11/2020 5:00:00 PM 11.31 52.358 0.117 7.12 185.61 10.14
11/11/2020 5:15:00 PM 11.37 52.466 0.116 7.1 182.97 10.13
11/11/2020 5:30:00 PM 11.45 52.61 0.116 7.08 175.18 10.11
11/11/2020 5:45:00 PM 11.53 52.754 0.117 7.15 150.65 10.1
11/11/2020 6:00:00 PM 11.61 52.898 0.117 7.1 150.12 10.09
11/11/2020 6:15:00 PM 11.67 53.006 0.115 7.08 148.13 10.07
11/11/2020 6:30:00 PM 11.74 53.132 0.117 7.07 143.66 10.05
11/11/2020 6:45:00 PM 11.79 53.222 0.116 7.09 145.65 10.04
11/11/2020 7:00:00 PM 11.85 53.33 0.116 7.11 134.41 10.02
11/11/2020 7:15:00 PM 11.9 53.42 0.116 7.12 127.39 10.01
11/11/2020 7:30:00 PM 11.94 53.492 0.116 7.07 120.61 10.01
11/11/2020 7:45:00 PM 11.98 53.564 0.116 7.09 123.45 10
11/11/2020 8:00:00 PM 12 53.6 0.116 7.1 116.59 10
11/11/2020 8:15:00 PM 12.02 53.636 0.116 7.14 88.88 9.99
11/11/2020 8:30:00 PM 12.04 53.672 0.116 7.12 85.58 9.99
11/11/2020 8:45:00 PM 12.05 53.69 0.116 7.14 95.78 9.98
11/11/2020 9:00:00 PM 12.07 53.726 0.115 7.09 107.85 9.99
11/11/2020 9:15:00 PM 12.07 53.726 0.116 7.09 86.67 9.98
11/11/2020 9:30:00 PM 12.08 53.744 0.116 7.09 76.59 9.99
11/11/2020 9:45:00 PM 12.09 53.762 0.116 7.1 74.68 9.99
11/11/2020 10:00:00 PM 12.09 53.762 0.116 7.11 71.96 9.98
11/11/2020 10:15:00 PM 12.09 53.762 0.117 7.14 72.43 9.99
11/11/2020 10:30:00 PM 12.09 53.762 0.117 7.1 65.99 9.99
11/11/2020 10:45:00 PM 12.09 53.762 0.117 7.1 66.74 10
11/11/2020 11:00:00 PM 12.09 53.762 0.116 7.11 62.21 10
11/11/2020 11:15:00 PM 12.09 53.762 0.117 7.17 57.24 10
11/11/2020 11:30:00 PM 12.09 53.762 0.116 7.14 60.01 10.01
11/11/2020 11:45:00 PM 12.1 53.78 0.117 7.17 55.33 10.01
11/12/2020 12:00:00 AM 12.11 53.798 0.117 7.12 56.27 10
11/12/2020 12:15:00 AM 12.12 53.816 0.117 7.16 50.75 10.01
11/12/2020 12:30:00 AM 12.12 53.816 0.117 7.16 52.18 10.01
11/12/2020 12:45:00 AM 12.12 53.816 0.07 7.14 13.75 10.02
11/12/2020 1:00:00 AM 12.11 53.798 0.118 7.16 43.03 10.03
11/12/2020 1:15:00 AM 12.11 53.798 0.118 7.16 40.42 10.02
11/12/2020 1:30:00 AM 12.11 53.798 0.118 7.21 41.22 10.02
11/12/2020 1:45:00 AM 12.1 53.78 0.118 7.16 40.49 10.03
11/12/2020 2:00:00 AM 12.1 53.78 0.119 7.21 37.33 10.03
11/12/2020 2:15:00 AM 12.09 53.762 0.119 7.24 34.68 10.04
11/12/2020 2:30:00 AM 12.08 53.744 0.117 7.18 37.79 10.04
11/12/2020 2:45:00 AM 12.06 53.708 0.119 7.24 31.88 10.05
11/12/2020 3:00:00 AM 12.05 53.69 0.12 7.18 30.14 10.05
11/12/2020 3:15:00 AM 12.03 53.654 0.12 7.25 31.13 10.05
11/12/2020 3:30:00 AM 12.01 53.618 0.087 7.19 28.14 10.06
11/12/2020 3:45:00 AM 11.99 53.582 0.121 7.22 27.62 10.07
11/12/2020 4:00:00 AM 11.96 53.528 0.121 7.24 31.64 10.08
11/12/2020 4:15:00 AM 11.94 53.492 0.122 7.18 26.87 10.08
11/12/2020 4:30:00 AM 11.92 53.456 0.122 7.26 24.83 10.08
11/12/2020 4:45:00 AM 11.9 53.42 0.121 7.21 25.94 10.09
11/12/2020 5:00:00 AM 11.88 53.384 0.123 7.26 23.09 10.09
11/12/2020 5:15:00 AM 11.85 53.33 0.123 7.19 22.57 10.1
11/12/2020 5:30:00 AM 11.82 53.276 0.123 7.27 22.45 10.12
11/12/2020 5:45:00 AM 11.79 53.222 0.124 7.21 21.74 10.13
11/12/2020 6:00:00 AM 11.76 53.168 0.124 7.22 20.1 10.14
11/12/2020 6:15:00 AM 11.71 53.078 0.124 7.22 28.42 10.16
11/12/2020 6:30:00 AM 11.67 53.006 0.125 7.23 19.72 10.17
11/12/2020 6:45:00 AM 11.63 52.934 0.126 7.22 18.55 10.18
11/12/2020 7:00:00 AM 11.59 52.862 0.126 7.26 17.95 10.19
11/12/2020 7:15:00 AM 11.55 52.79 0.127 7.22 18.38 10.2
11/12/2020 7:30:00 AM 11.51 52.718 0.125 7.23 17.26 10.21
11/12/2020 7:45:00 AM 11.47 52.646 0.127 7.25 18.41 10.23
11/12/2020 8:00:00 AM 11.43 52.574 0.128 7.25 18.49 10.25
11/12/2020 8:15:00 AM 11.39 52.502 0.128 7.29 15.46 10.27
11/12/2020 8:30:00 AM 11.36 52.448 0.118 7.25 16.54 10.28
11/12/2020 8:45:00 AM 11.32 52.376 0.128 7.24 15.1 10.31
11/12/2020 9:00:00 AM 11.3 52.34 0.129 7.27 21.21 10.34
11/12/2020 9:15:00 AM 11.27 52.286 0.129 7.32 14.37 10.38
11/12/2020 9:30:00 AM 11.26 52.268 0.129 7.27 14.19 10.42
11/12/2020 9:45:00 AM 11.26 52.268 0.129 7.29 13.68 10.45
11/12/2020 10:00:00 AM 11.24 52.232 0.13 7.33 13.77 10.48
11/12/2020 10:15:00 AM 11.24 52.232 0.13 7.34 13.81 10.52
11/12/2020 10:30:00 AM 11.25 52.25 0.13 7.29 12.68 10.55
11/12/2020 10:45:00 AM 11.27 52.286 0.131 7.35 14.44 10.57
11/12/2020 11:00:00 AM 11.28 52.304 0.131 7.32 13.85 10.59
11/12/2020 11:15:00 AM 11.31 52.358 0.131 7.33 13.06 10.61
11/12/2020 11:30:00 AM 11.35 52.43 0.131 7.35 12.38 10.63
11/12/2020 11:45:00 AM 11.38 52.484 0.132 7.34 12.02 10.64
11/12/2020 12:00:00 PM 11.4 52.52 0.132 7.35 11.87 10.64
11/12/2020 12:15:00 PM 11.41 52.538 0.132 7.38 12.15 10.66
11/12/2020 12:30:00 PM 11.43 52.574 0.132 7.36 12.18 10.66
11/12/2020 12:45:00 PM 11.42 52.556 0.132 7.38 11.17 10.66
11/12/2020 1:00:00 PM 11.42 52.556 0.133 7.4 10.92 10.64
11/12/2020 1:15:00 PM 11.42 52.556 0.134 7.35 10.7 10.64
11/12/2020 1:30:00 PM 11.41 52.538 0.134 7.38 11.64 10.65
11/12/2020 1:45:00 PM 11.39 52.502 0.134 7.37 11.23 10.65
11/12/2020 2:00:00 PM 11.37 52.466 0.134 7.38 10.92 10.66
11/12/2020 2:15:00 PM 11.36 52.448 0.135 7.39 10.65 10.66
11/12/2020 2:30:00 PM 11.34 52.412 0.135 7.37 10.46 10.66
11/12/2020 2:45:00 PM 11.33 52.394 0.135 7.38 10.17 10.66
11/12/2020 3:00:00 PM 11.29 52.322 0.135 7.43 9.35 10.67
11/12/2020 3:15:00 PM 11.25 52.25 0.135 7.38 10.1 10.67
11/12/2020 3:30:00 PM 11.22 52.196 0.136 7.39 10.14 10.67
11/12/2020 3:45:00 PM 11.18 52.124 0.136 7.38 10.14 10.67
11/12/2020 4:00:00 PM 11.14 52.052 0.137 7.38 9.72 10.65
11/12/2020 4:15:00 PM 11.09 51.962 0.137 7.38 9.71 10.66
11/12/2020 4:30:00 PM 11.03 51.854 0.137 7.39 10.13 10.63
11/12/2020 4:45:00 PM 10.97 51.746 0.137 7.37 10.87 10.6
11/12/2020 5:00:00 PM 10.89 51.602 0.137 7.37 10.96 10.6
11/12/2020 5:15:00 PM 10.81 51.458 0.138 7.35 10.91 10.58
11/12/2020 5:30:00 PM 10.73 51.314 0.138 7.4 10.07 10.57
11/12/2020 5:45:00 PM 10.66 51.188 0.138 7.34 9.81 10.56
11/12/2020 6:00:00 PM 10.57 51.026 0.138 7.39 8.81 10.58
11/12/2020 6:15:00 PM 10.48 50.864 0.139 7.31 10.17 10.57
11/12/2020 6:30:00 PM 10.38 50.684 0.139 7.33 9.38 10.57
11/12/2020 6:45:00 PM 10.28 50.504 0.139 7.37 10.03 10.57
11/12/2020 7:00:00 PM 10.18 50.324 0.139 7.32 10.48 10.59
11/12/2020 7:15:00 PM 10.09 50.162 0.14 7.36 11.42 10.61
11/12/2020 7:30:00 PM 10 50 0.127 7.31 10.37 10.63
11/12/2020 7:45:00 PM 9.91 49.838 0.14 7.34 9.75 10.65
11/12/2020 8:00:00 PM 9.82 49.676 0.14 7.33 9.37 10.66
11/12/2020 8:15:00 PM 9.74 49.532 0.141 7.3 44.35 10.66
11/12/2020 8:30:00 PM 9.65 49.37 0.141 7.35 9.17 10.69
11/12/2020 8:45:00 PM 9.56 49.208 0.141 7.35 8.43 10.72
11/12/2020 9:00:00 PM 9.47 49.046 0.141 7.34 8.38 10.76
11/12/2020 9:15:00 PM 9.38 48.884 0.136 7.31 8.87 10.77
11/12/2020 9:30:00 PM 9.3 48.74 0.141 7.29 9.35 10.8
11/12/2020 9:45:00 PM 9.21 48.578 0.142 7.34 8.12 10.81
11/12/2020 10:00:00 PM 9.12 48.416 0.142 7.34 7.64 10.83
11/12/2020 10:15:00 PM 9.03 48.254 0.142 7.29 8.29 10.87
11/12/2020 10:30:00 PM 8.95 48.11 0.143 7.33 8.09 10.89
11/12/2020 10:45:00 PM 8.86 47.948 0.142 7.31 7.88 10.92
11/12/2020 11:00:00 PM 8.77 47.786 0.142 7.34 7.56 10.95
11/12/2020 11:15:00 PM 8.69 47.642 0.143 7.34 7.87 10.96
11/12/2020 11:30:00 PM 8.61 47.498 0.143 7.29 7.85 10.98
11/12/2020 11:45:00 PM 8.53 47.354 0.143 7.34 7.06 11.01
11/13/2020 12:00:00 AM 8.45 47.21 0.143 7.3 7.71 11.04
11/13/2020 12:15:00 AM 8.41 47.138 0.144 7.34 7.54 11.06
11/13/2020 12:30:00 AM 8.34 47.012 0.144 7.34 7.39 11.08
11/13/2020 12:45:00 AM 8.28 46.904 0.144 7.32 7.49 11.11
11/13/2020 1:00:00 AM 8.22 46.796 0.144 7.31 7.34 11.12
11/13/2020 1:15:00 AM 8.16 46.688 0.145 7.3 7.36 11.15
11/13/2020 1:30:00 AM 8.11 46.598 0.145 7.31 7.32 11.17
11/13/2020 1:45:00 AM 8.05 46.49 0.145 7.35 7.43 11.18
11/13/2020 2:00:00 AM 8 46.4 0.145 7.35 6.92 11.19
11/13/2020 2:15:00 AM 7.94 46.292 0.145 7.31 6.8 11.22
11/13/2020 2:30:00 AM 7.88 46.184 0.145 7.3 7.52 11.22
11/13/2020 2:45:00 AM 7.82 46.076 0.145 7.34 7.02 11.25
11/13/2020 3:00:00 AM 7.77 45.986 0.145 7.34 6.79 11.27
11/13/2020 3:15:00 AM 7.7 45.86 0.145 7.28 7.01 11.3
11/13/2020 3:30:00 AM 7.64 45.752 0.145 7.27 6.79 11.33
11/13/2020 3:45:00 AM 7.59 45.662 0.145 7.25 6.8 11.35
11/13/2020 4:00:00 AM 7.53 45.554 0.145 7.26 6.71 11.36
11/13/2020 4:15:00 AM 7.48 45.464 0.146 7.28 6.96 11.37
11/13/2020 4:30:00 AM 7.41 45.338 0.146 7.29 6.63 11.39
11/13/2020 4:45:00 AM 7.36 45.248 0.145 7.26 6.5 11.4
11/13/2020 5:00:00 AM 7.31 45.158 0.146 7.29 6.22 11.41
11/13/2020 5:15:00 AM 7.25 45.05 0.146 7.3 6.53 11.44
11/13/2020 5:30:00 AM 7.19 44.942 0.146 7.31 6.33 11.46
11/13/2020 5:45:00 AM 7.15 44.87 0.142 7.27 6.83 11.48
11/13/2020 6:00:00 AM 7.1 44.78 0.146 7.27 6.64 11.51
11/13/2020 6:15:00 AM 7.05 44.69 0.146 7.28 6.82 11.52
11/13/2020 6:30:00 AM 7.01 44.618 0.146 7.3 6.09 11.53
11/13/2020 6:45:00 AM 6.96 44.528 0.146 7.32 5.95 11.55
11/13/2020 7:00:00 AM 6.93 44.474 0.146 7.33 6.27 11.55
11/13/2020 7:15:00 AM 6.89 44.402 0.146 7.3 5.89 11.56
11/13/2020 7:30:00 AM 6.85 44.33 0.147 7.3 5.88 11.58
11/13/2020 7:45:00 AM 6.82 44.276 0.146 7.31 5.83 11.61
11/13/2020 8:00:00 AM 6.81 44.258 0.146 7.35 6.02 11.64
11/13/2020 8:15:00 AM 6.79 44.222 0.146 7.32 5.89 11.68
11/13/2020 8:30:00 AM 6.77 44.186 0.146 7.34 5.6 11.7
11/13/2020 8:45:00 AM 6.75 44.15 0.146 7.35 9.08 11.71
11/13/2020 9:00:00 AM 6.76 44.168 0.146 7.38 5.5 11.74
11/13/2020 9:15:00 AM 6.77 44.186 0.146 7.34 5.49 11.77
11/13/2020 9:30:00 AM 6.78 44.204 0.146 7.4 5.34